<?xml version="1.0" encoding="UTF-8" standalone="no" ?>
<gpx xmlns="http://www.topografix.com/GPX/1/1" xmlns:xsi="http://www.w3.org/2001/XMLSchema-instance" xsi:schemaLocation="http://www.topografix.com/GPX/1/1 http://www.topografix.com/GPX/1/1/gpx.xsd" version="1.1" creator="VisuGPX - https://www.visugpx.com">
  <metadata>
    <name>Foire des agnelles - 45 km</name>
    <desc><![CDATA[Foire des agnelles à Mens - Tour nord]]></desc>
  </metadata>
  <wpt lat="44.81501" lon="5.74869">
    <ele>769</ele>
    <name><![CDATA[VAE - Trièves nord]]></name>
    <type><![CDATA[Generic]]></type>
  </wpt>
  <trk>
    <name><![CDATA[VAE - Trièves nord on edp-parcours.com]]></name>
    <trkseg>
      <trkpt lat="44.81501" lon="5.74869">
        <ele>769</ele>
        <time>2017-08-08T10:13:54Z</time>
      </trkpt>
      <trkpt lat="44.81507" lon="5.74872">
        <ele>769</ele>
        <time>2017-08-08T10:13:57Z</time>
      </trkpt>
      <trkpt lat="44.81509" lon="5.7487">
        <ele>769</ele>
        <time>2017-08-08T10:14:07Z</time>
      </trkpt>
      <trkpt lat="44.81515" lon="5.74863">
        <ele>769</ele>
        <time>2017-08-08T10:14:12Z</time>
      </trkpt>
      <trkpt lat="44.8153" lon="5.74851">
        <ele>769</ele>
        <time>2017-08-08T10:14:26Z</time>
      </trkpt>
      <trkpt lat="44.81542" lon="5.74842">
        <ele>770</ele>
        <time>2017-08-08T10:14:31Z</time>
      </trkpt>
      <trkpt lat="44.81566" lon="5.74828">
        <ele>770</ele>
        <time>2017-08-08T10:14:45Z</time>
      </trkpt>
      <trkpt lat="44.81588" lon="5.74816">
        <ele>770</ele>
        <time>2017-08-08T10:15:03Z</time>
      </trkpt>
      <trkpt lat="44.81597" lon="5.74814">
        <ele>770</ele>
        <time>2017-08-08T10:15:06Z</time>
      </trkpt>
      <trkpt lat="44.81642" lon="5.74812">
        <ele>769</ele>
        <time>2017-08-08T10:15:20Z</time>
      </trkpt>
      <trkpt lat="44.81668" lon="5.74808">
        <ele>767</ele>
        <time>2017-08-08T10:15:27Z</time>
      </trkpt>
      <trkpt lat="44.81671" lon="5.74864">
        <ele>770</ele>
        <time>2017-08-08T10:15:37Z</time>
      </trkpt>
      <trkpt lat="44.81685" lon="5.75025">
        <ele>777</ele>
        <time>2017-08-08T10:15:51Z</time>
      </trkpt>
      <trkpt lat="44.81688" lon="5.75042">
        <ele>777</ele>
        <time>2017-08-08T10:16:09Z</time>
      </trkpt>
      <trkpt lat="44.81699" lon="5.75068">
        <ele>778</ele>
        <time>2017-08-08T10:16:12Z</time>
      </trkpt>
      <trkpt lat="44.81707" lon="5.75104">
        <ele>780</ele>
        <time>2017-08-08T10:16:31Z</time>
      </trkpt>
      <trkpt lat="44.81721" lon="5.75168">
        <ele>781</ele>
        <time>2017-08-08T10:16:49Z</time>
      </trkpt>
      <trkpt lat="44.81722" lon="5.75185">
        <ele>781</ele>
        <time>2017-08-08T10:17:02Z</time>
      </trkpt>
      <trkpt lat="44.81743" lon="5.7525">
        <ele>783</ele>
        <time>2017-08-08T10:17:17Z</time>
      </trkpt>
      <trkpt lat="44.81772" lon="5.75334">
        <ele>785</ele>
        <time>2017-08-08T10:17:36Z</time>
      </trkpt>
      <trkpt lat="44.81799" lon="5.7539">
        <ele>786</ele>
        <time>2017-08-08T10:17:55Z</time>
      </trkpt>
      <trkpt lat="44.81805" lon="5.75407">
        <ele>786</ele>
        <time>2017-08-08T10:17:57Z</time>
      </trkpt>
      <trkpt lat="44.81807" lon="5.75429">
        <ele>787</ele>
        <time>2017-08-08T10:18:06Z</time>
      </trkpt>
      <trkpt lat="44.81809" lon="5.75481">
        <ele>788</ele>
        <time>2017-08-08T10:18:11Z</time>
      </trkpt>
      <trkpt lat="44.818" lon="5.75549">
        <ele>790</ele>
        <time>2017-08-08T10:18:16Z</time>
      </trkpt>
      <trkpt lat="44.81791" lon="5.75603">
        <ele>792</ele>
        <time>2017-08-08T10:18:33Z</time>
      </trkpt>
      <trkpt lat="44.81784" lon="5.75658">
        <ele>793</ele>
        <time>2017-08-08T10:18:38Z</time>
      </trkpt>
      <trkpt lat="44.81794" lon="5.7567">
        <ele>794</ele>
        <time>2017-08-08T10:18:41Z</time>
      </trkpt>
      <trkpt lat="44.81821" lon="5.75688">
        <ele>794</ele>
        <time>2017-08-08T10:18:59Z</time>
      </trkpt>
      <trkpt lat="44.81854" lon="5.75706">
        <ele>793</ele>
        <time>2017-08-08T10:19:12Z</time>
      </trkpt>
      <trkpt lat="44.81872" lon="5.75715">
        <ele>793</ele>
        <time>2017-08-08T10:19:19Z</time>
      </trkpt>
      <trkpt lat="44.81896" lon="5.75733">
        <ele>793</ele>
        <time>2017-08-08T10:19:39Z</time>
      </trkpt>
      <trkpt lat="44.81918" lon="5.75757">
        <ele>793</ele>
        <time>2017-08-08T10:19:45Z</time>
      </trkpt>
      <trkpt lat="44.81943" lon="5.75786">
        <ele>792</ele>
        <time>2017-08-08T10:19:49Z</time>
      </trkpt>
      <trkpt lat="44.81984" lon="5.75832">
        <ele>792</ele>
        <time>2017-08-08T10:20:02Z</time>
      </trkpt>
      <trkpt lat="44.82033" lon="5.75887">
        <ele>792</ele>
        <time>2017-08-08T10:20:19Z</time>
      </trkpt>
      <trkpt lat="44.82276" lon="5.76153">
        <ele>803</ele>
        <time>2017-08-08T10:20:32Z</time>
      </trkpt>
      <trkpt lat="44.82446" lon="5.7634">
        <ele>816</ele>
        <time>2017-08-08T10:20:41Z</time>
      </trkpt>
      <trkpt lat="44.82524" lon="5.76429">
        <ele>823</ele>
        <time>2017-08-08T10:21:01Z</time>
      </trkpt>
      <trkpt lat="44.82578" lon="5.76488">
        <ele>822</ele>
        <time>2017-08-08T10:21:19Z</time>
      </trkpt>
      <trkpt lat="44.82702" lon="5.76623">
        <ele>827</ele>
        <time>2017-08-08T10:21:36Z</time>
      </trkpt>
      <trkpt lat="44.82824" lon="5.76758">
        <ele>833</ele>
        <time>2017-08-08T10:21:42Z</time>
      </trkpt>
      <trkpt lat="44.82879" lon="5.76818">
        <ele>835</ele>
        <time>2017-08-08T10:21:58Z</time>
      </trkpt>
      <trkpt lat="44.8293" lon="5.76871">
        <ele>836</ele>
        <time>2017-08-08T10:22:10Z</time>
      </trkpt>
      <trkpt lat="44.83036" lon="5.76987">
        <ele>836</ele>
        <time>2017-08-08T10:22:28Z</time>
      </trkpt>
      <trkpt lat="44.83097" lon="5.77047">
        <ele>841</ele>
        <time>2017-08-08T10:22:43Z</time>
      </trkpt>
      <trkpt lat="44.83129" lon="5.77073">
        <ele>842</ele>
        <time>2017-08-08T10:23:02Z</time>
      </trkpt>
      <trkpt lat="44.83145" lon="5.77083">
        <ele>843</ele>
        <time>2017-08-08T10:23:14Z</time>
      </trkpt>
      <trkpt lat="44.83163" lon="5.77089">
        <ele>845</ele>
        <time>2017-08-08T10:23:27Z</time>
      </trkpt>
      <trkpt lat="44.83181" lon="5.77092">
        <ele>846</ele>
        <time>2017-08-08T10:23:46Z</time>
      </trkpt>
      <trkpt lat="44.832" lon="5.77092">
        <ele>847</ele>
        <time>2017-08-08T10:24:04Z</time>
      </trkpt>
      <trkpt lat="44.83237" lon="5.77092">
        <ele>847</ele>
        <time>2017-08-08T10:24:10Z</time>
      </trkpt>
      <trkpt lat="44.83263" lon="5.77094">
        <ele>851</ele>
        <time>2017-08-08T10:24:24Z</time>
      </trkpt>
      <trkpt lat="44.83275" lon="5.77097">
        <ele>852</ele>
        <time>2017-08-08T10:24:31Z</time>
      </trkpt>
      <trkpt lat="44.83287" lon="5.77101">
        <ele>854</ele>
        <time>2017-08-08T10:24:36Z</time>
      </trkpt>
      <trkpt lat="44.83297" lon="5.77109">
        <ele>855</ele>
        <time>2017-08-08T10:24:52Z</time>
      </trkpt>
      <trkpt lat="44.83306" lon="5.77121">
        <ele>855</ele>
        <time>2017-08-08T10:25:11Z</time>
      </trkpt>
      <trkpt lat="44.83324" lon="5.77148">
        <ele>856</ele>
        <time>2017-08-08T10:25:26Z</time>
      </trkpt>
      <trkpt lat="44.83358" lon="5.77209">
        <ele>867</ele>
        <time>2017-08-08T10:25:36Z</time>
      </trkpt>
      <trkpt lat="44.83395" lon="5.7727">
        <ele>868</ele>
        <time>2017-08-08T10:25:42Z</time>
      </trkpt>
      <trkpt lat="44.83478" lon="5.77397">
        <ele>880</ele>
        <time>2017-08-08T10:25:57Z</time>
      </trkpt>
      <trkpt lat="44.83531" lon="5.77488">
        <ele>889</ele>
        <time>2017-08-08T10:26:16Z</time>
      </trkpt>
      <trkpt lat="44.83541" lon="5.77513">
        <ele>888</ele>
        <time>2017-08-08T10:26:31Z</time>
      </trkpt>
      <trkpt lat="44.83544" lon="5.77532">
        <ele>889</ele>
        <time>2017-08-08T10:26:44Z</time>
      </trkpt>
      <trkpt lat="44.83543" lon="5.77576">
        <ele>888</ele>
        <time>2017-08-08T10:27:03Z</time>
      </trkpt>
      <trkpt lat="44.83548" lon="5.77591">
        <ele>888</ele>
        <time>2017-08-08T10:27:16Z</time>
      </trkpt>
      <trkpt lat="44.83562" lon="5.77618">
        <ele>890</ele>
        <time>2017-08-08T10:27:24Z</time>
      </trkpt>
      <trkpt lat="44.8357" lon="5.77641">
        <ele>891</ele>
        <time>2017-08-08T10:27:40Z</time>
      </trkpt>
      <trkpt lat="44.83573" lon="5.77659">
        <ele>893</ele>
        <time>2017-08-08T10:27:55Z</time>
      </trkpt>
      <trkpt lat="44.83584" lon="5.77686">
        <ele>900</ele>
        <time>2017-08-08T10:28:14Z</time>
      </trkpt>
      <trkpt lat="44.83597" lon="5.77706">
        <ele>901</ele>
        <time>2017-08-08T10:28:22Z</time>
      </trkpt>
      <trkpt lat="44.83624" lon="5.77736">
        <ele>903</ele>
        <time>2017-08-08T10:28:28Z</time>
      </trkpt>
      <trkpt lat="44.83652" lon="5.77763">
        <ele>903</ele>
        <time>2017-08-08T10:28:36Z</time>
      </trkpt>
      <trkpt lat="44.83661" lon="5.77779">
        <ele>902</ele>
        <time>2017-08-08T10:28:44Z</time>
      </trkpt>
      <trkpt lat="44.83664" lon="5.77791">
        <ele>901</ele>
        <time>2017-08-08T10:29:00Z</time>
      </trkpt>
      <trkpt lat="44.8367" lon="5.77825">
        <ele>909</ele>
        <time>2017-08-08T10:29:14Z</time>
      </trkpt>
      <trkpt lat="44.83677" lon="5.77846">
        <ele>909</ele>
        <time>2017-08-08T10:29:18Z</time>
      </trkpt>
      <trkpt lat="44.83707" lon="5.77912">
        <ele>912</ele>
        <time>2017-08-08T10:29:31Z</time>
      </trkpt>
      <trkpt lat="44.83729" lon="5.77957">
        <ele>911</ele>
        <time>2017-08-08T10:29:38Z</time>
      </trkpt>
      <trkpt lat="44.83746" lon="5.7798">
        <ele>911</ele>
        <time>2017-08-08T10:29:56Z</time>
      </trkpt>
      <trkpt lat="44.83755" lon="5.77987">
        <ele>918</ele>
        <time>2017-08-08T10:30:06Z</time>
      </trkpt>
      <trkpt lat="44.83767" lon="5.77991">
        <ele>920</ele>
        <time>2017-08-08T10:30:20Z</time>
      </trkpt>
      <trkpt lat="44.83779" lon="5.77991">
        <ele>921</ele>
        <time>2017-08-08T10:30:28Z</time>
      </trkpt>
      <trkpt lat="44.83791" lon="5.77986">
        <ele>923</ele>
        <time>2017-08-08T10:30:30Z</time>
      </trkpt>
      <trkpt lat="44.8381" lon="5.77979">
        <ele>924</ele>
        <time>2017-08-08T10:30:43Z</time>
      </trkpt>
      <trkpt lat="44.8383" lon="5.77976">
        <ele>925</ele>
        <time>2017-08-08T10:30:55Z</time>
      </trkpt>
      <trkpt lat="44.83854" lon="5.77977">
        <ele>933</ele>
        <time>2017-08-08T10:31:14Z</time>
      </trkpt>
      <trkpt lat="44.83881" lon="5.77984">
        <ele>934</ele>
        <time>2017-08-08T10:31:33Z</time>
      </trkpt>
      <trkpt lat="44.83901" lon="5.77992">
        <ele>933</ele>
        <time>2017-08-08T10:31:49Z</time>
      </trkpt>
      <trkpt lat="44.83917" lon="5.78003">
        <ele>931</ele>
        <time>2017-08-08T10:31:51Z</time>
      </trkpt>
      <trkpt lat="44.83945" lon="5.78033">
        <ele>936</ele>
        <time>2017-08-08T10:31:54Z</time>
      </trkpt>
      <trkpt lat="44.83992" lon="5.78079">
        <ele>938</ele>
        <time>2017-08-08T10:32:03Z</time>
      </trkpt>
      <trkpt lat="44.8404" lon="5.78119">
        <ele>944</ele>
        <time>2017-08-08T10:32:07Z</time>
      </trkpt>
      <trkpt lat="44.84091" lon="5.78161">
        <ele>953</ele>
        <time>2017-08-08T10:32:11Z</time>
      </trkpt>
      <trkpt lat="44.84166" lon="5.78213">
        <ele>954</ele>
        <time>2017-08-08T10:32:14Z</time>
      </trkpt>
      <trkpt lat="44.84191" lon="5.78232">
        <ele>965</ele>
        <time>2017-08-08T10:32:19Z</time>
      </trkpt>
      <trkpt lat="44.84206" lon="5.7825">
        <ele>967</ele>
        <time>2017-08-08T10:32:37Z</time>
      </trkpt>
      <trkpt lat="44.84215" lon="5.78265">
        <ele>964</ele>
        <time>2017-08-08T10:32:43Z</time>
      </trkpt>
      <trkpt lat="44.84225" lon="5.7829">
        <ele>964</ele>
        <time>2017-08-08T10:32:57Z</time>
      </trkpt>
      <trkpt lat="44.84232" lon="5.78316">
        <ele>965</ele>
        <time>2017-08-08T10:33:03Z</time>
      </trkpt>
      <trkpt lat="44.84236" lon="5.78344">
        <ele>967</ele>
        <time>2017-08-08T10:33:23Z</time>
      </trkpt>
      <trkpt lat="44.84235" lon="5.78368">
        <ele>967</ele>
        <time>2017-08-08T10:33:27Z</time>
      </trkpt>
      <trkpt lat="44.84233" lon="5.78387">
        <ele>968</ele>
        <time>2017-08-08T10:33:45Z</time>
      </trkpt>
      <trkpt lat="44.84227" lon="5.78404">
        <ele>969</ele>
        <time>2017-08-08T10:34:02Z</time>
      </trkpt>
      <trkpt lat="44.84211" lon="5.78431">
        <ele>976</ele>
        <time>2017-08-08T10:34:13Z</time>
      </trkpt>
      <trkpt lat="44.84192" lon="5.78453">
        <ele>976</ele>
        <time>2017-08-08T10:34:29Z</time>
      </trkpt>
      <trkpt lat="44.8418" lon="5.78466">
        <ele>977</ele>
        <time>2017-08-08T10:34:45Z</time>
      </trkpt>
      <trkpt lat="44.84167" lon="5.78473">
        <ele>977</ele>
        <time>2017-08-08T10:34:54Z</time>
      </trkpt>
      <trkpt lat="44.84147" lon="5.7848">
        <ele>968</ele>
        <time>2017-08-08T10:35:09Z</time>
      </trkpt>
      <trkpt lat="44.84134" lon="5.78487">
        <ele>966</ele>
        <time>2017-08-08T10:35:28Z</time>
      </trkpt>
      <trkpt lat="44.8412" lon="5.78501">
        <ele>973</ele>
        <time>2017-08-08T10:35:31Z</time>
      </trkpt>
      <trkpt lat="44.84115" lon="5.78509">
        <ele>973</ele>
        <time>2017-08-08T10:35:49Z</time>
      </trkpt>
      <trkpt lat="44.84109" lon="5.78522">
        <ele>973</ele>
        <time>2017-08-08T10:35:51Z</time>
      </trkpt>
      <trkpt lat="44.84108" lon="5.78534">
        <ele>974</ele>
        <time>2017-08-08T10:36:07Z</time>
      </trkpt>
      <trkpt lat="44.84111" lon="5.78552">
        <ele>975</ele>
        <time>2017-08-08T10:36:10Z</time>
      </trkpt>
      <trkpt lat="44.84119" lon="5.78572">
        <ele>977</ele>
        <time>2017-08-08T10:36:24Z</time>
      </trkpt>
      <trkpt lat="44.84132" lon="5.78593">
        <ele>983</ele>
        <time>2017-08-08T10:36:43Z</time>
      </trkpt>
      <trkpt lat="44.84148" lon="5.78615">
        <ele>985</ele>
        <time>2017-08-08T10:36:54Z</time>
      </trkpt>
      <trkpt lat="44.84154" lon="5.78631">
        <ele>985</ele>
        <time>2017-08-08T10:37:13Z</time>
      </trkpt>
      <trkpt lat="44.84154" lon="5.7867">
        <ele>989</ele>
        <time>2017-08-08T10:37:26Z</time>
      </trkpt>
      <trkpt lat="44.84157" lon="5.78685">
        <ele>990</ele>
        <time>2017-08-08T10:37:28Z</time>
      </trkpt>
      <trkpt lat="44.84167" lon="5.78702">
        <ele>992</ele>
        <time>2017-08-08T10:37:34Z</time>
      </trkpt>
      <trkpt lat="44.84197" lon="5.78732">
        <ele>992</ele>
        <time>2017-08-08T10:37:46Z</time>
      </trkpt>
      <trkpt lat="44.84209" lon="5.78745">
        <ele>991</ele>
        <time>2017-08-08T10:37:57Z</time>
      </trkpt>
      <trkpt lat="44.84213" lon="5.78755">
        <ele>991</ele>
        <time>2017-08-08T10:38:13Z</time>
      </trkpt>
      <trkpt lat="44.84218" lon="5.78768">
        <ele>990</ele>
        <time>2017-08-08T10:38:29Z</time>
      </trkpt>
      <trkpt lat="44.8422" lon="5.78827">
        <ele>990</ele>
        <time>2017-08-08T10:38:48Z</time>
      </trkpt>
      <trkpt lat="44.84224" lon="5.78873">
        <ele>991</ele>
        <time>2017-08-08T10:39:08Z</time>
      </trkpt>
      <trkpt lat="44.84224" lon="5.78936">
        <ele>986</ele>
        <time>2017-08-08T10:39:15Z</time>
      </trkpt>
      <trkpt lat="44.84218" lon="5.78976">
        <ele>986</ele>
        <time>2017-08-08T10:39:19Z</time>
      </trkpt>
      <trkpt lat="44.84202" lon="5.79043">
        <ele>977</ele>
        <time>2017-08-08T10:39:23Z</time>
      </trkpt>
      <trkpt lat="44.84198" lon="5.79055">
        <ele>976</ele>
        <time>2017-08-08T10:39:25Z</time>
      </trkpt>
      <trkpt lat="44.84189" lon="5.79072">
        <ele>977</ele>
        <time>2017-08-08T10:39:39Z</time>
      </trkpt>
      <trkpt lat="44.84168" lon="5.79103">
        <ele>967</ele>
        <time>2017-08-08T10:39:57Z</time>
      </trkpt>
      <trkpt lat="44.84157" lon="5.79129">
        <ele>981</ele>
        <time>2017-08-08T10:39:59Z</time>
      </trkpt>
      <trkpt lat="44.84137" lon="5.79181">
        <ele>965</ele>
        <time>2017-08-08T10:40:12Z</time>
      </trkpt>
      <trkpt lat="44.84106" lon="5.79232">
        <ele>966</ele>
        <time>2017-08-08T10:40:24Z</time>
      </trkpt>
      <trkpt lat="44.8406" lon="5.79296">
        <ele>969</ele>
        <time>2017-08-08T10:40:35Z</time>
      </trkpt>
      <trkpt lat="44.83968" lon="5.79427">
        <ele>955</ele>
        <time>2017-08-08T10:40:39Z</time>
      </trkpt>
      <trkpt lat="44.83934" lon="5.79481">
        <ele>955</ele>
        <time>2017-08-08T10:40:48Z</time>
      </trkpt>
      <trkpt lat="44.83904" lon="5.79545">
        <ele>957</ele>
        <time>2017-08-08T10:40:58Z</time>
      </trkpt>
      <trkpt lat="44.83893" lon="5.79576">
        <ele>953</ele>
        <time>2017-08-08T10:41:09Z</time>
      </trkpt>
      <trkpt lat="44.83886" lon="5.79599">
        <ele>946</ele>
        <time>2017-08-08T10:41:23Z</time>
      </trkpt>
      <trkpt lat="44.83875" lon="5.79664">
        <ele>944</ele>
        <time>2017-08-08T10:41:33Z</time>
      </trkpt>
      <trkpt lat="44.83864" lon="5.79748">
        <ele>937</ele>
        <time>2017-08-08T10:41:41Z</time>
      </trkpt>
      <trkpt lat="44.83862" lon="5.79782">
        <ele>934</ele>
        <time>2017-08-08T10:41:57Z</time>
      </trkpt>
      <trkpt lat="44.83864" lon="5.79795">
        <ele>933</ele>
        <time>2017-08-08T10:42:12Z</time>
      </trkpt>
      <trkpt lat="44.83868" lon="5.79811">
        <ele>933</ele>
        <time>2017-08-08T10:42:28Z</time>
      </trkpt>
      <trkpt lat="44.83877" lon="5.79829">
        <ele>932</ele>
        <time>2017-08-08T10:42:36Z</time>
      </trkpt>
      <trkpt lat="44.83902" lon="5.79864">
        <ele>932</ele>
        <time>2017-08-08T10:42:48Z</time>
      </trkpt>
      <trkpt lat="44.8392" lon="5.79898">
        <ele>922</ele>
        <time>2017-08-08T10:42:57Z</time>
      </trkpt>
      <trkpt lat="44.83925" lon="5.79917">
        <ele>926</ele>
        <time>2017-08-08T10:43:06Z</time>
      </trkpt>
      <trkpt lat="44.83929" lon="5.79949">
        <ele>924</ele>
        <time>2017-08-08T10:43:18Z</time>
      </trkpt>
      <trkpt lat="44.83933" lon="5.79965">
        <ele>924</ele>
        <time>2017-08-08T10:43:26Z</time>
      </trkpt>
      <trkpt lat="44.83944" lon="5.79983">
        <ele>924</ele>
        <time>2017-08-08T10:43:31Z</time>
      </trkpt>
      <trkpt lat="44.83972" lon="5.80013">
        <ele>925</ele>
        <time>2017-08-08T10:43:38Z</time>
      </trkpt>
      <trkpt lat="44.84119" lon="5.8015">
        <ele>912</ele>
        <time>2017-08-08T10:43:56Z</time>
      </trkpt>
      <trkpt lat="44.84186" lon="5.80221">
        <ele>909</ele>
        <time>2017-08-08T10:43:59Z</time>
      </trkpt>
      <trkpt lat="44.84242" lon="5.80283">
        <ele>911</ele>
        <time>2017-08-08T10:44:18Z</time>
      </trkpt>
      <trkpt lat="44.84277" lon="5.80334">
        <ele>908</ele>
        <time>2017-08-08T10:44:20Z</time>
      </trkpt>
      <trkpt lat="44.84311" lon="5.80407">
        <ele>907</ele>
        <time>2017-08-08T10:44:31Z</time>
      </trkpt>
      <trkpt lat="44.84342" lon="5.80498">
        <ele>906</ele>
        <time>2017-08-08T10:44:40Z</time>
      </trkpt>
      <trkpt lat="44.84358" lon="5.80562">
        <ele>904</ele>
        <time>2017-08-08T10:44:52Z</time>
      </trkpt>
      <trkpt lat="44.84366" lon="5.80668">
        <ele>903</ele>
        <time>2017-08-08T10:45:02Z</time>
      </trkpt>
      <trkpt lat="44.8437" lon="5.80798">
        <ele>900</ele>
        <time>2017-08-08T10:45:15Z</time>
      </trkpt>
      <trkpt lat="44.84375" lon="5.80844">
        <ele>900</ele>
        <time>2017-08-08T10:45:33Z</time>
      </trkpt>
      <trkpt lat="44.84381" lon="5.80873">
        <ele>899</ele>
        <time>2017-08-08T10:45:42Z</time>
      </trkpt>
      <trkpt lat="44.84422" lon="5.81091">
        <ele>899</ele>
        <time>2017-08-08T10:45:55Z</time>
      </trkpt>
      <trkpt lat="44.84432" lon="5.81151">
        <ele>898</ele>
        <time>2017-08-08T10:46:07Z</time>
      </trkpt>
      <trkpt lat="44.84433" lon="5.81172">
        <ele>899</ele>
        <time>2017-08-08T10:46:15Z</time>
      </trkpt>
      <trkpt lat="44.84497" lon="5.81179">
        <ele>897</ele>
        <time>2017-08-08T10:46:23Z</time>
      </trkpt>
      <trkpt lat="44.84512" lon="5.81176">
        <ele>896</ele>
        <time>2017-08-08T10:46:25Z</time>
      </trkpt>
      <trkpt lat="44.84524" lon="5.81168">
        <ele>895</ele>
        <time>2017-08-08T10:46:27Z</time>
      </trkpt>
      <trkpt lat="44.84539" lon="5.81144">
        <ele>894</ele>
        <time>2017-08-08T10:46:34Z</time>
      </trkpt>
      <trkpt lat="44.84547" lon="5.81115">
        <ele>893</ele>
        <time>2017-08-08T10:46:45Z</time>
      </trkpt>
      <trkpt lat="44.84551" lon="5.81079">
        <ele>892</ele>
        <time>2017-08-08T10:46:55Z</time>
      </trkpt>
      <trkpt lat="44.84559" lon="5.8103">
        <ele>891</ele>
        <time>2017-08-08T10:47:14Z</time>
      </trkpt>
      <trkpt lat="44.84579" lon="5.80946">
        <ele>888</ele>
        <time>2017-08-08T10:47:25Z</time>
      </trkpt>
      <trkpt lat="44.8459" lon="5.80883">
        <ele>885</ele>
        <time>2017-08-08T10:47:29Z</time>
      </trkpt>
      <trkpt lat="44.84592" lon="5.80799">
        <ele>883</ele>
        <time>2017-08-08T10:47:33Z</time>
      </trkpt>
      <trkpt lat="44.84591" lon="5.80667">
        <ele>883</ele>
        <time>2017-08-08T10:47:47Z</time>
      </trkpt>
      <trkpt lat="44.84596" lon="5.80591">
        <ele>881</ele>
        <time>2017-08-08T10:47:54Z</time>
      </trkpt>
      <trkpt lat="44.84607" lon="5.80505">
        <ele>879</ele>
        <time>2017-08-08T10:48:01Z</time>
      </trkpt>
      <trkpt lat="44.84615" lon="5.80462">
        <ele>878</ele>
        <time>2017-08-08T10:48:03Z</time>
      </trkpt>
      <trkpt lat="44.84621" lon="5.80427">
        <ele>878</ele>
        <time>2017-08-08T10:48:21Z</time>
      </trkpt>
      <trkpt lat="44.84621" lon="5.80405">
        <ele>877</ele>
        <time>2017-08-08T10:48:29Z</time>
      </trkpt>
      <trkpt lat="44.84617" lon="5.8035">
        <ele>876</ele>
        <time>2017-08-08T10:48:33Z</time>
      </trkpt>
      <trkpt lat="44.84612" lon="5.80272">
        <ele>873</ele>
        <time>2017-08-08T10:48:43Z</time>
      </trkpt>
      <trkpt lat="44.84615" lon="5.80227">
        <ele>872</ele>
        <time>2017-08-08T10:48:51Z</time>
      </trkpt>
      <trkpt lat="44.84625" lon="5.80182">
        <ele>872</ele>
        <time>2017-08-08T10:48:54Z</time>
      </trkpt>
      <trkpt lat="44.84662" lon="5.80087">
        <ele>872</ele>
        <time>2017-08-08T10:49:04Z</time>
      </trkpt>
      <trkpt lat="44.84678" lon="5.80037">
        <ele>871</ele>
        <time>2017-08-08T10:49:09Z</time>
      </trkpt>
      <trkpt lat="44.8469" lon="5.80007">
        <ele>871</ele>
        <time>2017-08-08T10:49:27Z</time>
      </trkpt>
      <trkpt lat="44.84716" lon="5.79957">
        <ele>870</ele>
        <time>2017-08-08T10:49:35Z</time>
      </trkpt>
      <trkpt lat="44.84726" lon="5.79944">
        <ele>870</ele>
        <time>2017-08-08T10:49:49Z</time>
      </trkpt>
      <trkpt lat="44.84735" lon="5.79942">
        <ele>870</ele>
        <time>2017-08-08T10:50:04Z</time>
      </trkpt>
      <trkpt lat="44.84743" lon="5.79943">
        <ele>870</ele>
        <time>2017-08-08T10:50:09Z</time>
      </trkpt>
      <trkpt lat="44.84751" lon="5.79948">
        <ele>869</ele>
        <time>2017-08-08T10:50:15Z</time>
      </trkpt>
      <trkpt lat="44.84769" lon="5.79954">
        <ele>869</ele>
        <time>2017-08-08T10:50:32Z</time>
      </trkpt>
      <trkpt lat="44.84778" lon="5.79953">
        <ele>869</ele>
        <time>2017-08-08T10:50:40Z</time>
      </trkpt>
      <trkpt lat="44.84791" lon="5.79945">
        <ele>869</ele>
        <time>2017-08-08T10:50:57Z</time>
      </trkpt>
      <trkpt lat="44.84804" lon="5.79927">
        <ele>868</ele>
        <time>2017-08-08T10:51:05Z</time>
      </trkpt>
      <trkpt lat="44.8481" lon="5.79905">
        <ele>867</ele>
        <time>2017-08-08T10:51:12Z</time>
      </trkpt>
      <trkpt lat="44.84809" lon="5.79883">
        <ele>867</ele>
        <time>2017-08-08T10:51:27Z</time>
      </trkpt>
      <trkpt lat="44.84801" lon="5.79849">
        <ele>866</ele>
        <time>2017-08-08T10:51:47Z</time>
      </trkpt>
      <trkpt lat="44.84799" lon="5.79831">
        <ele>865</ele>
        <time>2017-08-08T10:52:00Z</time>
      </trkpt>
      <trkpt lat="44.84803" lon="5.79793">
        <ele>865</ele>
        <time>2017-08-08T10:52:12Z</time>
      </trkpt>
      <trkpt lat="44.84813" lon="5.79734">
        <ele>865</ele>
        <time>2017-08-08T10:52:14Z</time>
      </trkpt>
      <trkpt lat="44.84822" lon="5.7969">
        <ele>865</ele>
        <time>2017-08-08T10:52:33Z</time>
      </trkpt>
      <trkpt lat="44.84828" lon="5.79671">
        <ele>865</ele>
        <time>2017-08-08T10:52:43Z</time>
      </trkpt>
      <trkpt lat="44.8484" lon="5.79657">
        <ele>865</ele>
        <time>2017-08-08T10:52:48Z</time>
      </trkpt>
      <trkpt lat="44.84852" lon="5.7965">
        <ele>865</ele>
        <time>2017-08-08T10:53:08Z</time>
      </trkpt>
      <trkpt lat="44.84871" lon="5.79643">
        <ele>865</ele>
        <time>2017-08-08T10:53:22Z</time>
      </trkpt>
      <trkpt lat="44.84897" lon="5.79635">
        <ele>865</ele>
        <time>2017-08-08T10:53:33Z</time>
      </trkpt>
      <trkpt lat="44.84937" lon="5.79614">
        <ele>863</ele>
        <time>2017-08-08T10:53:51Z</time>
      </trkpt>
      <trkpt lat="44.84956" lon="5.79602">
        <ele>863</ele>
        <time>2017-08-08T10:53:57Z</time>
      </trkpt>
      <trkpt lat="44.84964" lon="5.79594">
        <ele>863</ele>
        <time>2017-08-08T10:54:17Z</time>
      </trkpt>
      <trkpt lat="44.84967" lon="5.7959">
        <ele>863</ele>
        <time>2017-08-08T10:54:21Z</time>
      </trkpt>
      <trkpt lat="44.84971" lon="5.79593">
        <ele>863</ele>
        <time>2017-08-08T10:54:25Z</time>
      </trkpt>
      <trkpt lat="44.84976" lon="5.79593">
        <ele>863</ele>
        <time>2017-08-08T10:54:30Z</time>
      </trkpt>
      <trkpt lat="44.85028" lon="5.79584">
        <ele>861</ele>
        <time>2017-08-08T10:54:36Z</time>
      </trkpt>
      <trkpt lat="44.85251" lon="5.79547">
        <ele>859</ele>
        <time>2017-08-08T10:54:49Z</time>
      </trkpt>
      <trkpt lat="44.85327" lon="5.79533">
        <ele>859</ele>
        <time>2017-08-08T10:55:01Z</time>
      </trkpt>
      <trkpt lat="44.85437" lon="5.79495">
        <ele>860</ele>
        <time>2017-08-08T10:55:13Z</time>
      </trkpt>
      <trkpt lat="44.8548" lon="5.79478">
        <ele>861</ele>
        <time>2017-08-08T10:55:27Z</time>
      </trkpt>
      <trkpt lat="44.85522" lon="5.79464">
        <ele>860</ele>
        <time>2017-08-08T10:55:35Z</time>
      </trkpt>
      <trkpt lat="44.85561" lon="5.79453">
        <ele>861</ele>
        <time>2017-08-08T10:55:52Z</time>
      </trkpt>
      <trkpt lat="44.85608" lon="5.79434">
        <ele>859</ele>
        <time>2017-08-08T10:56:09Z</time>
      </trkpt>
      <trkpt lat="44.85695" lon="5.79401">
        <ele>862</ele>
        <time>2017-08-08T10:56:17Z</time>
      </trkpt>
      <trkpt lat="44.85726" lon="5.79388">
        <ele>861</ele>
        <time>2017-08-08T10:56:28Z</time>
      </trkpt>
      <trkpt lat="44.85757" lon="5.7939">
        <ele>857</ele>
        <time>2017-08-08T10:56:34Z</time>
      </trkpt>
      <trkpt lat="44.85772" lon="5.7939">
        <ele>857</ele>
        <time>2017-08-08T10:56:38Z</time>
      </trkpt>
      <trkpt lat="44.85777" lon="5.79388">
        <ele>857</ele>
        <time>2017-08-08T10:56:44Z</time>
      </trkpt>
      <trkpt lat="44.85791" lon="5.79376">
        <ele>858</ele>
        <time>2017-08-08T10:57:02Z</time>
      </trkpt>
      <trkpt lat="44.85811" lon="5.79357">
        <ele>861</ele>
        <time>2017-08-08T10:57:19Z</time>
      </trkpt>
      <trkpt lat="44.85826" lon="5.79351">
        <ele>863</ele>
        <time>2017-08-08T10:57:27Z</time>
      </trkpt>
      <trkpt lat="44.85849" lon="5.79354">
        <ele>862</ele>
        <time>2017-08-08T10:57:37Z</time>
      </trkpt>
      <trkpt lat="44.85863" lon="5.79364">
        <ele>860</ele>
        <time>2017-08-08T10:57:52Z</time>
      </trkpt>
      <trkpt lat="44.85867" lon="5.79369">
        <ele>860</ele>
        <time>2017-08-08T10:58:12Z</time>
      </trkpt>
      <trkpt lat="44.85872" lon="5.7938">
        <ele>858</ele>
        <time>2017-08-08T10:58:31Z</time>
      </trkpt>
      <trkpt lat="44.85874" lon="5.79402">
        <ele>856</ele>
        <time>2017-08-08T10:58:41Z</time>
      </trkpt>
      <trkpt lat="44.85874" lon="5.79441">
        <ele>843</ele>
        <time>2017-08-08T10:58:51Z</time>
      </trkpt>
      <trkpt lat="44.85879" lon="5.7946">
        <ele>842</ele>
        <time>2017-08-08T10:59:01Z</time>
      </trkpt>
      <trkpt lat="44.85886" lon="5.79469">
        <ele>841</ele>
        <time>2017-08-08T10:59:16Z</time>
      </trkpt>
      <trkpt lat="44.85896" lon="5.79475">
        <ele>841</ele>
        <time>2017-08-08T10:59:23Z</time>
      </trkpt>
      <trkpt lat="44.85935" lon="5.79484">
        <ele>840</ele>
        <time>2017-08-08T10:59:28Z</time>
      </trkpt>
      <trkpt lat="44.85967" lon="5.79489">
        <ele>840</ele>
        <time>2017-08-08T10:59:39Z</time>
      </trkpt>
      <trkpt lat="44.86012" lon="5.79504">
        <ele>833</ele>
        <time>2017-08-08T10:59:42Z</time>
      </trkpt>
      <trkpt lat="44.86048" lon="5.79522">
        <ele>832</ele>
        <time>2017-08-08T10:59:57Z</time>
      </trkpt>
      <trkpt lat="44.86091" lon="5.79545">
        <ele>834</ele>
        <time>2017-08-08T11:00:02Z</time>
      </trkpt>
      <trkpt lat="44.86117" lon="5.79562">
        <ele>833</ele>
        <time>2017-08-08T11:00:06Z</time>
      </trkpt>
      <trkpt lat="44.86134" lon="5.79582">
        <ele>832</ele>
        <time>2017-08-08T11:00:19Z</time>
      </trkpt>
      <trkpt lat="44.8616" lon="5.79626">
        <ele>823</ele>
        <time>2017-08-08T11:00:25Z</time>
      </trkpt>
      <trkpt lat="44.86175" lon="5.79652">
        <ele>821</ele>
        <time>2017-08-08T11:00:44Z</time>
      </trkpt>
      <trkpt lat="44.86195" lon="5.79678">
        <ele>817</ele>
        <time>2017-08-08T11:00:48Z</time>
      </trkpt>
      <trkpt lat="44.86207" lon="5.79688">
        <ele>817</ele>
        <time>2017-08-08T11:01:05Z</time>
      </trkpt>
      <trkpt lat="44.86239" lon="5.79702">
        <ele>817</ele>
        <time>2017-08-08T11:01:11Z</time>
      </trkpt>
      <trkpt lat="44.86256" lon="5.79706">
        <ele>815</ele>
        <time>2017-08-08T11:01:31Z</time>
      </trkpt>
      <trkpt lat="44.86283" lon="5.79708">
        <ele>814</ele>
        <time>2017-08-08T11:01:38Z</time>
      </trkpt>
      <trkpt lat="44.86339" lon="5.79722">
        <ele>811</ele>
        <time>2017-08-08T11:01:50Z</time>
      </trkpt>
      <trkpt lat="44.86365" lon="5.79721">
        <ele>811</ele>
        <time>2017-08-08T11:01:57Z</time>
      </trkpt>
      <trkpt lat="44.8642" lon="5.79705">
        <ele>809</ele>
        <time>2017-08-08T11:02:08Z</time>
      </trkpt>
      <trkpt lat="44.86472" lon="5.79693">
        <ele>809</ele>
        <time>2017-08-08T11:02:11Z</time>
      </trkpt>
      <trkpt lat="44.86508" lon="5.79683">
        <ele>807</ele>
        <time>2017-08-08T11:02:27Z</time>
      </trkpt>
      <trkpt lat="44.8652" lon="5.79676">
        <ele>806</ele>
        <time>2017-08-08T11:02:47Z</time>
      </trkpt>
      <trkpt lat="44.86531" lon="5.79664">
        <ele>813</ele>
        <time>2017-08-08T11:02:54Z</time>
      </trkpt>
      <trkpt lat="44.8655" lon="5.79644">
        <ele>813</ele>
        <time>2017-08-08T11:03:13Z</time>
      </trkpt>
      <trkpt lat="44.86571" lon="5.79637">
        <ele>813</ele>
        <time>2017-08-08T11:03:16Z</time>
      </trkpt>
      <trkpt lat="44.86595" lon="5.79637">
        <ele>808</ele>
        <time>2017-08-08T11:03:34Z</time>
      </trkpt>
      <trkpt lat="44.86622" lon="5.79647">
        <ele>807</ele>
        <time>2017-08-08T11:03:40Z</time>
      </trkpt>
      <trkpt lat="44.86653" lon="5.79665">
        <ele>802</ele>
        <time>2017-08-08T11:03:49Z</time>
      </trkpt>
      <trkpt lat="44.8668" lon="5.79682">
        <ele>790</ele>
        <time>2017-08-08T11:03:59Z</time>
      </trkpt>
      <trkpt lat="44.86694" lon="5.79685">
        <ele>788</ele>
        <time>2017-08-08T11:04:11Z</time>
      </trkpt>
      <trkpt lat="44.86705" lon="5.79682">
        <ele>787</ele>
        <time>2017-08-08T11:04:24Z</time>
      </trkpt>
      <trkpt lat="44.86715" lon="5.79672">
        <ele>787</ele>
        <time>2017-08-08T11:04:40Z</time>
      </trkpt>
      <trkpt lat="44.86723" lon="5.79657">
        <ele>797</ele>
        <time>2017-08-08T11:04:45Z</time>
      </trkpt>
      <trkpt lat="44.86731" lon="5.79603">
        <ele>801</ele>
        <time>2017-08-08T11:04:48Z</time>
      </trkpt>
      <trkpt lat="44.86738" lon="5.79587">
        <ele>801</ele>
        <time>2017-08-08T11:04:53Z</time>
      </trkpt>
      <trkpt lat="44.86745" lon="5.79582">
        <ele>804</ele>
        <time>2017-08-08T11:05:00Z</time>
      </trkpt>
      <trkpt lat="44.86753" lon="5.79584">
        <ele>801</ele>
        <time>2017-08-08T11:05:15Z</time>
      </trkpt>
      <trkpt lat="44.86766" lon="5.79603">
        <ele>799</ele>
        <time>2017-08-08T11:05:18Z</time>
      </trkpt>
      <trkpt lat="44.86782" lon="5.79661">
        <ele>795</ele>
        <time>2017-08-08T11:05:30Z</time>
      </trkpt>
      <trkpt lat="44.86791" lon="5.79678">
        <ele>787</ele>
        <time>2017-08-08T11:05:39Z</time>
      </trkpt>
      <trkpt lat="44.86805" lon="5.79687">
        <ele>788</ele>
        <time>2017-08-08T11:05:57Z</time>
      </trkpt>
      <trkpt lat="44.86816" lon="5.79688">
        <ele>789</ele>
        <time>2017-08-08T11:06:16Z</time>
      </trkpt>
      <trkpt lat="44.86849" lon="5.79685">
        <ele>792</ele>
        <time>2017-08-08T11:06:20Z</time>
      </trkpt>
      <trkpt lat="44.86885" lon="5.79688">
        <ele>792</ele>
        <time>2017-08-08T11:06:29Z</time>
      </trkpt>
      <trkpt lat="44.8693" lon="5.79699">
        <ele>795</ele>
        <time>2017-08-08T11:06:34Z</time>
      </trkpt>
      <trkpt lat="44.86963" lon="5.79716">
        <ele>794</ele>
        <time>2017-08-08T11:06:47Z</time>
      </trkpt>
      <trkpt lat="44.87014" lon="5.79746">
        <ele>794</ele>
        <time>2017-08-08T11:07:01Z</time>
      </trkpt>
      <trkpt lat="44.87046" lon="5.79758">
        <ele>784</ele>
        <time>2017-08-08T11:07:18Z</time>
      </trkpt>
      <trkpt lat="44.8707" lon="5.79763">
        <ele>787</ele>
        <time>2017-08-08T11:07:32Z</time>
      </trkpt>
      <trkpt lat="44.87086" lon="5.79762">
        <ele>790</ele>
        <time>2017-08-08T11:07:34Z</time>
      </trkpt>
      <trkpt lat="44.87101" lon="5.79759">
        <ele>788</ele>
        <time>2017-08-08T11:07:53Z</time>
      </trkpt>
      <trkpt lat="44.87115" lon="5.79757">
        <ele>787</ele>
        <time>2017-08-08T11:07:59Z</time>
      </trkpt>
      <trkpt lat="44.87128" lon="5.79758">
        <ele>786</ele>
        <time>2017-08-08T11:08:10Z</time>
      </trkpt>
      <trkpt lat="44.87145" lon="5.79765">
        <ele>787</ele>
        <time>2017-08-08T11:08:19Z</time>
      </trkpt>
      <trkpt lat="44.87176" lon="5.79781">
        <ele>784</ele>
        <time>2017-08-08T11:08:34Z</time>
      </trkpt>
      <trkpt lat="44.87197" lon="5.79784">
        <ele>782</ele>
        <time>2017-08-08T11:08:39Z</time>
      </trkpt>
      <trkpt lat="44.8722" lon="5.79782">
        <ele>782</ele>
        <time>2017-08-08T11:08:54Z</time>
      </trkpt>
      <trkpt lat="44.87243" lon="5.79773">
        <ele>786</ele>
        <time>2017-08-08T11:09:13Z</time>
      </trkpt>
      <trkpt lat="44.8726" lon="5.79762">
        <ele>782</ele>
        <time>2017-08-08T11:09:19Z</time>
      </trkpt>
      <trkpt lat="44.87284" lon="5.79742">
        <ele>793</ele>
        <time>2017-08-08T11:09:21Z</time>
      </trkpt>
      <trkpt lat="44.87304" lon="5.79721">
        <ele>791</ele>
        <time>2017-08-08T11:09:31Z</time>
      </trkpt>
      <trkpt lat="44.87338" lon="5.79686">
        <ele>783</ele>
        <time>2017-08-08T11:09:39Z</time>
      </trkpt>
      <trkpt lat="44.87349" lon="5.7967">
        <ele>785</ele>
        <time>2017-08-08T11:09:51Z</time>
      </trkpt>
      <trkpt lat="44.87355" lon="5.79657">
        <ele>794</ele>
        <time>2017-08-08T11:10:05Z</time>
      </trkpt>
      <trkpt lat="44.87358" lon="5.79631">
        <ele>796</ele>
        <time>2017-08-08T11:10:24Z</time>
      </trkpt>
      <trkpt lat="44.8736" lon="5.7961">
        <ele>798</ele>
        <time>2017-08-08T11:10:43Z</time>
      </trkpt>
      <trkpt lat="44.87369" lon="5.79589">
        <ele>798</ele>
        <time>2017-08-08T11:10:49Z</time>
      </trkpt>
      <trkpt lat="44.8738" lon="5.79579">
        <ele>809</ele>
        <time>2017-08-08T11:10:57Z</time>
      </trkpt>
      <trkpt lat="44.87392" lon="5.79575">
        <ele>807</ele>
        <time>2017-08-08T11:11:14Z</time>
      </trkpt>
      <trkpt lat="44.87402" lon="5.79576">
        <ele>804</ele>
        <time>2017-08-08T11:11:31Z</time>
      </trkpt>
      <trkpt lat="44.8741" lon="5.7958">
        <ele>800</ele>
        <time>2017-08-08T11:11:43Z</time>
      </trkpt>
      <trkpt lat="44.87421" lon="5.79595">
        <ele>798</ele>
        <time>2017-08-08T11:11:48Z</time>
      </trkpt>
      <trkpt lat="44.87434" lon="5.7963">
        <ele>796</ele>
        <time>2017-08-08T11:11:53Z</time>
      </trkpt>
      <trkpt lat="44.87461" lon="5.79683">
        <ele>782</ele>
        <time>2017-08-08T11:12:07Z</time>
      </trkpt>
      <trkpt lat="44.87482" lon="5.79733">
        <ele>781</ele>
        <time>2017-08-08T11:12:16Z</time>
      </trkpt>
      <trkpt lat="44.87494" lon="5.79774">
        <ele>767</ele>
        <time>2017-08-08T11:12:28Z</time>
      </trkpt>
      <trkpt lat="44.875" lon="5.79795">
        <ele>775</ele>
        <time>2017-08-08T11:12:43Z</time>
      </trkpt>
      <trkpt lat="44.87507" lon="5.79803">
        <ele>778</ele>
        <time>2017-08-08T11:12:52Z</time>
      </trkpt>
      <trkpt lat="44.87516" lon="5.79807">
        <ele>778</ele>
        <time>2017-08-08T11:12:56Z</time>
      </trkpt>
      <trkpt lat="44.87532" lon="5.79811">
        <ele>779</ele>
        <time>2017-08-08T11:13:09Z</time>
      </trkpt>
      <trkpt lat="44.87578" lon="5.79825">
        <ele>780</ele>
        <time>2017-08-08T11:13:21Z</time>
      </trkpt>
      <trkpt lat="44.876" lon="5.79828">
        <ele>777</ele>
        <time>2017-08-08T11:13:38Z</time>
      </trkpt>
      <trkpt lat="44.87612" lon="5.79824">
        <ele>776</ele>
        <time>2017-08-08T11:13:54Z</time>
      </trkpt>
      <trkpt lat="44.87625" lon="5.79811">
        <ele>774</ele>
        <time>2017-08-08T11:14:14Z</time>
      </trkpt>
      <trkpt lat="44.87646" lon="5.79782">
        <ele>776</ele>
        <time>2017-08-08T11:14:22Z</time>
      </trkpt>
      <trkpt lat="44.87666" lon="5.7975">
        <ele>779</ele>
        <time>2017-08-08T11:14:38Z</time>
      </trkpt>
      <trkpt lat="44.87668" lon="5.79745">
        <ele>773</ele>
        <time>2017-08-08T11:14:58Z</time>
      </trkpt>
      <trkpt lat="44.87693" lon="5.79691">
        <ele>760</ele>
        <time>2017-08-08T11:15:03Z</time>
      </trkpt>
      <trkpt lat="44.87725" lon="5.7964">
        <ele>768</ele>
        <time>2017-08-08T11:15:10Z</time>
      </trkpt>
      <trkpt lat="44.87738" lon="5.79609">
        <ele>770</ele>
        <time>2017-08-08T11:15:17Z</time>
      </trkpt>
      <trkpt lat="44.87751" lon="5.79569">
        <ele>752</ele>
        <time>2017-08-08T11:15:27Z</time>
      </trkpt>
      <trkpt lat="44.87771" lon="5.79502">
        <ele>755</ele>
        <time>2017-08-08T11:15:31Z</time>
      </trkpt>
      <trkpt lat="44.87784" lon="5.79469">
        <ele>755</ele>
        <time>2017-08-08T11:15:49Z</time>
      </trkpt>
      <trkpt lat="44.87802" lon="5.79432">
        <ele>749</ele>
        <time>2017-08-08T11:15:52Z</time>
      </trkpt>
      <trkpt lat="44.87807" lon="5.79418">
        <ele>746</ele>
        <time>2017-08-08T11:16:02Z</time>
      </trkpt>
      <trkpt lat="44.8781" lon="5.79392">
        <ele>756</ele>
        <time>2017-08-08T11:16:11Z</time>
      </trkpt>
      <trkpt lat="44.87814" lon="5.79373">
        <ele>758</ele>
        <time>2017-08-08T11:16:25Z</time>
      </trkpt>
      <trkpt lat="44.8783" lon="5.79335">
        <ele>742</ele>
        <time>2017-08-08T11:16:38Z</time>
      </trkpt>
      <trkpt lat="44.87839" lon="5.79309">
        <ele>722</ele>
        <time>2017-08-08T11:16:46Z</time>
      </trkpt>
      <trkpt lat="44.87843" lon="5.79303">
        <ele>720</ele>
        <time>2017-08-08T11:16:53Z</time>
      </trkpt>
      <trkpt lat="44.87846" lon="5.79304">
        <ele>719</ele>
        <time>2017-08-08T11:16:57Z</time>
      </trkpt>
      <trkpt lat="44.87848" lon="5.79307">
        <ele>719</ele>
        <time>2017-08-08T11:17:14Z</time>
      </trkpt>
      <trkpt lat="44.87847" lon="5.79315">
        <ele>721</ele>
        <time>2017-08-08T11:17:24Z</time>
      </trkpt>
      <trkpt lat="44.87822" lon="5.79363">
        <ele>755</ele>
        <time>2017-08-08T11:17:34Z</time>
      </trkpt>
      <trkpt lat="44.87815" lon="5.7938">
        <ele>757</ele>
        <time>2017-08-08T11:17:52Z</time>
      </trkpt>
      <trkpt lat="44.87811" lon="5.79414">
        <ele>750</ele>
        <time>2017-08-08T11:18:04Z</time>
      </trkpt>
      <trkpt lat="44.87806" lon="5.79431">
        <ele>747</ele>
        <time>2017-08-08T11:18:07Z</time>
      </trkpt>
      <trkpt lat="44.87786" lon="5.79484">
        <ele>754</ele>
        <time>2017-08-08T11:18:18Z</time>
      </trkpt>
      <trkpt lat="44.87783" lon="5.79509">
        <ele>745</ele>
        <time>2017-08-08T11:18:34Z</time>
      </trkpt>
      <trkpt lat="44.87779" lon="5.79591">
        <ele>725</ele>
        <time>2017-08-08T11:18:43Z</time>
      </trkpt>
      <trkpt lat="44.87769" lon="5.79658">
        <ele>717</ele>
        <time>2017-08-08T11:18:50Z</time>
      </trkpt>
      <trkpt lat="44.87773" lon="5.79667">
        <ele>695</ele>
        <time>2017-08-08T11:19:07Z</time>
      </trkpt>
      <trkpt lat="44.87779" lon="5.79664">
        <ele>712</ele>
        <time>2017-08-08T11:19:21Z</time>
      </trkpt>
      <trkpt lat="44.87783" lon="5.79656">
        <ele>710</ele>
        <time>2017-08-08T11:19:28Z</time>
      </trkpt>
      <trkpt lat="44.87793" lon="5.79625">
        <ele>710</ele>
        <time>2017-08-08T11:19:45Z</time>
      </trkpt>
      <trkpt lat="44.87815" lon="5.79562">
        <ele>722</ele>
        <time>2017-08-08T11:19:50Z</time>
      </trkpt>
      <trkpt lat="44.87863" lon="5.79354">
        <ele>706</ele>
        <time>2017-08-08T11:19:55Z</time>
      </trkpt>
      <trkpt lat="44.87868" lon="5.7934">
        <ele>705</ele>
        <time>2017-08-08T11:20:12Z</time>
      </trkpt>
      <trkpt lat="44.87872" lon="5.79334">
        <ele>703</ele>
        <time>2017-08-08T11:20:28Z</time>
      </trkpt>
      <trkpt lat="44.87875" lon="5.79334">
        <ele>701</ele>
        <time>2017-08-08T11:20:39Z</time>
      </trkpt>
      <trkpt lat="44.8788" lon="5.79335">
        <ele>698</ele>
        <time>2017-08-08T11:20:56Z</time>
      </trkpt>
      <trkpt lat="44.87881" lon="5.79338">
        <ele>697</ele>
        <time>2017-08-08T11:21:16Z</time>
      </trkpt>
      <trkpt lat="44.87883" lon="5.79348">
        <ele>696</ele>
        <time>2017-08-08T11:21:29Z</time>
      </trkpt>
      <trkpt lat="44.8788" lon="5.79367">
        <ele>697</ele>
        <time>2017-08-08T11:21:43Z</time>
      </trkpt>
      <trkpt lat="44.87857" lon="5.79539">
        <ele>675</ele>
        <time>2017-08-08T11:21:52Z</time>
      </trkpt>
      <trkpt lat="44.8786" lon="5.79589">
        <ele>657</ele>
        <time>2017-08-08T11:22:08Z</time>
      </trkpt>
      <trkpt lat="44.87867" lon="5.79633">
        <ele>642</ele>
        <time>2017-08-08T11:22:25Z</time>
      </trkpt>
      <trkpt lat="44.87868" lon="5.79669">
        <ele>615</ele>
        <time>2017-08-08T11:22:32Z</time>
      </trkpt>
      <trkpt lat="44.87866" lon="5.79684">
        <ele>613</ele>
        <time>2017-08-08T11:22:38Z</time>
      </trkpt>
      <trkpt lat="44.87862" lon="5.79707">
        <ele>608</ele>
        <time>2017-08-08T11:22:53Z</time>
      </trkpt>
      <trkpt lat="44.87864" lon="5.79713">
        <ele>605</ele>
        <time>2017-08-08T11:23:04Z</time>
      </trkpt>
      <trkpt lat="44.87866" lon="5.79713">
        <ele>604</ele>
        <time>2017-08-08T11:23:10Z</time>
      </trkpt>
      <trkpt lat="44.8787" lon="5.79703">
        <ele>605</ele>
        <time>2017-08-08T11:23:30Z</time>
      </trkpt>
      <trkpt lat="44.87873" lon="5.7968">
        <ele>609</ele>
        <time>2017-08-08T11:23:38Z</time>
      </trkpt>
      <trkpt lat="44.87879" lon="5.79626">
        <ele>638</ele>
        <time>2017-08-08T11:23:52Z</time>
      </trkpt>
      <trkpt lat="44.87883" lon="5.79544">
        <ele>665</ele>
        <time>2017-08-08T11:24:09Z</time>
      </trkpt>
      <trkpt lat="44.87887" lon="5.79504">
        <ele>666</ele>
        <time>2017-08-08T11:24:28Z</time>
      </trkpt>
      <trkpt lat="44.87895" lon="5.79457">
        <ele>679</ele>
        <time>2017-08-08T11:24:35Z</time>
      </trkpt>
      <trkpt lat="44.87894" lon="5.79426">
        <ele>678</ele>
        <time>2017-08-08T11:24:39Z</time>
      </trkpt>
      <trkpt lat="44.87899" lon="5.79386">
        <ele>688</ele>
        <time>2017-08-08T11:24:43Z</time>
      </trkpt>
      <trkpt lat="44.87905" lon="5.79354">
        <ele>687</ele>
        <time>2017-08-08T11:24:46Z</time>
      </trkpt>
      <trkpt lat="44.87916" lon="5.79311">
        <ele>692</ele>
        <time>2017-08-08T11:24:58Z</time>
      </trkpt>
      <trkpt lat="44.87919" lon="5.79284">
        <ele>659</ele>
        <time>2017-08-08T11:25:18Z</time>
      </trkpt>
      <trkpt lat="44.87921" lon="5.79279">
        <ele>660</ele>
        <time>2017-08-08T11:25:31Z</time>
      </trkpt>
      <trkpt lat="44.87924" lon="5.79278">
        <ele>660</ele>
        <time>2017-08-08T11:25:34Z</time>
      </trkpt>
      <trkpt lat="44.87927" lon="5.7928">
        <ele>658</ele>
        <time>2017-08-08T11:25:48Z</time>
      </trkpt>
      <trkpt lat="44.87927" lon="5.79288">
        <ele>657</ele>
        <time>2017-08-08T11:26:05Z</time>
      </trkpt>
      <trkpt lat="44.87918" lon="5.79319">
        <ele>663</ele>
        <time>2017-08-08T11:26:14Z</time>
      </trkpt>
      <trkpt lat="44.87911" lon="5.79354">
        <ele>686</ele>
        <time>2017-08-08T11:26:28Z</time>
      </trkpt>
      <trkpt lat="44.87907" lon="5.79417">
        <ele>669</ele>
        <time>2017-08-08T11:26:46Z</time>
      </trkpt>
      <trkpt lat="44.87905" lon="5.79513">
        <ele>658</ele>
        <time>2017-08-08T11:27:01Z</time>
      </trkpt>
      <trkpt lat="44.87905" lon="5.79559">
        <ele>652</ele>
        <time>2017-08-08T11:27:06Z</time>
      </trkpt>
      <trkpt lat="44.87905" lon="5.79576">
        <ele>642</ele>
        <time>2017-08-08T11:27:19Z</time>
      </trkpt>
      <trkpt lat="44.87907" lon="5.79582">
        <ele>638</ele>
        <time>2017-08-08T11:27:23Z</time>
      </trkpt>
      <trkpt lat="44.8791" lon="5.79582">
        <ele>634</ele>
        <time>2017-08-08T11:27:35Z</time>
      </trkpt>
      <trkpt lat="44.87912" lon="5.7958">
        <ele>632</ele>
        <time>2017-08-08T11:27:38Z</time>
      </trkpt>
      <trkpt lat="44.87914" lon="5.79573">
        <ele>638</ele>
        <time>2017-08-08T11:27:53Z</time>
      </trkpt>
      <trkpt lat="44.87913" lon="5.79553">
        <ele>653</ele>
        <time>2017-08-08T11:27:55Z</time>
      </trkpt>
      <trkpt lat="44.87914" lon="5.79531">
        <ele>658</ele>
        <time>2017-08-08T11:28:01Z</time>
      </trkpt>
      <trkpt lat="44.87922" lon="5.79493">
        <ele>644</ele>
        <time>2017-08-08T11:28:04Z</time>
      </trkpt>
      <trkpt lat="44.8794" lon="5.79408">
        <ele>649</ele>
        <time>2017-08-08T11:28:23Z</time>
      </trkpt>
      <trkpt lat="44.87953" lon="5.79349">
        <ele>647</ele>
        <time>2017-08-08T11:28:35Z</time>
      </trkpt>
      <trkpt lat="44.87965" lon="5.79319">
        <ele>645</ele>
        <time>2017-08-08T11:28:45Z</time>
      </trkpt>
      <trkpt lat="44.87976" lon="5.79294">
        <ele>642</ele>
        <time>2017-08-08T11:28:48Z</time>
      </trkpt>
      <trkpt lat="44.87981" lon="5.79294">
        <ele>641</ele>
        <time>2017-08-08T11:29:03Z</time>
      </trkpt>
      <trkpt lat="44.87983" lon="5.79301">
        <ele>640</ele>
        <time>2017-08-08T11:29:14Z</time>
      </trkpt>
      <trkpt lat="44.8797" lon="5.79331">
        <ele>643</ele>
        <time>2017-08-08T11:29:27Z</time>
      </trkpt>
      <trkpt lat="44.87967" lon="5.79348">
        <ele>642</ele>
        <time>2017-08-08T11:29:35Z</time>
      </trkpt>
      <trkpt lat="44.87966" lon="5.79363">
        <ele>643</ele>
        <time>2017-08-08T11:29:38Z</time>
      </trkpt>
      <trkpt lat="44.87967" lon="5.79433">
        <ele>633</ele>
        <time>2017-08-08T11:29:56Z</time>
      </trkpt>
      <trkpt lat="44.87962" lon="5.79494">
        <ele>629</ele>
        <time>2017-08-08T11:30:07Z</time>
      </trkpt>
      <trkpt lat="44.87964" lon="5.79502">
        <ele>612</ele>
        <time>2017-08-08T11:30:09Z</time>
      </trkpt>
      <trkpt lat="44.87968" lon="5.79506">
        <ele>610</ele>
        <time>2017-08-08T11:30:25Z</time>
      </trkpt>
      <trkpt lat="44.87974" lon="5.79506">
        <ele>608</ele>
        <time>2017-08-08T11:30:40Z</time>
      </trkpt>
      <trkpt lat="44.87977" lon="5.79502">
        <ele>607</ele>
        <time>2017-08-08T11:30:57Z</time>
      </trkpt>
      <trkpt lat="44.8799" lon="5.79481">
        <ele>619</ele>
        <time>2017-08-08T11:31:05Z</time>
      </trkpt>
      <trkpt lat="44.88024" lon="5.79401">
        <ele>602</ele>
        <time>2017-08-08T11:31:08Z</time>
      </trkpt>
      <trkpt lat="44.88039" lon="5.79361">
        <ele>594</ele>
        <time>2017-08-08T11:31:25Z</time>
      </trkpt>
      <trkpt lat="44.88042" lon="5.7934">
        <ele>593</ele>
        <time>2017-08-08T11:31:43Z</time>
      </trkpt>
      <trkpt lat="44.88039" lon="5.79309">
        <ele>588</ele>
        <time>2017-08-08T11:32:02Z</time>
      </trkpt>
      <trkpt lat="44.8804" lon="5.79299">
        <ele>587</ele>
        <time>2017-08-08T11:32:12Z</time>
      </trkpt>
      <trkpt lat="44.88044" lon="5.7929">
        <ele>584</ele>
        <time>2017-08-08T11:32:21Z</time>
      </trkpt>
      <trkpt lat="44.88043" lon="5.79283">
        <ele>584</ele>
        <time>2017-08-08T11:32:25Z</time>
      </trkpt>
      <trkpt lat="44.8804" lon="5.79271">
        <ele>585</ele>
        <time>2017-08-08T11:32:39Z</time>
      </trkpt>
      <trkpt lat="44.8803" lon="5.79255">
        <ele>590</ele>
        <time>2017-08-08T11:32:55Z</time>
      </trkpt>
      <trkpt lat="44.88024" lon="5.79249">
        <ele>589</ele>
        <time>2017-08-08T11:33:09Z</time>
      </trkpt>
      <trkpt lat="44.87997" lon="5.79225">
        <ele>625</ele>
        <time>2017-08-08T11:33:27Z</time>
      </trkpt>
      <trkpt lat="44.8799" lon="5.79209">
        <ele>625</ele>
        <time>2017-08-08T11:33:34Z</time>
      </trkpt>
      <trkpt lat="44.8798" lon="5.79169">
        <ele>615</ele>
        <time>2017-08-08T11:33:54Z</time>
      </trkpt>
      <trkpt lat="44.87953" lon="5.79113">
        <ele>610</ele>
        <time>2017-08-08T11:33:58Z</time>
      </trkpt>
      <trkpt lat="44.87917" lon="5.79061">
        <ele>607</ele>
        <time>2017-08-08T11:34:13Z</time>
      </trkpt>
      <trkpt lat="44.87912" lon="5.79047">
        <ele>645</ele>
        <time>2017-08-08T11:34:32Z</time>
      </trkpt>
      <trkpt lat="44.87907" lon="5.79011">
        <ele>634</ele>
        <time>2017-08-08T11:34:44Z</time>
      </trkpt>
      <trkpt lat="44.87906" lon="5.78974">
        <ele>646</ele>
        <time>2017-08-08T11:34:57Z</time>
      </trkpt>
      <trkpt lat="44.8791" lon="5.7896">
        <ele>650</ele>
        <time>2017-08-08T11:35:16Z</time>
      </trkpt>
      <trkpt lat="44.87922" lon="5.78938">
        <ele>609</ele>
        <time>2017-08-08T11:35:24Z</time>
      </trkpt>
      <trkpt lat="44.87926" lon="5.78918">
        <ele>619</ele>
        <time>2017-08-08T11:35:30Z</time>
      </trkpt>
      <trkpt lat="44.87923" lon="5.78897">
        <ele>619</ele>
        <time>2017-08-08T11:35:49Z</time>
      </trkpt>
      <trkpt lat="44.87925" lon="5.78885">
        <ele>617</ele>
        <time>2017-08-08T11:35:51Z</time>
      </trkpt>
      <trkpt lat="44.87928" lon="5.78877">
        <ele>617</ele>
        <time>2017-08-08T11:36:05Z</time>
      </trkpt>
      <trkpt lat="44.87938" lon="5.78867">
        <ele>615</ele>
        <time>2017-08-08T11:36:25Z</time>
      </trkpt>
      <trkpt lat="44.8795" lon="5.78857">
        <ele>612</ele>
        <time>2017-08-08T11:36:30Z</time>
      </trkpt>
      <trkpt lat="44.87957" lon="5.78847">
        <ele>609</ele>
        <time>2017-08-08T11:36:34Z</time>
      </trkpt>
      <trkpt lat="44.8796" lon="5.78785">
        <ele>610</ele>
        <time>2017-08-08T11:36:37Z</time>
      </trkpt>
      <trkpt lat="44.87957" lon="5.78764">
        <ele>611</ele>
        <time>2017-08-08T11:36:50Z</time>
      </trkpt>
      <trkpt lat="44.8795" lon="5.7875">
        <ele>607</ele>
        <time>2017-08-08T11:36:55Z</time>
      </trkpt>
      <trkpt lat="44.87938" lon="5.78733">
        <ele>613</ele>
        <time>2017-08-08T11:37:03Z</time>
      </trkpt>
      <trkpt lat="44.8793" lon="5.78714">
        <ele>609</ele>
        <time>2017-08-08T11:37:16Z</time>
      </trkpt>
      <trkpt lat="44.87919" lon="5.78688">
        <ele>608</ele>
        <time>2017-08-08T11:37:23Z</time>
      </trkpt>
      <trkpt lat="44.87916" lon="5.78673">
        <ele>631</ele>
        <time>2017-08-08T11:37:38Z</time>
      </trkpt>
      <trkpt lat="44.87916" lon="5.78645">
        <ele>624</ele>
        <time>2017-08-08T11:37:54Z</time>
      </trkpt>
      <trkpt lat="44.87914" lon="5.78627">
        <ele>621</ele>
        <time>2017-08-08T11:38:14Z</time>
      </trkpt>
      <trkpt lat="44.87905" lon="5.78608">
        <ele>615</ele>
        <time>2017-08-08T11:38:29Z</time>
      </trkpt>
      <trkpt lat="44.8789" lon="5.78591">
        <ele>616</ele>
        <time>2017-08-08T11:38:33Z</time>
      </trkpt>
      <trkpt lat="44.87879" lon="5.78583">
        <ele>595</ele>
        <time>2017-08-08T11:38:38Z</time>
      </trkpt>
      <trkpt lat="44.87864" lon="5.78578">
        <ele>602</ele>
        <time>2017-08-08T11:38:54Z</time>
      </trkpt>
      <trkpt lat="44.87822" lon="5.78568">
        <ele>633</ele>
        <time>2017-08-08T11:39:13Z</time>
      </trkpt>
      <trkpt lat="44.8778" lon="5.78547">
        <ele>633</ele>
        <time>2017-08-08T11:39:16Z</time>
      </trkpt>
      <trkpt lat="44.87725" lon="5.78518">
        <ele>650</ele>
        <time>2017-08-08T11:39:21Z</time>
      </trkpt>
      <trkpt lat="44.87718" lon="5.78509">
        <ele>650</ele>
        <time>2017-08-08T11:39:33Z</time>
      </trkpt>
      <trkpt lat="44.87709" lon="5.78492">
        <ele>618</ele>
        <time>2017-08-08T11:39:37Z</time>
      </trkpt>
      <trkpt lat="44.87701" lon="5.78483">
        <ele>619</ele>
        <time>2017-08-08T11:39:46Z</time>
      </trkpt>
      <trkpt lat="44.87684" lon="5.78479">
        <ele>624</ele>
        <time>2017-08-08T11:39:52Z</time>
      </trkpt>
      <trkpt lat="44.87664" lon="5.78476">
        <ele>645</ele>
        <time>2017-08-08T11:40:10Z</time>
      </trkpt>
      <trkpt lat="44.87639" lon="5.78469">
        <ele>644</ele>
        <time>2017-08-08T11:40:16Z</time>
      </trkpt>
      <trkpt lat="44.87632" lon="5.78465">
        <ele>644</ele>
        <time>2017-08-08T11:40:34Z</time>
      </trkpt>
      <trkpt lat="44.8762" lon="5.78452">
        <ele>642</ele>
        <time>2017-08-08T11:40:52Z</time>
      </trkpt>
      <trkpt lat="44.87609" lon="5.78443">
        <ele>640</ele>
        <time>2017-08-08T11:40:54Z</time>
      </trkpt>
      <trkpt lat="44.876" lon="5.78441">
        <ele>640</ele>
        <time>2017-08-08T11:41:10Z</time>
      </trkpt>
      <trkpt lat="44.87585" lon="5.78446">
        <ele>642</ele>
        <time>2017-08-08T11:41:30Z</time>
      </trkpt>
      <trkpt lat="44.8757" lon="5.78448">
        <ele>663</ele>
        <time>2017-08-08T11:41:39Z</time>
      </trkpt>
      <trkpt lat="44.87555" lon="5.78437">
        <ele>663</ele>
        <time>2017-08-08T11:41:53Z</time>
      </trkpt>
      <trkpt lat="44.87533" lon="5.78433">
        <ele>668</ele>
        <time>2017-08-08T11:42:03Z</time>
      </trkpt>
      <trkpt lat="44.87516" lon="5.78421">
        <ele>667</ele>
        <time>2017-08-08T11:42:19Z</time>
      </trkpt>
      <trkpt lat="44.87501" lon="5.78396">
        <ele>642</ele>
        <time>2017-08-08T11:42:29Z</time>
      </trkpt>
      <trkpt lat="44.87487" lon="5.78373">
        <ele>661</ele>
        <time>2017-08-08T11:42:36Z</time>
      </trkpt>
      <trkpt lat="44.87469" lon="5.78357">
        <ele>661</ele>
        <time>2017-08-08T11:42:50Z</time>
      </trkpt>
      <trkpt lat="44.87464" lon="5.78346">
        <ele>660</ele>
        <time>2017-08-08T11:42:54Z</time>
      </trkpt>
      <trkpt lat="44.87459" lon="5.78327">
        <ele>632</ele>
        <time>2017-08-08T11:42:57Z</time>
      </trkpt>
      <trkpt lat="44.87454" lon="5.78316">
        <ele>632</ele>
        <time>2017-08-08T11:43:00Z</time>
      </trkpt>
      <trkpt lat="44.87447" lon="5.78309">
        <ele>633</ele>
        <time>2017-08-08T11:43:07Z</time>
      </trkpt>
      <trkpt lat="44.87439" lon="5.78305">
        <ele>635</ele>
        <time>2017-08-08T11:43:15Z</time>
      </trkpt>
      <trkpt lat="44.87428" lon="5.78306">
        <ele>640</ele>
        <time>2017-08-08T11:43:34Z</time>
      </trkpt>
      <trkpt lat="44.87418" lon="5.78302">
        <ele>640</ele>
        <time>2017-08-08T11:43:38Z</time>
      </trkpt>
      <trkpt lat="44.87407" lon="5.78296">
        <ele>676</ele>
        <time>2017-08-08T11:43:55Z</time>
      </trkpt>
      <trkpt lat="44.87393" lon="5.78282">
        <ele>676</ele>
        <time>2017-08-08T11:44:02Z</time>
      </trkpt>
      <trkpt lat="44.87369" lon="5.78245">
        <ele>661</ele>
        <time>2017-08-08T11:44:14Z</time>
      </trkpt>
      <trkpt lat="44.87356" lon="5.78229">
        <ele>666</ele>
        <time>2017-08-08T11:44:21Z</time>
      </trkpt>
      <trkpt lat="44.87344" lon="5.78198">
        <ele>662</ele>
        <time>2017-08-08T11:44:28Z</time>
      </trkpt>
      <trkpt lat="44.87326" lon="5.78136">
        <ele>682</ele>
        <time>2017-08-08T11:44:38Z</time>
      </trkpt>
      <trkpt lat="44.87323" lon="5.78108">
        <ele>678</ele>
        <time>2017-08-08T11:44:48Z</time>
      </trkpt>
      <trkpt lat="44.87325" lon="5.78093">
        <ele>672</ele>
        <time>2017-08-08T11:44:53Z</time>
      </trkpt>
      <trkpt lat="44.87328" lon="5.78081">
        <ele>663</ele>
        <time>2017-08-08T11:45:11Z</time>
      </trkpt>
      <trkpt lat="44.87332" lon="5.78068">
        <ele>664</ele>
        <time>2017-08-08T11:45:17Z</time>
      </trkpt>
      <trkpt lat="44.87332" lon="5.7806">
        <ele>664</ele>
        <time>2017-08-08T11:45:27Z</time>
      </trkpt>
      <trkpt lat="44.8733" lon="5.78053">
        <ele>664</ele>
        <time>2017-08-08T11:45:31Z</time>
      </trkpt>
      <trkpt lat="44.87327" lon="5.78049">
        <ele>664</ele>
        <time>2017-08-08T11:45:42Z</time>
      </trkpt>
      <trkpt lat="44.87319" lon="5.78047">
        <ele>665</ele>
        <time>2017-08-08T11:45:57Z</time>
      </trkpt>
      <trkpt lat="44.87282" lon="5.78053">
        <ele>670</ele>
        <time>2017-08-08T11:46:08Z</time>
      </trkpt>
      <trkpt lat="44.8725" lon="5.78062">
        <ele>677</ele>
        <time>2017-08-08T11:46:28Z</time>
      </trkpt>
      <trkpt lat="44.87237" lon="5.78069">
        <ele>684</ele>
        <time>2017-08-08T11:46:31Z</time>
      </trkpt>
      <trkpt lat="44.87194" lon="5.78086">
        <ele>704</ele>
        <time>2017-08-08T11:46:38Z</time>
      </trkpt>
      <trkpt lat="44.87176" lon="5.7809">
        <ele>700</ele>
        <time>2017-08-08T11:46:43Z</time>
      </trkpt>
      <trkpt lat="44.8716" lon="5.78089">
        <ele>701</ele>
        <time>2017-08-08T11:47:01Z</time>
      </trkpt>
      <trkpt lat="44.87136" lon="5.78082">
        <ele>690</ele>
        <time>2017-08-08T11:47:13Z</time>
      </trkpt>
      <trkpt lat="44.87068" lon="5.78055">
        <ele>708</ele>
        <time>2017-08-08T11:47:30Z</time>
      </trkpt>
      <trkpt lat="44.87055" lon="5.78043">
        <ele>708</ele>
        <time>2017-08-08T11:47:34Z</time>
      </trkpt>
      <trkpt lat="44.87043" lon="5.78029">
        <ele>709</ele>
        <time>2017-08-08T11:47:46Z</time>
      </trkpt>
      <trkpt lat="44.87007" lon="5.77966">
        <ele>697</ele>
        <time>2017-08-08T11:47:52Z</time>
      </trkpt>
      <trkpt lat="44.86987" lon="5.77924">
        <ele>704</ele>
        <time>2017-08-08T11:48:02Z</time>
      </trkpt>
      <trkpt lat="44.86974" lon="5.77901">
        <ele>693</ele>
        <time>2017-08-08T11:48:04Z</time>
      </trkpt>
      <trkpt lat="44.86963" lon="5.77891">
        <ele>692</ele>
        <time>2017-08-08T11:48:06Z</time>
      </trkpt>
      <trkpt lat="44.86953" lon="5.77888">
        <ele>693</ele>
        <time>2017-08-08T11:48:16Z</time>
      </trkpt>
      <trkpt lat="44.86939" lon="5.77891">
        <ele>695</ele>
        <time>2017-08-08T11:48:22Z</time>
      </trkpt>
      <trkpt lat="44.86917" lon="5.77905">
        <ele>702</ele>
        <time>2017-08-08T11:48:34Z</time>
      </trkpt>
      <trkpt lat="44.86867" lon="5.77935">
        <ele>713</ele>
        <time>2017-08-08T11:48:53Z</time>
      </trkpt>
      <trkpt lat="44.8681" lon="5.77955">
        <ele>708</ele>
        <time>2017-08-08T11:48:59Z</time>
      </trkpt>
      <trkpt lat="44.86801" lon="5.7796">
        <ele>709</ele>
        <time>2017-08-08T11:49:17Z</time>
      </trkpt>
      <trkpt lat="44.86795" lon="5.77967">
        <ele>709</ele>
        <time>2017-08-08T11:49:21Z</time>
      </trkpt>
      <trkpt lat="44.86761" lon="5.78">
        <ele>719</ele>
        <time>2017-08-08T11:49:33Z</time>
      </trkpt>
      <trkpt lat="44.8673" lon="5.78022">
        <ele>724</ele>
        <time>2017-08-08T11:49:50Z</time>
      </trkpt>
      <trkpt lat="44.86715" lon="5.78027">
        <ele>727</ele>
        <time>2017-08-08T11:50:01Z</time>
      </trkpt>
      <trkpt lat="44.86698" lon="5.78027">
        <ele>728</ele>
        <time>2017-08-08T11:50:03Z</time>
      </trkpt>
      <trkpt lat="44.86682" lon="5.7802">
        <ele>728</ele>
        <time>2017-08-08T11:50:08Z</time>
      </trkpt>
      <trkpt lat="44.86676" lon="5.78011">
        <ele>728</ele>
        <time>2017-08-08T11:50:11Z</time>
      </trkpt>
      <trkpt lat="44.86671" lon="5.77997">
        <ele>725</ele>
        <time>2017-08-08T11:50:13Z</time>
      </trkpt>
      <trkpt lat="44.86661" lon="5.7797">
        <ele>737</ele>
        <time>2017-08-08T11:50:30Z</time>
      </trkpt>
      <trkpt lat="44.86633" lon="5.77911">
        <ele>730</ele>
        <time>2017-08-08T11:50:48Z</time>
      </trkpt>
      <trkpt lat="44.86627" lon="5.77883">
        <ele>731</ele>
        <time>2017-08-08T11:50:51Z</time>
      </trkpt>
      <trkpt lat="44.86621" lon="5.77851">
        <ele>730</ele>
        <time>2017-08-08T11:51:11Z</time>
      </trkpt>
      <trkpt lat="44.86613" lon="5.77833">
        <ele>723</ele>
        <time>2017-08-08T11:51:17Z</time>
      </trkpt>
      <trkpt lat="44.86604" lon="5.77825">
        <ele>726</ele>
        <time>2017-08-08T11:51:19Z</time>
      </trkpt>
      <trkpt lat="44.86582" lon="5.77816">
        <ele>740</ele>
        <time>2017-08-08T11:51:39Z</time>
      </trkpt>
      <trkpt lat="44.86541" lon="5.778">
        <ele>743</ele>
        <time>2017-08-08T11:51:41Z</time>
      </trkpt>
      <trkpt lat="44.86519" lon="5.77783">
        <ele>742</ele>
        <time>2017-08-08T11:52:00Z</time>
      </trkpt>
      <trkpt lat="44.86509" lon="5.77767">
        <ele>740</ele>
        <time>2017-08-08T11:52:05Z</time>
      </trkpt>
      <trkpt lat="44.865" lon="5.77734">
        <ele>733</ele>
        <time>2017-08-08T11:52:12Z</time>
      </trkpt>
      <trkpt lat="44.8649" lon="5.77686">
        <ele>740</ele>
        <time>2017-08-08T11:52:23Z</time>
      </trkpt>
      <trkpt lat="44.86478" lon="5.77651">
        <ele>740</ele>
        <time>2017-08-08T11:52:35Z</time>
      </trkpt>
      <trkpt lat="44.86453" lon="5.77615">
        <ele>744</ele>
        <time>2017-08-08T11:52:44Z</time>
      </trkpt>
      <trkpt lat="44.86438" lon="5.77588">
        <ele>747</ele>
        <time>2017-08-08T11:52:50Z</time>
      </trkpt>
      <trkpt lat="44.86431" lon="5.7755">
        <ele>743</ele>
        <time>2017-08-08T11:53:05Z</time>
      </trkpt>
      <trkpt lat="44.86418" lon="5.77505">
        <ele>742</ele>
        <time>2017-08-08T11:53:15Z</time>
      </trkpt>
      <trkpt lat="44.86374" lon="5.77414">
        <ele>743</ele>
        <time>2017-08-08T11:53:23Z</time>
      </trkpt>
      <trkpt lat="44.86357" lon="5.77388">
        <ele>744</ele>
        <time>2017-08-08T11:53:32Z</time>
      </trkpt>
      <trkpt lat="44.86323" lon="5.77346">
        <ele>755</ele>
        <time>2017-08-08T11:53:36Z</time>
      </trkpt>
      <trkpt lat="44.86298" lon="5.77315">
        <ele>756</ele>
        <time>2017-08-08T11:53:55Z</time>
      </trkpt>
      <trkpt lat="44.8629" lon="5.77299">
        <ele>756</ele>
        <time>2017-08-08T11:54:00Z</time>
      </trkpt>
      <trkpt lat="44.86268" lon="5.77236">
        <ele>756</ele>
        <time>2017-08-08T11:54:02Z</time>
      </trkpt>
      <trkpt lat="44.86252" lon="5.7718">
        <ele>758</ele>
        <time>2017-08-08T11:54:13Z</time>
      </trkpt>
      <trkpt lat="44.86241" lon="5.77157">
        <ele>766</ele>
        <time>2017-08-08T11:54:23Z</time>
      </trkpt>
      <trkpt lat="44.86211" lon="5.77114">
        <ele>769</ele>
        <time>2017-08-08T11:54:26Z</time>
      </trkpt>
      <trkpt lat="44.86204" lon="5.77092">
        <ele>769</ele>
        <time>2017-08-08T11:54:31Z</time>
      </trkpt>
      <trkpt lat="44.86201" lon="5.77068">
        <ele>769</ele>
        <time>2017-08-08T11:54:43Z</time>
      </trkpt>
      <trkpt lat="44.86207" lon="5.76994">
        <ele>769</ele>
        <time>2017-08-08T11:54:49Z</time>
      </trkpt>
      <trkpt lat="44.86202" lon="5.76971">
        <ele>769</ele>
        <time>2017-08-08T11:54:52Z</time>
      </trkpt>
      <trkpt lat="44.86191" lon="5.76952">
        <ele>770</ele>
        <time>2017-08-08T11:54:57Z</time>
      </trkpt>
      <trkpt lat="44.86158" lon="5.76908">
        <ele>781</ele>
        <time>2017-08-08T11:55:11Z</time>
      </trkpt>
      <trkpt lat="44.86153" lon="5.76895">
        <ele>783</ele>
        <time>2017-08-08T11:55:16Z</time>
      </trkpt>
      <trkpt lat="44.8615" lon="5.76869">
        <ele>784</ele>
        <time>2017-08-08T11:55:28Z</time>
      </trkpt>
      <trkpt lat="44.86164" lon="5.76763">
        <ele>785</ele>
        <time>2017-08-08T11:55:37Z</time>
      </trkpt>
      <trkpt lat="44.86172" lon="5.76709">
        <ele>777</ele>
        <time>2017-08-08T11:55:46Z</time>
      </trkpt>
      <trkpt lat="44.86173" lon="5.76682">
        <ele>780</ele>
        <time>2017-08-08T11:56:02Z</time>
      </trkpt>
      <trkpt lat="44.86169" lon="5.76665">
        <ele>785</ele>
        <time>2017-08-08T11:56:13Z</time>
      </trkpt>
      <trkpt lat="44.86158" lon="5.7665">
        <ele>784</ele>
        <time>2017-08-08T11:56:21Z</time>
      </trkpt>
      <trkpt lat="44.86139" lon="5.76644">
        <ele>784</ele>
        <time>2017-08-08T11:56:32Z</time>
      </trkpt>
      <trkpt lat="44.86127" lon="5.76648">
        <ele>784</ele>
        <time>2017-08-08T11:56:40Z</time>
      </trkpt>
      <trkpt lat="44.86121" lon="5.76653">
        <ele>785</ele>
        <time>2017-08-08T11:56:56Z</time>
      </trkpt>
      <trkpt lat="44.86104" lon="5.76676">
        <ele>790</ele>
        <time>2017-08-08T11:57:09Z</time>
      </trkpt>
      <trkpt lat="44.86081" lon="5.76703">
        <ele>794</ele>
        <time>2017-08-08T11:57:26Z</time>
      </trkpt>
      <trkpt lat="44.86063" lon="5.76708">
        <ele>795</ele>
        <time>2017-08-08T11:57:34Z</time>
      </trkpt>
      <trkpt lat="44.86" lon="5.7671">
        <ele>798</ele>
        <time>2017-08-08T11:57:48Z</time>
      </trkpt>
      <trkpt lat="44.85962" lon="5.76704">
        <ele>799</ele>
        <time>2017-08-08T11:57:55Z</time>
      </trkpt>
      <trkpt lat="44.85918" lon="5.76688">
        <ele>800</ele>
        <time>2017-08-08T11:58:04Z</time>
      </trkpt>
      <trkpt lat="44.85895" lon="5.76683">
        <ele>805</ele>
        <time>2017-08-08T11:58:20Z</time>
      </trkpt>
      <trkpt lat="44.85857" lon="5.76671">
        <ele>808</ele>
        <time>2017-08-08T11:58:32Z</time>
      </trkpt>
      <trkpt lat="44.8584" lon="5.7666">
        <ele>808</ele>
        <time>2017-08-08T11:58:38Z</time>
      </trkpt>
      <trkpt lat="44.85824" lon="5.7664">
        <ele>813</ele>
        <time>2017-08-08T11:58:45Z</time>
      </trkpt>
      <trkpt lat="44.85807" lon="5.76612">
        <ele>813</ele>
        <time>2017-08-08T11:58:48Z</time>
      </trkpt>
      <trkpt lat="44.85792" lon="5.76577">
        <ele>812</ele>
        <time>2017-08-08T11:58:58Z</time>
      </trkpt>
      <trkpt lat="44.85783" lon="5.76551">
        <ele>812</ele>
        <time>2017-08-08T11:59:11Z</time>
      </trkpt>
      <trkpt lat="44.85778" lon="5.76524">
        <ele>813</ele>
        <time>2017-08-08T11:59:23Z</time>
      </trkpt>
      <trkpt lat="44.85774" lon="5.76469">
        <ele>812</ele>
        <time>2017-08-08T11:59:39Z</time>
      </trkpt>
      <trkpt lat="44.8577" lon="5.76444">
        <ele>813</ele>
        <time>2017-08-08T11:59:45Z</time>
      </trkpt>
      <trkpt lat="44.85765" lon="5.76431">
        <ele>813</ele>
        <time>2017-08-08T11:59:55Z</time>
      </trkpt>
      <trkpt lat="44.85749" lon="5.76413">
        <ele>817</ele>
        <time>2017-08-08T11:59:58Z</time>
      </trkpt>
      <trkpt lat="44.85742" lon="5.76407">
        <ele>817</ele>
        <time>2017-08-08T12:00:10Z</time>
      </trkpt>
      <trkpt lat="44.85702" lon="5.76388">
        <ele>817</ele>
        <time>2017-08-08T12:00:17Z</time>
      </trkpt>
      <trkpt lat="44.856" lon="5.76333">
        <ele>820</ele>
        <time>2017-08-08T12:00:28Z</time>
      </trkpt>
      <trkpt lat="44.85511" lon="5.76281">
        <ele>821</ele>
        <time>2017-08-08T12:00:32Z</time>
      </trkpt>
      <trkpt lat="44.85461" lon="5.76251">
        <ele>822</ele>
        <time>2017-08-08T12:00:40Z</time>
      </trkpt>
      <trkpt lat="44.8542" lon="5.76227">
        <ele>822</ele>
        <time>2017-08-08T12:00:49Z</time>
      </trkpt>
      <trkpt lat="44.85386" lon="5.76205">
        <ele>822</ele>
        <time>2017-08-08T12:01:01Z</time>
      </trkpt>
      <trkpt lat="44.85365" lon="5.76195">
        <ele>822</ele>
        <time>2017-08-08T12:01:06Z</time>
      </trkpt>
      <trkpt lat="44.85354" lon="5.76193">
        <ele>822</ele>
        <time>2017-08-08T12:01:25Z</time>
      </trkpt>
      <trkpt lat="44.85339" lon="5.7617">
        <ele>823</ele>
        <time>2017-08-08T12:01:39Z</time>
      </trkpt>
      <trkpt lat="44.8532" lon="5.76099">
        <ele>823</ele>
        <time>2017-08-08T12:01:42Z</time>
      </trkpt>
      <trkpt lat="44.85307" lon="5.7605">
        <ele>823</ele>
        <time>2017-08-08T12:01:58Z</time>
      </trkpt>
      <trkpt lat="44.85303" lon="5.76024">
        <ele>822</ele>
        <time>2017-08-08T12:02:12Z</time>
      </trkpt>
      <trkpt lat="44.85301" lon="5.75996">
        <ele>821</ele>
        <time>2017-08-08T12:02:19Z</time>
      </trkpt>
      <trkpt lat="44.85303" lon="5.75975">
        <ele>821</ele>
        <time>2017-08-08T12:02:21Z</time>
      </trkpt>
      <trkpt lat="44.85311" lon="5.7596">
        <ele>820</ele>
        <time>2017-08-08T12:02:34Z</time>
      </trkpt>
      <trkpt lat="44.85321" lon="5.75947">
        <ele>820</ele>
        <time>2017-08-08T12:02:42Z</time>
      </trkpt>
      <trkpt lat="44.8533" lon="5.75933">
        <ele>820</ele>
        <time>2017-08-08T12:02:59Z</time>
      </trkpt>
      <trkpt lat="44.85336" lon="5.75914">
        <ele>817</ele>
        <time>2017-08-08T12:03:15Z</time>
      </trkpt>
      <trkpt lat="44.85346" lon="5.7586">
        <ele>810</ele>
        <time>2017-08-08T12:03:28Z</time>
      </trkpt>
      <trkpt lat="44.8535" lon="5.75831">
        <ele>813</ele>
        <time>2017-08-08T12:03:31Z</time>
      </trkpt>
      <trkpt lat="44.85351" lon="5.75805">
        <ele>810</ele>
        <time>2017-08-08T12:03:34Z</time>
      </trkpt>
      <trkpt lat="44.85346" lon="5.75779">
        <ele>811</ele>
        <time>2017-08-08T12:03:49Z</time>
      </trkpt>
      <trkpt lat="44.85339" lon="5.75753">
        <ele>816</ele>
        <time>2017-08-08T12:04:08Z</time>
      </trkpt>
      <trkpt lat="44.85339" lon="5.75728">
        <ele>814</ele>
        <time>2017-08-08T12:04:12Z</time>
      </trkpt>
      <trkpt lat="44.85349" lon="5.75696">
        <ele>813</ele>
        <time>2017-08-08T12:04:22Z</time>
      </trkpt>
      <trkpt lat="44.85361" lon="5.75671">
        <ele>812</ele>
        <time>2017-08-08T12:04:42Z</time>
      </trkpt>
      <trkpt lat="44.85368" lon="5.75644">
        <ele>814</ele>
        <time>2017-08-08T12:04:53Z</time>
      </trkpt>
      <trkpt lat="44.85369" lon="5.75613">
        <ele>814</ele>
        <time>2017-08-08T12:04:55Z</time>
      </trkpt>
      <trkpt lat="44.85367" lon="5.7558">
        <ele>816</ele>
        <time>2017-08-08T12:05:02Z</time>
      </trkpt>
      <trkpt lat="44.85362" lon="5.75505">
        <ele>816</ele>
        <time>2017-08-08T12:05:12Z</time>
      </trkpt>
      <trkpt lat="44.85362" lon="5.75425">
        <ele>815</ele>
        <time>2017-08-08T12:05:14Z</time>
      </trkpt>
      <trkpt lat="44.85365" lon="5.75346">
        <ele>814</ele>
        <time>2017-08-08T12:05:22Z</time>
      </trkpt>
      <trkpt lat="44.85366" lon="5.75266">
        <ele>814</ele>
        <time>2017-08-08T12:05:41Z</time>
      </trkpt>
      <trkpt lat="44.85364" lon="5.75185">
        <ele>812</ele>
        <time>2017-08-08T12:06:00Z</time>
      </trkpt>
      <trkpt lat="44.8536" lon="5.75097">
        <ele>810</ele>
        <time>2017-08-08T12:06:17Z</time>
      </trkpt>
      <trkpt lat="44.85356" lon="5.75052">
        <ele>808</ele>
        <time>2017-08-08T12:06:20Z</time>
      </trkpt>
      <trkpt lat="44.85349" lon="5.75008">
        <ele>807</ele>
        <time>2017-08-08T12:06:36Z</time>
      </trkpt>
      <trkpt lat="44.85332" lon="5.74927">
        <ele>803</ele>
        <time>2017-08-08T12:06:50Z</time>
      </trkpt>
      <trkpt lat="44.85325" lon="5.74889">
        <ele>801</ele>
        <time>2017-08-08T12:06:52Z</time>
      </trkpt>
      <trkpt lat="44.85316" lon="5.74856">
        <ele>800</ele>
        <time>2017-08-08T12:07:05Z</time>
      </trkpt>
      <trkpt lat="44.85312" lon="5.74844">
        <ele>800</ele>
        <time>2017-08-08T12:07:15Z</time>
      </trkpt>
      <trkpt lat="44.85301" lon="5.74832">
        <ele>800</ele>
        <time>2017-08-08T12:07:28Z</time>
      </trkpt>
      <trkpt lat="44.85278" lon="5.74819">
        <ele>799</ele>
        <time>2017-08-08T12:07:34Z</time>
      </trkpt>
      <trkpt lat="44.85254" lon="5.74805">
        <ele>798</ele>
        <time>2017-08-08T12:07:48Z</time>
      </trkpt>
      <trkpt lat="44.85242" lon="5.74795">
        <ele>794</ele>
        <time>2017-08-08T12:08:07Z</time>
      </trkpt>
      <trkpt lat="44.85233" lon="5.74783">
        <ele>794</ele>
        <time>2017-08-08T12:08:19Z</time>
      </trkpt>
      <trkpt lat="44.85218" lon="5.74748">
        <ele>793</ele>
        <time>2017-08-08T12:08:31Z</time>
      </trkpt>
      <trkpt lat="44.8521" lon="5.74734">
        <ele>793</ele>
        <time>2017-08-08T12:08:33Z</time>
      </trkpt>
      <trkpt lat="44.852" lon="5.74724">
        <ele>792</ele>
        <time>2017-08-08T12:08:44Z</time>
      </trkpt>
      <trkpt lat="44.85169" lon="5.74707">
        <ele>791</ele>
        <time>2017-08-08T12:08:59Z</time>
      </trkpt>
      <trkpt lat="44.8515" lon="5.74694">
        <ele>788</ele>
        <time>2017-08-08T12:09:08Z</time>
      </trkpt>
      <trkpt lat="44.85138" lon="5.74682">
        <ele>788</ele>
        <time>2017-08-08T12:09:21Z</time>
      </trkpt>
      <trkpt lat="44.8513" lon="5.74668">
        <ele>787</ele>
        <time>2017-08-08T12:09:35Z</time>
      </trkpt>
      <trkpt lat="44.85123" lon="5.74652">
        <ele>786</ele>
        <time>2017-08-08T12:09:37Z</time>
      </trkpt>
      <trkpt lat="44.8512" lon="5.74633">
        <ele>785</ele>
        <time>2017-08-08T12:09:39Z</time>
      </trkpt>
      <trkpt lat="44.85118" lon="5.74611">
        <ele>785</ele>
        <time>2017-08-08T12:09:44Z</time>
      </trkpt>
      <trkpt lat="44.85116" lon="5.74591">
        <ele>785</ele>
        <time>2017-08-08T12:10:00Z</time>
      </trkpt>
      <trkpt lat="44.85111" lon="5.74569">
        <ele>784</ele>
        <time>2017-08-08T12:10:11Z</time>
      </trkpt>
      <trkpt lat="44.85102" lon="5.74549">
        <ele>784</ele>
        <time>2017-08-08T12:10:19Z</time>
      </trkpt>
      <trkpt lat="44.85091" lon="5.74532">
        <ele>784</ele>
        <time>2017-08-08T12:10:31Z</time>
      </trkpt>
      <trkpt lat="44.85066" lon="5.74506">
        <ele>781</ele>
        <time>2017-08-08T12:10:47Z</time>
      </trkpt>
      <trkpt lat="44.85042" lon="5.7448">
        <ele>777</ele>
        <time>2017-08-08T12:10:58Z</time>
      </trkpt>
      <trkpt lat="44.8503" lon="5.7446">
        <ele>775</ele>
        <time>2017-08-08T12:11:18Z</time>
      </trkpt>
      <trkpt lat="44.85023" lon="5.74433">
        <ele>774</ele>
        <time>2017-08-08T12:11:35Z</time>
      </trkpt>
      <trkpt lat="44.85021" lon="5.74401">
        <ele>769</ele>
        <time>2017-08-08T12:11:49Z</time>
      </trkpt>
      <trkpt lat="44.85028" lon="5.74365">
        <ele>767</ele>
        <time>2017-08-08T12:11:52Z</time>
      </trkpt>
      <trkpt lat="44.85045" lon="5.74328">
        <ele>759</ele>
        <time>2017-08-08T12:12:10Z</time>
      </trkpt>
      <trkpt lat="44.85069" lon="5.74295">
        <ele>759</ele>
        <time>2017-08-08T12:12:12Z</time>
      </trkpt>
      <trkpt lat="44.85098" lon="5.74267">
        <ele>759</ele>
        <time>2017-08-08T12:12:27Z</time>
      </trkpt>
      <trkpt lat="44.85145" lon="5.74227">
        <ele>753</ele>
        <time>2017-08-08T12:12:36Z</time>
      </trkpt>
      <trkpt lat="44.85174" lon="5.74203">
        <ele>754</ele>
        <time>2017-08-08T12:12:45Z</time>
      </trkpt>
      <trkpt lat="44.85195" lon="5.74172">
        <ele>753</ele>
        <time>2017-08-08T12:13:05Z</time>
      </trkpt>
      <trkpt lat="44.85203" lon="5.74148">
        <ele>749</ele>
        <time>2017-08-08T12:13:07Z</time>
      </trkpt>
      <trkpt lat="44.85214" lon="5.74086">
        <ele>748</ele>
        <time>2017-08-08T12:13:26Z</time>
      </trkpt>
      <trkpt lat="44.85231" lon="5.74043">
        <ele>744</ele>
        <time>2017-08-08T12:13:32Z</time>
      </trkpt>
      <trkpt lat="44.85254" lon="5.73992">
        <ele>742</ele>
        <time>2017-08-08T12:13:43Z</time>
      </trkpt>
      <trkpt lat="44.85255" lon="5.73969">
        <ele>743</ele>
        <time>2017-08-08T12:13:49Z</time>
      </trkpt>
      <trkpt lat="44.85252" lon="5.73952">
        <ele>742</ele>
        <time>2017-08-08T12:14:09Z</time>
      </trkpt>
      <trkpt lat="44.8524" lon="5.73914">
        <ele>741</ele>
        <time>2017-08-08T12:14:26Z</time>
      </trkpt>
      <trkpt lat="44.85233" lon="5.73904">
        <ele>741</ele>
        <time>2017-08-08T12:14:33Z</time>
      </trkpt>
      <trkpt lat="44.85224" lon="5.73894">
        <ele>741</ele>
        <time>2017-08-08T12:14:50Z</time>
      </trkpt>
      <trkpt lat="44.85191" lon="5.73876">
        <ele>741</ele>
        <time>2017-08-08T12:14:52Z</time>
      </trkpt>
      <trkpt lat="44.8516" lon="5.73859">
        <ele>745</ele>
        <time>2017-08-08T12:14:57Z</time>
      </trkpt>
      <trkpt lat="44.85146" lon="5.73848">
        <ele>745</ele>
        <time>2017-08-08T12:15:04Z</time>
      </trkpt>
      <trkpt lat="44.85139" lon="5.7384">
        <ele>745</ele>
        <time>2017-08-08T12:15:16Z</time>
      </trkpt>
      <trkpt lat="44.85134" lon="5.73839">
        <ele>746</ele>
        <time>2017-08-08T12:15:33Z</time>
      </trkpt>
      <trkpt lat="44.85113" lon="5.73827">
        <ele>741</ele>
        <time>2017-08-08T12:15:52Z</time>
      </trkpt>
      <trkpt lat="44.85098" lon="5.7382">
        <ele>742</ele>
        <time>2017-08-08T12:16:03Z</time>
      </trkpt>
      <trkpt lat="44.85095" lon="5.73819">
        <ele>742</ele>
        <time>2017-08-08T12:16:13Z</time>
      </trkpt>
      <trkpt lat="44.85036" lon="5.73798">
        <ele>747</ele>
        <time>2017-08-08T12:16:26Z</time>
      </trkpt>
      <trkpt lat="44.85003" lon="5.73783">
        <ele>746</ele>
        <time>2017-08-08T12:16:33Z</time>
      </trkpt>
      <trkpt lat="44.84969" lon="5.73763">
        <ele>754</ele>
        <time>2017-08-08T12:16:44Z</time>
      </trkpt>
      <trkpt lat="44.84936" lon="5.73745">
        <ele>747</ele>
        <time>2017-08-08T12:17:04Z</time>
      </trkpt>
      <trkpt lat="44.84904" lon="5.7373">
        <ele>753</ele>
        <time>2017-08-08T12:17:07Z</time>
      </trkpt>
      <trkpt lat="44.84844" lon="5.73709">
        <ele>755</ele>
        <time>2017-08-08T12:17:21Z</time>
      </trkpt>
      <trkpt lat="44.84832" lon="5.73701">
        <ele>761</ele>
        <time>2017-08-08T12:17:40Z</time>
      </trkpt>
      <trkpt lat="44.84823" lon="5.73691">
        <ele>759</ele>
        <time>2017-08-08T12:17:45Z</time>
      </trkpt>
      <trkpt lat="44.848" lon="5.73634">
        <ele>753</ele>
        <time>2017-08-08T12:17:51Z</time>
      </trkpt>
      <trkpt lat="44.84777" lon="5.73597">
        <ele>753</ele>
        <time>2017-08-08T12:18:10Z</time>
      </trkpt>
      <trkpt lat="44.84759" lon="5.73576">
        <ele>753</ele>
        <time>2017-08-08T12:18:29Z</time>
      </trkpt>
      <trkpt lat="44.84729" lon="5.73527">
        <ele>755</ele>
        <time>2017-08-08T12:18:35Z</time>
      </trkpt>
      <trkpt lat="44.8471" lon="5.73491">
        <ele>757</ele>
        <time>2017-08-08T12:18:51Z</time>
      </trkpt>
      <trkpt lat="44.84706" lon="5.73478">
        <ele>757</ele>
        <time>2017-08-08T12:19:04Z</time>
      </trkpt>
      <trkpt lat="44.84705" lon="5.73465">
        <ele>758</ele>
        <time>2017-08-08T12:19:19Z</time>
      </trkpt>
      <trkpt lat="44.84706" lon="5.73441">
        <ele>758</ele>
        <time>2017-08-08T12:19:22Z</time>
      </trkpt>
      <trkpt lat="44.84705" lon="5.73428">
        <ele>759</ele>
        <time>2017-08-08T12:19:41Z</time>
      </trkpt>
      <trkpt lat="44.84698" lon="5.73415">
        <ele>763</ele>
        <time>2017-08-08T12:19:43Z</time>
      </trkpt>
      <trkpt lat="44.84681" lon="5.7339">
        <ele>763</ele>
        <time>2017-08-08T12:19:49Z</time>
      </trkpt>
      <trkpt lat="44.84669" lon="5.73373">
        <ele>764</ele>
        <time>2017-08-08T12:20:08Z</time>
      </trkpt>
      <trkpt lat="44.84648" lon="5.73338">
        <ele>766</ele>
        <time>2017-08-08T12:20:11Z</time>
      </trkpt>
      <trkpt lat="44.84642" lon="5.73322">
        <ele>769</ele>
        <time>2017-08-08T12:20:16Z</time>
      </trkpt>
      <trkpt lat="44.84634" lon="5.73285">
        <ele>770</ele>
        <time>2017-08-08T12:20:21Z</time>
      </trkpt>
      <trkpt lat="44.8462" lon="5.7319">
        <ele>774</ele>
        <time>2017-08-08T12:20:30Z</time>
      </trkpt>
      <trkpt lat="44.84582" lon="5.72957">
        <ele>784</ele>
        <time>2017-08-08T12:20:37Z</time>
      </trkpt>
      <trkpt lat="44.84569" lon="5.72892">
        <ele>790</ele>
        <time>2017-08-08T12:20:50Z</time>
      </trkpt>
      <trkpt lat="44.84541" lon="5.72812">
        <ele>796</ele>
        <time>2017-08-08T12:20:57Z</time>
      </trkpt>
      <trkpt lat="44.84535" lon="5.72768">
        <ele>797</ele>
        <time>2017-08-08T12:20:59Z</time>
      </trkpt>
      <trkpt lat="44.84538" lon="5.72684">
        <ele>807</ele>
        <time>2017-08-08T12:21:02Z</time>
      </trkpt>
      <trkpt lat="44.8454" lon="5.72642">
        <ele>813</ele>
        <time>2017-08-08T12:21:17Z</time>
      </trkpt>
      <trkpt lat="44.84543" lon="5.7262">
        <ele>814</ele>
        <time>2017-08-08T12:21:26Z</time>
      </trkpt>
      <trkpt lat="44.84551" lon="5.72603">
        <ele>815</ele>
        <time>2017-08-08T12:21:33Z</time>
      </trkpt>
      <trkpt lat="44.84561" lon="5.72593">
        <ele>816</ele>
        <time>2017-08-08T12:21:48Z</time>
      </trkpt>
      <trkpt lat="44.84575" lon="5.72585">
        <ele>818</ele>
        <time>2017-08-08T12:21:57Z</time>
      </trkpt>
      <trkpt lat="44.84587" lon="5.72577">
        <ele>824</ele>
        <time>2017-08-08T12:22:14Z</time>
      </trkpt>
      <trkpt lat="44.84589" lon="5.72565">
        <ele>827</ele>
        <time>2017-08-08T12:22:18Z</time>
      </trkpt>
      <trkpt lat="44.84586" lon="5.72556">
        <ele>829</ele>
        <time>2017-08-08T12:22:38Z</time>
      </trkpt>
      <trkpt lat="44.84585" lon="5.72552">
        <ele>829</ele>
        <time>2017-08-08T12:22:52Z</time>
      </trkpt>
      <trkpt lat="44.84577" lon="5.72547">
        <ele>823</ele>
        <time>2017-08-08T12:22:55Z</time>
      </trkpt>
      <trkpt lat="44.84569" lon="5.72547">
        <ele>823</ele>
        <time>2017-08-08T12:23:00Z</time>
      </trkpt>
      <trkpt lat="44.84553" lon="5.72554">
        <ele>822</ele>
        <time>2017-08-08T12:23:03Z</time>
      </trkpt>
      <trkpt lat="44.84531" lon="5.72564">
        <ele>820</ele>
        <time>2017-08-08T12:23:07Z</time>
      </trkpt>
      <trkpt lat="44.84494" lon="5.72559">
        <ele>816</ele>
        <time>2017-08-08T12:23:19Z</time>
      </trkpt>
      <trkpt lat="44.84458" lon="5.72548">
        <ele>818</ele>
        <time>2017-08-08T12:23:39Z</time>
      </trkpt>
      <trkpt lat="44.84443" lon="5.7254">
        <ele>818</ele>
        <time>2017-08-08T12:23:42Z</time>
      </trkpt>
      <trkpt lat="44.84426" lon="5.72525">
        <ele>819</ele>
        <time>2017-08-08T12:23:54Z</time>
      </trkpt>
      <trkpt lat="44.84409" lon="5.72502">
        <ele>822</ele>
        <time>2017-08-08T12:24:07Z</time>
      </trkpt>
      <trkpt lat="44.84377" lon="5.72444">
        <ele>829</ele>
        <time>2017-08-08T12:24:27Z</time>
      </trkpt>
      <trkpt lat="44.84351" lon="5.72408">
        <ele>835</ele>
        <time>2017-08-08T12:24:33Z</time>
      </trkpt>
      <trkpt lat="44.84334" lon="5.72363">
        <ele>838</ele>
        <time>2017-08-08T12:24:37Z</time>
      </trkpt>
      <trkpt lat="44.84332" lon="5.7234">
        <ele>840</ele>
        <time>2017-08-08T12:24:49Z</time>
      </trkpt>
      <trkpt lat="44.84333" lon="5.72308">
        <ele>842</ele>
        <time>2017-08-08T12:24:51Z</time>
      </trkpt>
      <trkpt lat="44.84329" lon="5.72288">
        <ele>843</ele>
        <time>2017-08-08T12:25:04Z</time>
      </trkpt>
      <trkpt lat="44.84317" lon="5.72286">
        <ele>843</ele>
        <time>2017-08-08T12:25:11Z</time>
      </trkpt>
      <trkpt lat="44.84312" lon="5.72291">
        <ele>843</ele>
        <time>2017-08-08T12:25:30Z</time>
      </trkpt>
      <trkpt lat="44.84308" lon="5.723">
        <ele>843</ele>
        <time>2017-08-08T12:25:49Z</time>
      </trkpt>
      <trkpt lat="44.84301" lon="5.72329">
        <ele>842</ele>
        <time>2017-08-08T12:25:57Z</time>
      </trkpt>
      <trkpt lat="44.84297" lon="5.72338">
        <ele>839</ele>
        <time>2017-08-08T12:26:02Z</time>
      </trkpt>
      <trkpt lat="44.8429" lon="5.72346">
        <ele>839</ele>
        <time>2017-08-08T12:26:14Z</time>
      </trkpt>
      <trkpt lat="44.8428" lon="5.72349">
        <ele>840</ele>
        <time>2017-08-08T12:26:17Z</time>
      </trkpt>
      <trkpt lat="44.8427" lon="5.72347">
        <ele>840</ele>
        <time>2017-08-08T12:26:26Z</time>
      </trkpt>
      <trkpt lat="44.84251" lon="5.72338">
        <ele>842</ele>
        <time>2017-08-08T12:26:39Z</time>
      </trkpt>
      <trkpt lat="44.84235" lon="5.72325">
        <ele>844</ele>
        <time>2017-08-08T12:26:57Z</time>
      </trkpt>
      <trkpt lat="44.84204" lon="5.72295">
        <ele>845</ele>
        <time>2017-08-08T12:27:15Z</time>
      </trkpt>
      <trkpt lat="44.8414" lon="5.72237">
        <ele>850</ele>
        <time>2017-08-08T12:27:17Z</time>
      </trkpt>
      <trkpt lat="44.84119" lon="5.7221">
        <ele>850</ele>
        <time>2017-08-08T12:27:26Z</time>
      </trkpt>
      <trkpt lat="44.84013" lon="5.72045">
        <ele>856</ele>
        <time>2017-08-08T12:27:44Z</time>
      </trkpt>
      <trkpt lat="44.83974" lon="5.7199">
        <ele>856</ele>
        <time>2017-08-08T12:28:00Z</time>
      </trkpt>
      <trkpt lat="44.83965" lon="5.71977">
        <ele>856</ele>
        <time>2017-08-08T12:28:17Z</time>
      </trkpt>
      <trkpt lat="44.83976" lon="5.71967">
        <ele>856</ele>
        <time>2017-08-08T12:28:19Z</time>
      </trkpt>
      <trkpt lat="44.83998" lon="5.71939">
        <ele>857</ele>
        <time>2017-08-08T12:28:33Z</time>
      </trkpt>
      <trkpt lat="44.84015" lon="5.71909">
        <ele>858</ele>
        <time>2017-08-08T12:28:35Z</time>
      </trkpt>
      <trkpt lat="44.84031" lon="5.71873">
        <ele>858</ele>
        <time>2017-08-08T12:28:37Z</time>
      </trkpt>
      <trkpt lat="44.84044" lon="5.71832">
        <ele>860</ele>
        <time>2017-08-08T12:28:56Z</time>
      </trkpt>
      <trkpt lat="44.84051" lon="5.71798">
        <ele>860</ele>
        <time>2017-08-08T12:29:10Z</time>
      </trkpt>
      <trkpt lat="44.84055" lon="5.71744">
        <ele>863</ele>
        <time>2017-08-08T12:29:12Z</time>
      </trkpt>
      <trkpt lat="44.84049" lon="5.71536">
        <ele>871</ele>
        <time>2017-08-08T12:29:15Z</time>
      </trkpt>
      <trkpt lat="44.84044" lon="5.7124">
        <ele>883</ele>
        <time>2017-08-08T12:29:24Z</time>
      </trkpt>
      <trkpt lat="44.84041" lon="5.71203">
        <ele>883</ele>
        <time>2017-08-08T12:29:32Z</time>
      </trkpt>
      <trkpt lat="44.84033" lon="5.71168">
        <ele>883</ele>
        <time>2017-08-08T12:29:41Z</time>
      </trkpt>
      <trkpt lat="44.8401" lon="5.71086">
        <ele>882</ele>
        <time>2017-08-08T12:29:53Z</time>
      </trkpt>
      <trkpt lat="44.84006" lon="5.71061">
        <ele>883</ele>
        <time>2017-08-08T12:30:04Z</time>
      </trkpt>
      <trkpt lat="44.8401" lon="5.71015">
        <ele>885</ele>
        <time>2017-08-08T12:30:23Z</time>
      </trkpt>
      <trkpt lat="44.84018" lon="5.7099">
        <ele>885</ele>
        <time>2017-08-08T12:30:41Z</time>
      </trkpt>
      <trkpt lat="44.84031" lon="5.70945">
        <ele>884</ele>
        <time>2017-08-08T12:30:48Z</time>
      </trkpt>
      <trkpt lat="44.84035" lon="5.70909">
        <ele>882</ele>
        <time>2017-08-08T12:31:03Z</time>
      </trkpt>
      <trkpt lat="44.84035" lon="5.70877">
        <ele>881</ele>
        <time>2017-08-08T12:31:21Z</time>
      </trkpt>
      <trkpt lat="44.8403" lon="5.70845">
        <ele>882</ele>
        <time>2017-08-08T12:31:34Z</time>
      </trkpt>
      <trkpt lat="44.8401" lon="5.7076">
        <ele>880</ele>
        <time>2017-08-08T12:31:52Z</time>
      </trkpt>
      <trkpt lat="44.84029" lon="5.7079">
        <ele>877</ele>
        <time>2017-08-08T12:31:55Z</time>
      </trkpt>
      <trkpt lat="44.84048" lon="5.70818">
        <ele>874</ele>
        <time>2017-08-08T12:32:01Z</time>
      </trkpt>
      <trkpt lat="44.84066" lon="5.70839">
        <ele>873</ele>
        <time>2017-08-08T12:32:19Z</time>
      </trkpt>
      <trkpt lat="44.84085" lon="5.70854">
        <ele>865</ele>
        <time>2017-08-08T12:32:28Z</time>
      </trkpt>
      <trkpt lat="44.84101" lon="5.7086">
        <ele>865</ele>
        <time>2017-08-08T12:32:44Z</time>
      </trkpt>
      <trkpt lat="44.84118" lon="5.70862">
        <ele>864</ele>
        <time>2017-08-08T12:32:50Z</time>
      </trkpt>
      <trkpt lat="44.84136" lon="5.70861">
        <ele>863</ele>
        <time>2017-08-08T12:33:02Z</time>
      </trkpt>
      <trkpt lat="44.8417" lon="5.70852">
        <ele>858</ele>
        <time>2017-08-08T12:33:17Z</time>
      </trkpt>
      <trkpt lat="44.84217" lon="5.70838">
        <ele>858</ele>
        <time>2017-08-08T12:33:37Z</time>
      </trkpt>
      <trkpt lat="44.84241" lon="5.70834">
        <ele>855</ele>
        <time>2017-08-08T12:33:47Z</time>
      </trkpt>
      <trkpt lat="44.84257" lon="5.70838">
        <ele>853</ele>
        <time>2017-08-08T12:33:59Z</time>
      </trkpt>
      <trkpt lat="44.8427" lon="5.70848">
        <ele>854</ele>
        <time>2017-08-08T12:34:08Z</time>
      </trkpt>
      <trkpt lat="44.84292" lon="5.70875">
        <ele>854</ele>
        <time>2017-08-08T12:34:17Z</time>
      </trkpt>
      <trkpt lat="44.84302" lon="5.70883">
        <ele>855</ele>
        <time>2017-08-08T12:34:32Z</time>
      </trkpt>
      <trkpt lat="44.84319" lon="5.70888">
        <ele>854</ele>
        <time>2017-08-08T12:34:38Z</time>
      </trkpt>
      <trkpt lat="44.84361" lon="5.70892">
        <ele>845</ele>
        <time>2017-08-08T12:34:47Z</time>
      </trkpt>
      <trkpt lat="44.84375" lon="5.709">
        <ele>844</ele>
        <time>2017-08-08T12:34:51Z</time>
      </trkpt>
      <trkpt lat="44.84394" lon="5.70918">
        <ele>851</ele>
        <time>2017-08-08T12:35:11Z</time>
      </trkpt>
      <trkpt lat="44.84412" lon="5.70933">
        <ele>850</ele>
        <time>2017-08-08T12:35:28Z</time>
      </trkpt>
      <trkpt lat="44.8443" lon="5.70939">
        <ele>844</ele>
        <time>2017-08-08T12:35:31Z</time>
      </trkpt>
      <trkpt lat="44.84467" lon="5.70934">
        <ele>841</ele>
        <time>2017-08-08T12:35:40Z</time>
      </trkpt>
      <trkpt lat="44.8448" lon="5.70935">
        <ele>839</ele>
        <time>2017-08-08T12:35:50Z</time>
      </trkpt>
      <trkpt lat="44.84492" lon="5.7094">
        <ele>838</ele>
        <time>2017-08-08T12:35:59Z</time>
      </trkpt>
      <trkpt lat="44.84517" lon="5.70972">
        <ele>831</ele>
        <time>2017-08-08T12:36:19Z</time>
      </trkpt>
      <trkpt lat="44.84532" lon="5.70982">
        <ele>830</ele>
        <time>2017-08-08T12:36:36Z</time>
      </trkpt>
      <trkpt lat="44.84561" lon="5.70991">
        <ele>826</ele>
        <time>2017-08-08T12:36:48Z</time>
      </trkpt>
      <trkpt lat="44.84625" lon="5.71008">
        <ele>826</ele>
        <time>2017-08-08T12:37:01Z</time>
      </trkpt>
      <trkpt lat="44.84659" lon="5.71011">
        <ele>821</ele>
        <time>2017-08-08T12:37:10Z</time>
      </trkpt>
      <trkpt lat="44.8468" lon="5.71002">
        <ele>820</ele>
        <time>2017-08-08T12:37:16Z</time>
      </trkpt>
      <trkpt lat="44.84707" lon="5.70986">
        <ele>812</ele>
        <time>2017-08-08T12:37:25Z</time>
      </trkpt>
      <trkpt lat="44.84778" lon="5.70939">
        <ele>808</ele>
        <time>2017-08-08T12:37:30Z</time>
      </trkpt>
      <trkpt lat="44.84866" lon="5.70878">
        <ele>797</ele>
        <time>2017-08-08T12:37:46Z</time>
      </trkpt>
      <trkpt lat="44.84895" lon="5.70861">
        <ele>796</ele>
        <time>2017-08-08T12:37:58Z</time>
      </trkpt>
      <trkpt lat="44.8493" lon="5.70846">
        <ele>796</ele>
        <time>2017-08-08T12:38:08Z</time>
      </trkpt>
      <trkpt lat="44.84954" lon="5.70834">
        <ele>797</ele>
        <time>2017-08-08T12:38:27Z</time>
      </trkpt>
      <trkpt lat="44.84994" lon="5.7081">
        <ele>792</ele>
        <time>2017-08-08T12:38:32Z</time>
      </trkpt>
      <trkpt lat="44.85004" lon="5.70791">
        <ele>793</ele>
        <time>2017-08-08T12:38:45Z</time>
      </trkpt>
      <trkpt lat="44.85007" lon="5.70777">
        <ele>792</ele>
        <time>2017-08-08T12:38:57Z</time>
      </trkpt>
      <trkpt lat="44.85004" lon="5.70749">
        <ele>788</ele>
        <time>2017-08-08T12:39:06Z</time>
      </trkpt>
      <trkpt lat="44.84993" lon="5.7072">
        <ele>785</ele>
        <time>2017-08-08T12:39:20Z</time>
      </trkpt>
      <trkpt lat="44.84981" lon="5.70706">
        <ele>784</ele>
        <time>2017-08-08T12:39:39Z</time>
      </trkpt>
      <trkpt lat="44.84968" lon="5.70701">
        <ele>784</ele>
        <time>2017-08-08T12:39:54Z</time>
      </trkpt>
      <trkpt lat="44.84944" lon="5.70699">
        <ele>783</ele>
        <time>2017-08-08T12:40:02Z</time>
      </trkpt>
      <trkpt lat="44.84922" lon="5.70692">
        <ele>782</ele>
        <time>2017-08-08T12:40:19Z</time>
      </trkpt>
      <trkpt lat="44.84915" lon="5.70677">
        <ele>780</ele>
        <time>2017-08-08T12:40:28Z</time>
      </trkpt>
      <trkpt lat="44.84908" lon="5.70624">
        <ele>777</ele>
        <time>2017-08-08T12:40:47Z</time>
      </trkpt>
      <trkpt lat="44.84894" lon="5.70588">
        <ele>777</ele>
        <time>2017-08-08T12:40:53Z</time>
      </trkpt>
      <trkpt lat="44.8486" lon="5.70538">
        <ele>774</ele>
        <time>2017-08-08T12:40:59Z</time>
      </trkpt>
      <trkpt lat="44.8485" lon="5.70521">
        <ele>773</ele>
        <time>2017-08-08T12:41:09Z</time>
      </trkpt>
      <trkpt lat="44.84907" lon="5.70475">
        <ele>771</ele>
        <time>2017-08-08T12:41:16Z</time>
      </trkpt>
      <trkpt lat="44.8492" lon="5.70438">
        <ele>771</ele>
        <time>2017-08-08T12:41:33Z</time>
      </trkpt>
      <trkpt lat="44.84933" lon="5.70409">
        <ele>770</ele>
        <time>2017-08-08T12:41:46Z</time>
      </trkpt>
      <trkpt lat="44.84947" lon="5.7039">
        <ele>770</ele>
        <time>2017-08-08T12:41:49Z</time>
      </trkpt>
      <trkpt lat="44.84981" lon="5.70346">
        <ele>770</ele>
        <time>2017-08-08T12:42:04Z</time>
      </trkpt>
      <trkpt lat="44.85008" lon="5.70307">
        <ele>770</ele>
        <time>2017-08-08T12:42:23Z</time>
      </trkpt>
      <trkpt lat="44.85034" lon="5.70275">
        <ele>769</ele>
        <time>2017-08-08T12:42:36Z</time>
      </trkpt>
      <trkpt lat="44.85062" lon="5.70241">
        <ele>766</ele>
        <time>2017-08-08T12:42:54Z</time>
      </trkpt>
      <trkpt lat="44.85076" lon="5.70219">
        <ele>766</ele>
        <time>2017-08-08T12:43:12Z</time>
      </trkpt>
      <trkpt lat="44.85086" lon="5.70197">
        <ele>767</ele>
        <time>2017-08-08T12:43:20Z</time>
      </trkpt>
      <trkpt lat="44.85099" lon="5.70148">
        <ele>767</ele>
        <time>2017-08-08T12:43:35Z</time>
      </trkpt>
      <trkpt lat="44.85118" lon="5.70066">
        <ele>770</ele>
        <time>2017-08-08T12:43:53Z</time>
      </trkpt>
      <trkpt lat="44.85136" lon="5.7001">
        <ele>770</ele>
        <time>2017-08-08T12:44:12Z</time>
      </trkpt>
      <trkpt lat="44.85181" lon="5.69903">
        <ele>771</ele>
        <time>2017-08-08T12:44:22Z</time>
      </trkpt>
      <trkpt lat="44.85255" lon="5.69749">
        <ele>769</ele>
        <time>2017-08-08T12:44:29Z</time>
      </trkpt>
      <trkpt lat="44.85263" lon="5.69731">
        <ele>768</ele>
        <time>2017-08-08T12:44:42Z</time>
      </trkpt>
      <trkpt lat="44.85271" lon="5.697">
        <ele>768</ele>
        <time>2017-08-08T12:44:54Z</time>
      </trkpt>
      <trkpt lat="44.85289" lon="5.69637">
        <ele>765</ele>
        <time>2017-08-08T12:44:56Z</time>
      </trkpt>
      <trkpt lat="44.85307" lon="5.69585">
        <ele>763</ele>
        <time>2017-08-08T12:45:11Z</time>
      </trkpt>
      <trkpt lat="44.85321" lon="5.69552">
        <ele>760</ele>
        <time>2017-08-08T12:45:17Z</time>
      </trkpt>
      <trkpt lat="44.85333" lon="5.69544">
        <ele>760</ele>
        <time>2017-08-08T12:45:27Z</time>
      </trkpt>
      <trkpt lat="44.85368" lon="5.69512">
        <ele>759</ele>
        <time>2017-08-08T12:45:39Z</time>
      </trkpt>
      <trkpt lat="44.85386" lon="5.69495">
        <ele>757</ele>
        <time>2017-08-08T12:45:42Z</time>
      </trkpt>
      <trkpt lat="44.85404" lon="5.69473">
        <ele>757</ele>
        <time>2017-08-08T12:45:47Z</time>
      </trkpt>
      <trkpt lat="44.85438" lon="5.69437">
        <ele>752</ele>
        <time>2017-08-08T12:45:50Z</time>
      </trkpt>
      <trkpt lat="44.85464" lon="5.69417">
        <ele>750</ele>
        <time>2017-08-08T12:46:03Z</time>
      </trkpt>
      <trkpt lat="44.85498" lon="5.69397">
        <ele>748</ele>
        <time>2017-08-08T12:46:10Z</time>
      </trkpt>
      <trkpt lat="44.85524" lon="5.69379">
        <ele>742</ele>
        <time>2017-08-08T12:46:18Z</time>
      </trkpt>
      <trkpt lat="44.85557" lon="5.69353">
        <ele>740</ele>
        <time>2017-08-08T12:46:30Z</time>
      </trkpt>
      <trkpt lat="44.85572" lon="5.69343">
        <ele>737</ele>
        <time>2017-08-08T12:46:38Z</time>
      </trkpt>
      <trkpt lat="44.85585" lon="5.69338">
        <ele>734</ele>
        <time>2017-08-08T12:46:45Z</time>
      </trkpt>
      <trkpt lat="44.85598" lon="5.69335">
        <ele>734</ele>
        <time>2017-08-08T12:47:04Z</time>
      </trkpt>
      <trkpt lat="44.85636" lon="5.69324">
        <ele>732</ele>
        <time>2017-08-08T12:47:12Z</time>
      </trkpt>
      <trkpt lat="44.85686" lon="5.69309">
        <ele>730</ele>
        <time>2017-08-08T12:47:15Z</time>
      </trkpt>
      <trkpt lat="44.8571" lon="5.693">
        <ele>730</ele>
        <time>2017-08-08T12:47:26Z</time>
      </trkpt>
      <trkpt lat="44.8573" lon="5.69294">
        <ele>730</ele>
        <time>2017-08-08T12:47:42Z</time>
      </trkpt>
      <trkpt lat="44.85778" lon="5.69285">
        <ele>730</ele>
        <time>2017-08-08T12:47:55Z</time>
      </trkpt>
      <trkpt lat="44.85824" lon="5.69262">
        <ele>727</ele>
        <time>2017-08-08T12:48:14Z</time>
      </trkpt>
      <trkpt lat="44.85835" lon="5.69256">
        <ele>726</ele>
        <time>2017-08-08T12:48:20Z</time>
      </trkpt>
      <trkpt lat="44.85849" lon="5.6924">
        <ele>723</ele>
        <time>2017-08-08T12:48:26Z</time>
      </trkpt>
      <trkpt lat="44.85902" lon="5.69186">
        <ele>721</ele>
        <time>2017-08-08T12:48:34Z</time>
      </trkpt>
      <trkpt lat="44.85924" lon="5.69168">
        <ele>720</ele>
        <time>2017-08-08T12:48:36Z</time>
      </trkpt>
      <trkpt lat="44.85945" lon="5.69155">
        <ele>717</ele>
        <time>2017-08-08T12:48:42Z</time>
      </trkpt>
      <trkpt lat="44.85979" lon="5.69128">
        <ele>716</ele>
        <time>2017-08-08T12:49:00Z</time>
      </trkpt>
      <trkpt lat="44.86017" lon="5.691">
        <ele>714</ele>
        <time>2017-08-08T12:49:06Z</time>
      </trkpt>
      <trkpt lat="44.86052" lon="5.69082">
        <ele>709</ele>
        <time>2017-08-08T12:49:14Z</time>
      </trkpt>
      <trkpt lat="44.86067" lon="5.69077">
        <ele>709</ele>
        <time>2017-08-08T12:49:21Z</time>
      </trkpt>
      <trkpt lat="44.86063" lon="5.69075">
        <ele>709</ele>
        <time>2017-08-08T12:49:32Z</time>
      </trkpt>
      <trkpt lat="44.85997" lon="5.69053">
        <ele>707</ele>
        <time>2017-08-08T12:49:36Z</time>
      </trkpt>
      <trkpt lat="44.85929" lon="5.6903">
        <ele>704</ele>
        <time>2017-08-08T12:49:45Z</time>
      </trkpt>
      <trkpt lat="44.85899" lon="5.69013">
        <ele>702</ele>
        <time>2017-08-08T12:49:52Z</time>
      </trkpt>
      <trkpt lat="44.85876" lon="5.68993">
        <ele>698</ele>
        <time>2017-08-08T12:50:04Z</time>
      </trkpt>
      <trkpt lat="44.85855" lon="5.68969">
        <ele>698</ele>
        <time>2017-08-08T12:50:18Z</time>
      </trkpt>
      <trkpt lat="44.85834" lon="5.68938">
        <ele>696</ele>
        <time>2017-08-08T12:50:28Z</time>
      </trkpt>
      <trkpt lat="44.85802" lon="5.68869">
        <ele>695</ele>
        <time>2017-08-08T12:50:47Z</time>
      </trkpt>
      <trkpt lat="44.85775" lon="5.68794">
        <ele>693</ele>
        <time>2017-08-08T12:50:57Z</time>
      </trkpt>
      <trkpt lat="44.85772" lon="5.68775">
        <ele>693</ele>
        <time>2017-08-08T12:51:13Z</time>
      </trkpt>
      <trkpt lat="44.85774" lon="5.68756">
        <ele>693</ele>
        <time>2017-08-08T12:51:26Z</time>
      </trkpt>
      <trkpt lat="44.85781" lon="5.68724">
        <ele>691</ele>
        <time>2017-08-08T12:51:44Z</time>
      </trkpt>
      <trkpt lat="44.85788" lon="5.6867">
        <ele>690</ele>
        <time>2017-08-08T12:51:48Z</time>
      </trkpt>
      <trkpt lat="44.85799" lon="5.68557">
        <ele>693</ele>
        <time>2017-08-08T12:51:50Z</time>
      </trkpt>
      <trkpt lat="44.85807" lon="5.68462">
        <ele>698</ele>
        <time>2017-08-08T12:51:55Z</time>
      </trkpt>
      <trkpt lat="44.85819" lon="5.68391">
        <ele>704</ele>
        <time>2017-08-08T12:52:00Z</time>
      </trkpt>
      <trkpt lat="44.85829" lon="5.68339">
        <ele>699</ele>
        <time>2017-08-08T12:52:04Z</time>
      </trkpt>
      <trkpt lat="44.85835" lon="5.68292">
        <ele>696</ele>
        <time>2017-08-08T12:52:19Z</time>
      </trkpt>
      <trkpt lat="44.85838" lon="5.68244">
        <ele>706</ele>
        <time>2017-08-08T12:52:22Z</time>
      </trkpt>
      <trkpt lat="44.85841" lon="5.68224">
        <ele>707</ele>
        <time>2017-08-08T12:52:37Z</time>
      </trkpt>
      <trkpt lat="44.85846" lon="5.68212">
        <ele>708</ele>
        <time>2017-08-08T12:52:55Z</time>
      </trkpt>
      <trkpt lat="44.85856" lon="5.68196">
        <ele>709</ele>
        <time>2017-08-08T12:53:14Z</time>
      </trkpt>
      <trkpt lat="44.85862" lon="5.6819">
        <ele>709</ele>
        <time>2017-08-08T12:53:17Z</time>
      </trkpt>
      <trkpt lat="44.85875" lon="5.68184">
        <ele>707</ele>
        <time>2017-08-08T12:53:25Z</time>
      </trkpt>
      <trkpt lat="44.85898" lon="5.68171">
        <ele>704</ele>
        <time>2017-08-08T12:53:42Z</time>
      </trkpt>
      <trkpt lat="44.85913" lon="5.68156">
        <ele>709</ele>
        <time>2017-08-08T12:53:54Z</time>
      </trkpt>
      <trkpt lat="44.85921" lon="5.68142">
        <ele>698</ele>
        <time>2017-08-08T12:54:11Z</time>
      </trkpt>
      <trkpt lat="44.85922" lon="5.68124">
        <ele>699</ele>
        <time>2017-08-08T12:54:13Z</time>
      </trkpt>
      <trkpt lat="44.85922" lon="5.68108">
        <ele>702</ele>
        <time>2017-08-08T12:54:19Z</time>
      </trkpt>
      <trkpt lat="44.85916" lon="5.68068">
        <ele>723</ele>
        <time>2017-08-08T12:54:29Z</time>
      </trkpt>
      <trkpt lat="44.85903" lon="5.67981">
        <ele>729</ele>
        <time>2017-08-08T12:54:36Z</time>
      </trkpt>
      <trkpt lat="44.85897" lon="5.67939">
        <ele>730</ele>
        <time>2017-08-08T12:54:39Z</time>
      </trkpt>
      <trkpt lat="44.85891" lon="5.67918">
        <ele>730</ele>
        <time>2017-08-08T12:54:59Z</time>
      </trkpt>
      <trkpt lat="44.85879" lon="5.67882">
        <ele>730</ele>
        <time>2017-08-08T12:55:02Z</time>
      </trkpt>
      <trkpt lat="44.85853" lon="5.67814">
        <ele>728</ele>
        <time>2017-08-08T12:55:16Z</time>
      </trkpt>
      <trkpt lat="44.8583" lon="5.67753">
        <ele>730</ele>
        <time>2017-08-08T12:55:21Z</time>
      </trkpt>
      <trkpt lat="44.8582" lon="5.67736">
        <ele>729</ele>
        <time>2017-08-08T12:55:34Z</time>
      </trkpt>
      <trkpt lat="44.85814" lon="5.67731">
        <ele>730</ele>
        <time>2017-08-08T12:55:43Z</time>
      </trkpt>
      <trkpt lat="44.85789" lon="5.67718">
        <ele>731</ele>
        <time>2017-08-08T12:55:51Z</time>
      </trkpt>
      <trkpt lat="44.85776" lon="5.67704">
        <ele>731</ele>
        <time>2017-08-08T12:55:58Z</time>
      </trkpt>
      <trkpt lat="44.8577" lon="5.67683">
        <ele>731</ele>
        <time>2017-08-08T12:56:17Z</time>
      </trkpt>
      <trkpt lat="44.8577" lon="5.67654">
        <ele>726</ele>
        <time>2017-08-08T12:56:34Z</time>
      </trkpt>
      <trkpt lat="44.85769" lon="5.67625">
        <ele>724</ele>
        <time>2017-08-08T12:56:48Z</time>
      </trkpt>
      <trkpt lat="44.85766" lon="5.6761">
        <ele>724</ele>
        <time>2017-08-08T12:57:00Z</time>
      </trkpt>
      <trkpt lat="44.85755" lon="5.67594">
        <ele>724</ele>
        <time>2017-08-08T12:57:08Z</time>
      </trkpt>
      <trkpt lat="44.85731" lon="5.67568">
        <ele>729</ele>
        <time>2017-08-08T12:57:28Z</time>
      </trkpt>
      <trkpt lat="44.85686" lon="5.67523">
        <ele>734</ele>
        <time>2017-08-08T12:57:45Z</time>
      </trkpt>
      <trkpt lat="44.85661" lon="5.67493">
        <ele>740</ele>
        <time>2017-08-08T12:57:48Z</time>
      </trkpt>
      <trkpt lat="44.85651" lon="5.67469">
        <ele>743</ele>
        <time>2017-08-08T12:57:56Z</time>
      </trkpt>
      <trkpt lat="44.85643" lon="5.67432">
        <ele>742</ele>
        <time>2017-08-08T12:58:00Z</time>
      </trkpt>
      <trkpt lat="44.85631" lon="5.67392">
        <ele>743</ele>
        <time>2017-08-08T12:58:19Z</time>
      </trkpt>
      <trkpt lat="44.85624" lon="5.67362">
        <ele>743</ele>
        <time>2017-08-08T12:58:36Z</time>
      </trkpt>
      <trkpt lat="44.85622" lon="5.67331">
        <ele>742</ele>
        <time>2017-08-08T12:58:42Z</time>
      </trkpt>
      <trkpt lat="44.85622" lon="5.67299">
        <ele>741</ele>
        <time>2017-08-08T12:58:45Z</time>
      </trkpt>
      <trkpt lat="44.85623" lon="5.67242">
        <ele>740</ele>
        <time>2017-08-08T12:58:54Z</time>
      </trkpt>
      <trkpt lat="44.8562" lon="5.67216">
        <ele>740</ele>
        <time>2017-08-08T12:59:01Z</time>
      </trkpt>
      <trkpt lat="44.85616" lon="5.67204">
        <ele>740</ele>
        <time>2017-08-08T12:59:14Z</time>
      </trkpt>
      <trkpt lat="44.85608" lon="5.6719">
        <ele>741</ele>
        <time>2017-08-08T12:59:17Z</time>
      </trkpt>
      <trkpt lat="44.85597" lon="5.67176">
        <ele>743</ele>
        <time>2017-08-08T12:59:27Z</time>
      </trkpt>
      <trkpt lat="44.85582" lon="5.67168">
        <ele>746</ele>
        <time>2017-08-08T12:59:44Z</time>
      </trkpt>
      <trkpt lat="44.85522" lon="5.67154">
        <ele>746</ele>
        <time>2017-08-08T12:59:59Z</time>
      </trkpt>
      <trkpt lat="44.85303" lon="5.67105">
        <ele>741</ele>
        <time>2017-08-08T13:00:06Z</time>
      </trkpt>
      <trkpt lat="44.85229" lon="5.67093">
        <ele>738</ele>
        <time>2017-08-08T13:00:26Z</time>
      </trkpt>
      <trkpt lat="44.85207" lon="5.67096">
        <ele>737</ele>
        <time>2017-08-08T13:00:45Z</time>
      </trkpt>
      <trkpt lat="44.85161" lon="5.67114">
        <ele>734</ele>
        <time>2017-08-08T13:01:02Z</time>
      </trkpt>
      <trkpt lat="44.85148" lon="5.67121">
        <ele>735</ele>
        <time>2017-08-08T13:01:22Z</time>
      </trkpt>
      <trkpt lat="44.85134" lon="5.67125">
        <ele>735</ele>
        <time>2017-08-08T13:01:42Z</time>
      </trkpt>
      <trkpt lat="44.85106" lon="5.67128">
        <ele>734</ele>
        <time>2017-08-08T13:02:02Z</time>
      </trkpt>
      <trkpt lat="44.85081" lon="5.67139">
        <ele>735</ele>
        <time>2017-08-08T13:02:20Z</time>
      </trkpt>
      <trkpt lat="44.8502" lon="5.67174">
        <ele>738</ele>
        <time>2017-08-08T13:02:35Z</time>
      </trkpt>
      <trkpt lat="44.84996" lon="5.67185">
        <ele>738</ele>
        <time>2017-08-08T13:02:47Z</time>
      </trkpt>
      <trkpt lat="44.84977" lon="5.67193">
        <ele>738</ele>
        <time>2017-08-08T13:02:58Z</time>
      </trkpt>
      <trkpt lat="44.84955" lon="5.67197">
        <ele>738</ele>
        <time>2017-08-08T13:03:12Z</time>
      </trkpt>
      <trkpt lat="44.84931" lon="5.67196">
        <ele>738</ele>
        <time>2017-08-08T13:03:31Z</time>
      </trkpt>
      <trkpt lat="44.84882" lon="5.6719">
        <ele>737</ele>
        <time>2017-08-08T13:03:51Z</time>
      </trkpt>
      <trkpt lat="44.84846" lon="5.67184">
        <ele>737</ele>
        <time>2017-08-08T13:04:09Z</time>
      </trkpt>
      <trkpt lat="44.84676" lon="5.67165">
        <ele>723</ele>
        <time>2017-08-08T13:04:25Z</time>
      </trkpt>
      <trkpt lat="44.84473" lon="5.67147">
        <ele>707</ele>
        <time>2017-08-08T13:04:44Z</time>
      </trkpt>
      <trkpt lat="44.84369" lon="5.67135">
        <ele>708</ele>
        <time>2017-08-08T13:04:58Z</time>
      </trkpt>
      <trkpt lat="44.84266" lon="5.67127">
        <ele>706</ele>
        <time>2017-08-08T13:05:08Z</time>
      </trkpt>
      <trkpt lat="44.84228" lon="5.67129">
        <ele>699</ele>
        <time>2017-08-08T13:05:22Z</time>
      </trkpt>
      <trkpt lat="44.84213" lon="5.67134">
        <ele>698</ele>
        <time>2017-08-08T13:05:39Z</time>
      </trkpt>
      <trkpt lat="44.84201" lon="5.67147">
        <ele>698</ele>
        <time>2017-08-08T13:05:46Z</time>
      </trkpt>
      <trkpt lat="44.84184" lon="5.67174">
        <ele>706</ele>
        <time>2017-08-08T13:06:06Z</time>
      </trkpt>
      <trkpt lat="44.84143" lon="5.67241">
        <ele>703</ele>
        <time>2017-08-08T13:06:13Z</time>
      </trkpt>
      <trkpt lat="44.84117" lon="5.67273">
        <ele>710</ele>
        <time>2017-08-08T13:06:32Z</time>
      </trkpt>
      <trkpt lat="44.841" lon="5.67283">
        <ele>710</ele>
        <time>2017-08-08T13:06:44Z</time>
      </trkpt>
      <trkpt lat="44.84091" lon="5.67284">
        <ele>710</ele>
        <time>2017-08-08T13:07:03Z</time>
      </trkpt>
      <trkpt lat="44.84076" lon="5.67285">
        <ele>708</ele>
        <time>2017-08-08T13:07:22Z</time>
      </trkpt>
      <trkpt lat="44.84045" lon="5.67274">
        <ele>708</ele>
        <time>2017-08-08T13:07:28Z</time>
      </trkpt>
      <trkpt lat="44.84014" lon="5.67258">
        <ele>706</ele>
        <time>2017-08-08T13:07:43Z</time>
      </trkpt>
      <trkpt lat="44.83954" lon="5.67229">
        <ele>700</ele>
        <time>2017-08-08T13:07:50Z</time>
      </trkpt>
      <trkpt lat="44.83935" lon="5.67222">
        <ele>700</ele>
        <time>2017-08-08T13:07:56Z</time>
      </trkpt>
      <trkpt lat="44.83872" lon="5.67204">
        <ele>701</ele>
        <time>2017-08-08T13:08:00Z</time>
      </trkpt>
      <trkpt lat="44.83852" lon="5.67203">
        <ele>701</ele>
        <time>2017-08-08T13:08:19Z</time>
      </trkpt>
      <trkpt lat="44.83827" lon="5.67205">
        <ele>699</ele>
        <time>2017-08-08T13:08:38Z</time>
      </trkpt>
      <trkpt lat="44.83806" lon="5.67215">
        <ele>699</ele>
        <time>2017-08-08T13:08:52Z</time>
      </trkpt>
      <trkpt lat="44.8378" lon="5.67241">
        <ele>699</ele>
        <time>2017-08-08T13:08:57Z</time>
      </trkpt>
      <trkpt lat="44.83762" lon="5.67257">
        <ele>700</ele>
        <time>2017-08-08T13:09:05Z</time>
      </trkpt>
      <trkpt lat="44.83742" lon="5.67266">
        <ele>695</ele>
        <time>2017-08-08T13:09:15Z</time>
      </trkpt>
      <trkpt lat="44.83723" lon="5.67269">
        <ele>693</ele>
        <time>2017-08-08T13:09:23Z</time>
      </trkpt>
      <trkpt lat="44.83704" lon="5.67266">
        <ele>692</ele>
        <time>2017-08-08T13:09:35Z</time>
      </trkpt>
      <trkpt lat="44.83687" lon="5.67257">
        <ele>692</ele>
        <time>2017-08-08T13:09:37Z</time>
      </trkpt>
      <trkpt lat="44.83669" lon="5.67245">
        <ele>693</ele>
        <time>2017-08-08T13:09:54Z</time>
      </trkpt>
      <trkpt lat="44.83658" lon="5.67241">
        <ele>690</ele>
        <time>2017-08-08T13:09:57Z</time>
      </trkpt>
      <trkpt lat="44.83648" lon="5.67243">
        <ele>689</ele>
        <time>2017-08-08T13:10:16Z</time>
      </trkpt>
      <trkpt lat="44.83641" lon="5.67249">
        <ele>688</ele>
        <time>2017-08-08T13:10:26Z</time>
      </trkpt>
      <trkpt lat="44.83635" lon="5.6726">
        <ele>685</ele>
        <time>2017-08-08T13:10:30Z</time>
      </trkpt>
      <trkpt lat="44.83634" lon="5.67271">
        <ele>684</ele>
        <time>2017-08-08T13:10:34Z</time>
      </trkpt>
      <trkpt lat="44.83638" lon="5.67285">
        <ele>683</ele>
        <time>2017-08-08T13:10:38Z</time>
      </trkpt>
      <trkpt lat="44.83645" lon="5.67294">
        <ele>683</ele>
        <time>2017-08-08T13:10:47Z</time>
      </trkpt>
      <trkpt lat="44.83654" lon="5.67299">
        <ele>683</ele>
        <time>2017-08-08T13:10:54Z</time>
      </trkpt>
      <trkpt lat="44.83697" lon="5.67311">
        <ele>690</ele>
        <time>2017-08-08T13:11:01Z</time>
      </trkpt>
      <trkpt lat="44.83724" lon="5.67321">
        <ele>691</ele>
        <time>2017-08-08T13:11:11Z</time>
      </trkpt>
      <trkpt lat="44.83743" lon="5.67334">
        <ele>689</ele>
        <time>2017-08-08T13:11:30Z</time>
      </trkpt>
      <trkpt lat="44.83757" lon="5.67347">
        <ele>693</ele>
        <time>2017-08-08T13:11:50Z</time>
      </trkpt>
      <trkpt lat="44.8378" lon="5.67374">
        <ele>695</ele>
        <time>2017-08-08T13:12:07Z</time>
      </trkpt>
      <trkpt lat="44.83792" lon="5.67395">
        <ele>695</ele>
        <time>2017-08-08T13:12:12Z</time>
      </trkpt>
      <trkpt lat="44.83799" lon="5.67413">
        <ele>696</ele>
        <time>2017-08-08T13:12:27Z</time>
      </trkpt>
      <trkpt lat="44.83799" lon="5.67424">
        <ele>692</ele>
        <time>2017-08-08T13:12:35Z</time>
      </trkpt>
      <trkpt lat="44.83795" lon="5.67435">
        <ele>691</ele>
        <time>2017-08-08T13:12:38Z</time>
      </trkpt>
      <trkpt lat="44.83788" lon="5.67443">
        <ele>690</ele>
        <time>2017-08-08T13:12:47Z</time>
      </trkpt>
      <trkpt lat="44.83776" lon="5.67449">
        <ele>689</ele>
        <time>2017-08-08T13:13:00Z</time>
      </trkpt>
      <trkpt lat="44.8374" lon="5.67476">
        <ele>681</ele>
        <time>2017-08-08T13:13:18Z</time>
      </trkpt>
      <trkpt lat="44.83728" lon="5.67485">
        <ele>680</ele>
        <time>2017-08-08T13:13:37Z</time>
      </trkpt>
      <trkpt lat="44.83715" lon="5.67492">
        <ele>680</ele>
        <time>2017-08-08T13:13:39Z</time>
      </trkpt>
      <trkpt lat="44.83687" lon="5.67501">
        <ele>683</ele>
        <time>2017-08-08T13:13:56Z</time>
      </trkpt>
      <trkpt lat="44.83653" lon="5.67512">
        <ele>684</ele>
        <time>2017-08-08T13:13:58Z</time>
      </trkpt>
      <trkpt lat="44.83626" lon="5.67519">
        <ele>686</ele>
        <time>2017-08-08T13:14:15Z</time>
      </trkpt>
      <trkpt lat="44.83598" lon="5.67521">
        <ele>684</ele>
        <time>2017-08-08T13:14:23Z</time>
      </trkpt>
      <trkpt lat="44.83574" lon="5.6752">
        <ele>684</ele>
        <time>2017-08-08T13:14:41Z</time>
      </trkpt>
      <trkpt lat="44.83549" lon="5.67512">
        <ele>685</ele>
        <time>2017-08-08T13:14:48Z</time>
      </trkpt>
      <trkpt lat="44.83505" lon="5.67501">
        <ele>675</ele>
        <time>2017-08-08T13:15:08Z</time>
      </trkpt>
      <trkpt lat="44.83482" lon="5.67495">
        <ele>666</ele>
        <time>2017-08-08T13:15:24Z</time>
      </trkpt>
      <trkpt lat="44.8346" lon="5.67491">
        <ele>664</ele>
        <time>2017-08-08T13:15:30Z</time>
      </trkpt>
      <trkpt lat="44.83437" lon="5.67486">
        <ele>663</ele>
        <time>2017-08-08T13:15:45Z</time>
      </trkpt>
      <trkpt lat="44.83417" lon="5.67485">
        <ele>664</ele>
        <time>2017-08-08T13:15:55Z</time>
      </trkpt>
      <trkpt lat="44.83395" lon="5.67482">
        <ele>659</ele>
        <time>2017-08-08T13:15:59Z</time>
      </trkpt>
      <trkpt lat="44.83376" lon="5.67483">
        <ele>658</ele>
        <time>2017-08-08T13:16:12Z</time>
      </trkpt>
      <trkpt lat="44.83348" lon="5.67488">
        <ele>658</ele>
        <time>2017-08-08T13:16:17Z</time>
      </trkpt>
      <trkpt lat="44.83331" lon="5.67487">
        <ele>661</ele>
        <time>2017-08-08T13:16:24Z</time>
      </trkpt>
      <trkpt lat="44.83319" lon="5.67482">
        <ele>662</ele>
        <time>2017-08-08T13:16:43Z</time>
      </trkpt>
      <trkpt lat="44.83311" lon="5.67474">
        <ele>662</ele>
        <time>2017-08-08T13:16:56Z</time>
      </trkpt>
      <trkpt lat="44.83302" lon="5.67457">
        <ele>662</ele>
        <time>2017-08-08T13:17:12Z</time>
      </trkpt>
      <trkpt lat="44.83296" lon="5.67425">
        <ele>661</ele>
        <time>2017-08-08T13:17:21Z</time>
      </trkpt>
      <trkpt lat="44.8329" lon="5.67387">
        <ele>655</ele>
        <time>2017-08-08T13:17:31Z</time>
      </trkpt>
      <trkpt lat="44.83274" lon="5.67326">
        <ele>647</ele>
        <time>2017-08-08T13:17:38Z</time>
      </trkpt>
      <trkpt lat="44.83259" lon="5.67281">
        <ele>642</ele>
        <time>2017-08-08T13:17:56Z</time>
      </trkpt>
      <trkpt lat="44.8325" lon="5.67259">
        <ele>638</ele>
        <time>2017-08-08T13:17:58Z</time>
      </trkpt>
      <trkpt lat="44.83238" lon="5.67239">
        <ele>635</ele>
        <time>2017-08-08T13:18:16Z</time>
      </trkpt>
      <trkpt lat="44.83227" lon="5.67229">
        <ele>635</ele>
        <time>2017-08-08T13:18:25Z</time>
      </trkpt>
      <trkpt lat="44.83185" lon="5.67209">
        <ele>635</ele>
        <time>2017-08-08T13:18:32Z</time>
      </trkpt>
      <trkpt lat="44.83167" lon="5.67204">
        <ele>634</ele>
        <time>2017-08-08T13:18:50Z</time>
      </trkpt>
      <trkpt lat="44.83153" lon="5.67204">
        <ele>637</ele>
        <time>2017-08-08T13:18:58Z</time>
      </trkpt>
      <trkpt lat="44.83121" lon="5.67213">
        <ele>638</ele>
        <time>2017-08-08T13:19:13Z</time>
      </trkpt>
      <trkpt lat="44.83106" lon="5.67213">
        <ele>638</ele>
        <time>2017-08-08T13:19:33Z</time>
      </trkpt>
      <trkpt lat="44.83091" lon="5.67209">
        <ele>637</ele>
        <time>2017-08-08T13:19:45Z</time>
      </trkpt>
      <trkpt lat="44.83059" lon="5.67191">
        <ele>632</ele>
        <time>2017-08-08T13:19:51Z</time>
      </trkpt>
      <trkpt lat="44.83039" lon="5.6718">
        <ele>631</ele>
        <time>2017-08-08T13:20:05Z</time>
      </trkpt>
      <trkpt lat="44.83025" lon="5.67176">
        <ele>630</ele>
        <time>2017-08-08T13:20:10Z</time>
      </trkpt>
      <trkpt lat="44.83012" lon="5.67179">
        <ele>628</ele>
        <time>2017-08-08T13:20:19Z</time>
      </trkpt>
      <trkpt lat="44.83" lon="5.6719">
        <ele>622</ele>
        <time>2017-08-08T13:20:26Z</time>
      </trkpt>
      <trkpt lat="44.82966" lon="5.67234">
        <ele>622</ele>
        <time>2017-08-08T13:20:38Z</time>
      </trkpt>
      <trkpt lat="44.82912" lon="5.67319">
        <ele>624</ele>
        <time>2017-08-08T13:20:49Z</time>
      </trkpt>
      <trkpt lat="44.82896" lon="5.67344">
        <ele>630</ele>
        <time>2017-08-08T13:21:04Z</time>
      </trkpt>
      <trkpt lat="44.82883" lon="5.67355">
        <ele>630</ele>
        <time>2017-08-08T13:21:23Z</time>
      </trkpt>
      <trkpt lat="44.82865" lon="5.67365">
        <ele>629</ele>
        <time>2017-08-08T13:21:42Z</time>
      </trkpt>
      <trkpt lat="44.82837" lon="5.67373">
        <ele>629</ele>
        <time>2017-08-08T13:21:54Z</time>
      </trkpt>
      <trkpt lat="44.82827" lon="5.6737">
        <ele>629</ele>
        <time>2017-08-08T13:22:10Z</time>
      </trkpt>
      <trkpt lat="44.82818" lon="5.67362">
        <ele>628</ele>
        <time>2017-08-08T13:22:27Z</time>
      </trkpt>
      <trkpt lat="44.82794" lon="5.67302">
        <ele>619</ele>
        <time>2017-08-08T13:22:35Z</time>
      </trkpt>
      <trkpt lat="44.82788" lon="5.67273">
        <ele>618</ele>
        <time>2017-08-08T13:22:52Z</time>
      </trkpt>
      <trkpt lat="44.82785" lon="5.67244">
        <ele>609</ele>
        <time>2017-08-08T13:23:06Z</time>
      </trkpt>
      <trkpt lat="44.82781" lon="5.67222">
        <ele>608</ele>
        <time>2017-08-08T13:23:20Z</time>
      </trkpt>
      <trkpt lat="44.82775" lon="5.67209">
        <ele>607</ele>
        <time>2017-08-08T13:23:32Z</time>
      </trkpt>
      <trkpt lat="44.82765" lon="5.67199">
        <ele>606</ele>
        <time>2017-08-08T13:23:43Z</time>
      </trkpt>
      <trkpt lat="44.82749" lon="5.67188">
        <ele>610</ele>
        <time>2017-08-08T13:23:50Z</time>
      </trkpt>
      <trkpt lat="44.82737" lon="5.67185">
        <ele>610</ele>
        <time>2017-08-08T13:24:04Z</time>
      </trkpt>
      <trkpt lat="44.82727" lon="5.67186">
        <ele>611</ele>
        <time>2017-08-08T13:24:21Z</time>
      </trkpt>
      <trkpt lat="44.8271" lon="5.67187">
        <ele>613</ele>
        <time>2017-08-08T13:24:24Z</time>
      </trkpt>
      <trkpt lat="44.82701" lon="5.67187">
        <ele>613</ele>
        <time>2017-08-08T13:24:36Z</time>
      </trkpt>
      <trkpt lat="44.82694" lon="5.67183">
        <ele>613</ele>
        <time>2017-08-08T13:24:48Z</time>
      </trkpt>
      <trkpt lat="44.82679" lon="5.67174">
        <ele>612</ele>
        <time>2017-08-08T13:25:07Z</time>
      </trkpt>
      <trkpt lat="44.82665" lon="5.67165">
        <ele>610</ele>
        <time>2017-08-08T13:25:19Z</time>
      </trkpt>
      <trkpt lat="44.82651" lon="5.67153">
        <ele>608</ele>
        <time>2017-08-08T13:25:27Z</time>
      </trkpt>
      <trkpt lat="44.82644" lon="5.67139">
        <ele>607</ele>
        <time>2017-08-08T13:25:36Z</time>
      </trkpt>
      <trkpt lat="44.82636" lon="5.6712">
        <ele>606</ele>
        <time>2017-08-08T13:25:47Z</time>
      </trkpt>
      <trkpt lat="44.82629" lon="5.67091">
        <ele>605</ele>
        <time>2017-08-08T13:26:05Z</time>
      </trkpt>
      <trkpt lat="44.82622" lon="5.67064">
        <ele>597</ele>
        <time>2017-08-08T13:26:19Z</time>
      </trkpt>
      <trkpt lat="44.82615" lon="5.67048">
        <ele>597</ele>
        <time>2017-08-08T13:26:24Z</time>
      </trkpt>
      <trkpt lat="44.82564" lon="5.66967">
        <ele>594</ele>
        <time>2017-08-08T13:26:32Z</time>
      </trkpt>
      <trkpt lat="44.8255" lon="5.66939">
        <ele>591</ele>
        <time>2017-08-08T13:26:45Z</time>
      </trkpt>
      <trkpt lat="44.82528" lon="5.6694">
        <ele>592</ele>
        <time>2017-08-08T13:27:05Z</time>
      </trkpt>
      <trkpt lat="44.82505" lon="5.66938">
        <ele>591</ele>
        <time>2017-08-08T13:27:08Z</time>
      </trkpt>
      <trkpt lat="44.82487" lon="5.66943">
        <ele>591</ele>
        <time>2017-08-08T13:27:11Z</time>
      </trkpt>
      <trkpt lat="44.82465" lon="5.66956">
        <ele>592</ele>
        <time>2017-08-08T13:27:31Z</time>
      </trkpt>
      <trkpt lat="44.82443" lon="5.66975">
        <ele>593</ele>
        <time>2017-08-08T13:27:33Z</time>
      </trkpt>
      <trkpt lat="44.82423" lon="5.67">
        <ele>594</ele>
        <time>2017-08-08T13:27:41Z</time>
      </trkpt>
      <trkpt lat="44.82399" lon="5.67035">
        <ele>594</ele>
        <time>2017-08-08T13:27:59Z</time>
      </trkpt>
      <trkpt lat="44.82343" lon="5.67114">
        <ele>600</ele>
        <time>2017-08-08T13:28:06Z</time>
      </trkpt>
      <trkpt lat="44.82298" lon="5.67174">
        <ele>595</ele>
        <time>2017-08-08T13:28:09Z</time>
      </trkpt>
      <trkpt lat="44.82296" lon="5.67187">
        <ele>596</ele>
        <time>2017-08-08T13:28:27Z</time>
      </trkpt>
      <trkpt lat="44.82282" lon="5.67219">
        <ele>595</ele>
        <time>2017-08-08T13:28:36Z</time>
      </trkpt>
      <trkpt lat="44.82273" lon="5.67244">
        <ele>594</ele>
        <time>2017-08-08T13:28:46Z</time>
      </trkpt>
      <trkpt lat="44.82271" lon="5.6726">
        <ele>598</ele>
        <time>2017-08-08T13:29:03Z</time>
      </trkpt>
      <trkpt lat="44.82272" lon="5.67268">
        <ele>599</ele>
        <time>2017-08-08T13:29:07Z</time>
      </trkpt>
      <trkpt lat="44.82275" lon="5.67275">
        <ele>600</ele>
        <time>2017-08-08T13:29:18Z</time>
      </trkpt>
      <trkpt lat="44.82282" lon="5.67277">
        <ele>601</ele>
        <time>2017-08-08T13:29:22Z</time>
      </trkpt>
      <trkpt lat="44.82288" lon="5.67274">
        <ele>602</ele>
        <time>2017-08-08T13:29:34Z</time>
      </trkpt>
      <trkpt lat="44.82298" lon="5.67252">
        <ele>604</ele>
        <time>2017-08-08T13:29:40Z</time>
      </trkpt>
      <trkpt lat="44.82314" lon="5.67223">
        <ele>600</ele>
        <time>2017-08-08T13:29:50Z</time>
      </trkpt>
      <trkpt lat="44.82331" lon="5.67196">
        <ele>599</ele>
        <time>2017-08-08T13:30:03Z</time>
      </trkpt>
      <trkpt lat="44.82347" lon="5.67178">
        <ele>609</ele>
        <time>2017-08-08T13:30:23Z</time>
      </trkpt>
      <trkpt lat="44.82362" lon="5.67151">
        <ele>605</ele>
        <time>2017-08-08T13:30:30Z</time>
      </trkpt>
      <trkpt lat="44.82377" lon="5.67129">
        <ele>605</ele>
        <time>2017-08-08T13:30:41Z</time>
      </trkpt>
      <trkpt lat="44.82401" lon="5.67106">
        <ele>607</ele>
        <time>2017-08-08T13:30:48Z</time>
      </trkpt>
      <trkpt lat="44.82437" lon="5.67052">
        <ele>607</ele>
        <time>2017-08-08T13:30:54Z</time>
      </trkpt>
      <trkpt lat="44.82446" lon="5.67047">
        <ele>607</ele>
        <time>2017-08-08T13:31:10Z</time>
      </trkpt>
      <trkpt lat="44.82452" lon="5.67049">
        <ele>607</ele>
        <time>2017-08-08T13:31:22Z</time>
      </trkpt>
      <trkpt lat="44.82455" lon="5.67052">
        <ele>608</ele>
        <time>2017-08-08T13:31:33Z</time>
      </trkpt>
      <trkpt lat="44.82456" lon="5.6706">
        <ele>608</ele>
        <time>2017-08-08T13:31:47Z</time>
      </trkpt>
      <trkpt lat="44.8244" lon="5.67179">
        <ele>624</ele>
        <time>2017-08-08T13:31:52Z</time>
      </trkpt>
      <trkpt lat="44.82433" lon="5.67357">
        <ele>640</ele>
        <time>2017-08-08T13:32:06Z</time>
      </trkpt>
      <trkpt lat="44.82426" lon="5.67419">
        <ele>645</ele>
        <time>2017-08-08T13:32:18Z</time>
      </trkpt>
      <trkpt lat="44.82423" lon="5.6745">
        <ele>648</ele>
        <time>2017-08-08T13:32:31Z</time>
      </trkpt>
      <trkpt lat="44.82417" lon="5.6747">
        <ele>650</ele>
        <time>2017-08-08T13:32:39Z</time>
      </trkpt>
      <trkpt lat="44.82417" lon="5.67482">
        <ele>650</ele>
        <time>2017-08-08T13:32:41Z</time>
      </trkpt>
      <trkpt lat="44.8242" lon="5.67488">
        <ele>651</ele>
        <time>2017-08-08T13:32:56Z</time>
      </trkpt>
      <trkpt lat="44.82427" lon="5.67487">
        <ele>651</ele>
        <time>2017-08-08T13:33:12Z</time>
      </trkpt>
      <trkpt lat="44.8244" lon="5.67478">
        <ele>651</ele>
        <time>2017-08-08T13:33:24Z</time>
      </trkpt>
      <trkpt lat="44.82477" lon="5.67449">
        <ele>650</ele>
        <time>2017-08-08T13:33:43Z</time>
      </trkpt>
      <trkpt lat="44.82484" lon="5.67448">
        <ele>651</ele>
        <time>2017-08-08T13:33:54Z</time>
      </trkpt>
      <trkpt lat="44.82491" lon="5.67454">
        <ele>651</ele>
        <time>2017-08-08T13:34:01Z</time>
      </trkpt>
      <trkpt lat="44.82496" lon="5.67473">
        <ele>653</ele>
        <time>2017-08-08T13:34:12Z</time>
      </trkpt>
      <trkpt lat="44.82504" lon="5.67532">
        <ele>662</ele>
        <time>2017-08-08T13:34:14Z</time>
      </trkpt>
      <trkpt lat="44.82515" lon="5.67564">
        <ele>664</ele>
        <time>2017-08-08T13:34:30Z</time>
      </trkpt>
      <trkpt lat="44.82527" lon="5.67586">
        <ele>669</ele>
        <time>2017-08-08T13:34:50Z</time>
      </trkpt>
      <trkpt lat="44.82539" lon="5.6761">
        <ele>671</ele>
        <time>2017-08-08T13:35:05Z</time>
      </trkpt>
      <trkpt lat="44.82544" lon="5.67612">
        <ele>671</ele>
        <time>2017-08-08T13:35:23Z</time>
      </trkpt>
      <trkpt lat="44.82549" lon="5.67611">
        <ele>671</ele>
        <time>2017-08-08T13:35:31Z</time>
      </trkpt>
      <trkpt lat="44.82554" lon="5.67607">
        <ele>671</ele>
        <time>2017-08-08T13:35:40Z</time>
      </trkpt>
      <trkpt lat="44.82556" lon="5.67596">
        <ele>671</ele>
        <time>2017-08-08T13:35:52Z</time>
      </trkpt>
      <trkpt lat="44.82564" lon="5.67577">
        <ele>667</ele>
        <time>2017-08-08T13:36:00Z</time>
      </trkpt>
      <trkpt lat="44.82573" lon="5.6757">
        <ele>667</ele>
        <time>2017-08-08T13:36:14Z</time>
      </trkpt>
      <trkpt lat="44.82586" lon="5.67567">
        <ele>669</ele>
        <time>2017-08-08T13:36:29Z</time>
      </trkpt>
      <trkpt lat="44.82607" lon="5.67568">
        <ele>669</ele>
        <time>2017-08-08T13:36:47Z</time>
      </trkpt>
      <trkpt lat="44.82613" lon="5.67573">
        <ele>669</ele>
        <time>2017-08-08T13:36:49Z</time>
      </trkpt>
      <trkpt lat="44.82618" lon="5.67582">
        <ele>669</ele>
        <time>2017-08-08T13:36:57Z</time>
      </trkpt>
      <trkpt lat="44.82619" lon="5.67594">
        <ele>675</ele>
        <time>2017-08-08T13:37:13Z</time>
      </trkpt>
      <trkpt lat="44.82616" lon="5.67611">
        <ele>675</ele>
        <time>2017-08-08T13:37:21Z</time>
      </trkpt>
      <trkpt lat="44.82602" lon="5.67665">
        <ele>678</ele>
        <time>2017-08-08T13:37:28Z</time>
      </trkpt>
      <trkpt lat="44.82579" lon="5.67747">
        <ele>687</ele>
        <time>2017-08-08T13:37:47Z</time>
      </trkpt>
      <trkpt lat="44.82569" lon="5.67782">
        <ele>688</ele>
        <time>2017-08-08T13:37:54Z</time>
      </trkpt>
      <trkpt lat="44.82566" lon="5.67806">
        <ele>689</ele>
        <time>2017-08-08T13:38:08Z</time>
      </trkpt>
      <trkpt lat="44.82562" lon="5.67854">
        <ele>691</ele>
        <time>2017-08-08T13:38:12Z</time>
      </trkpt>
      <trkpt lat="44.82563" lon="5.67891">
        <ele>691</ele>
        <time>2017-08-08T13:38:25Z</time>
      </trkpt>
      <trkpt lat="44.82567" lon="5.67914">
        <ele>693</ele>
        <time>2017-08-08T13:38:44Z</time>
      </trkpt>
      <trkpt lat="44.82566" lon="5.67927">
        <ele>695</ele>
        <time>2017-08-08T13:38:56Z</time>
      </trkpt>
      <trkpt lat="44.82563" lon="5.67943">
        <ele>694</ele>
        <time>2017-08-08T13:39:01Z</time>
      </trkpt>
      <trkpt lat="44.82546" lon="5.67973">
        <ele>694</ele>
        <time>2017-08-08T13:39:20Z</time>
      </trkpt>
      <trkpt lat="44.82538" lon="5.68003">
        <ele>698</ele>
        <time>2017-08-08T13:39:29Z</time>
      </trkpt>
      <trkpt lat="44.82539" lon="5.68033">
        <ele>700</ele>
        <time>2017-08-08T13:39:31Z</time>
      </trkpt>
      <trkpt lat="44.82536" lon="5.68057">
        <ele>700</ele>
        <time>2017-08-08T13:39:47Z</time>
      </trkpt>
      <trkpt lat="44.82514" lon="5.68075">
        <ele>699</ele>
        <time>2017-08-08T13:40:04Z</time>
      </trkpt>
      <trkpt lat="44.8249" lon="5.68109">
        <ele>696</ele>
        <time>2017-08-08T13:40:22Z</time>
      </trkpt>
      <trkpt lat="44.8248" lon="5.68131">
        <ele>696</ele>
        <time>2017-08-08T13:40:26Z</time>
      </trkpt>
      <trkpt lat="44.82474" lon="5.68151">
        <ele>697</ele>
        <time>2017-08-08T13:40:39Z</time>
      </trkpt>
      <trkpt lat="44.82472" lon="5.68175">
        <ele>697</ele>
        <time>2017-08-08T13:40:46Z</time>
      </trkpt>
      <trkpt lat="44.82475" lon="5.68194">
        <ele>696</ele>
        <time>2017-08-08T13:40:59Z</time>
      </trkpt>
      <trkpt lat="44.82483" lon="5.68213">
        <ele>696</ele>
        <time>2017-08-08T13:41:17Z</time>
      </trkpt>
      <trkpt lat="44.82513" lon="5.68262">
        <ele>700</ele>
        <time>2017-08-08T13:41:26Z</time>
      </trkpt>
      <trkpt lat="44.8253" lon="5.68288">
        <ele>702</ele>
        <time>2017-08-08T13:41:29Z</time>
      </trkpt>
      <trkpt lat="44.8254" lon="5.6831">
        <ele>702</ele>
        <time>2017-08-08T13:41:38Z</time>
      </trkpt>
      <trkpt lat="44.82546" lon="5.68334">
        <ele>700</ele>
        <time>2017-08-08T13:41:40Z</time>
      </trkpt>
      <trkpt lat="44.82548" lon="5.68357">
        <ele>700</ele>
        <time>2017-08-08T13:41:42Z</time>
      </trkpt>
      <trkpt lat="44.82546" lon="5.68381">
        <ele>699</ele>
        <time>2017-08-08T13:41:55Z</time>
      </trkpt>
      <trkpt lat="44.82541" lon="5.68405">
        <ele>698</ele>
        <time>2017-08-08T13:42:04Z</time>
      </trkpt>
      <trkpt lat="44.82534" lon="5.6842">
        <ele>695</ele>
        <time>2017-08-08T13:42:13Z</time>
      </trkpt>
      <trkpt lat="44.82525" lon="5.68433">
        <ele>694</ele>
        <time>2017-08-08T13:42:32Z</time>
      </trkpt>
      <trkpt lat="44.82516" lon="5.68445">
        <ele>694</ele>
        <time>2017-08-08T13:42:51Z</time>
      </trkpt>
      <trkpt lat="44.8251" lon="5.68461">
        <ele>694</ele>
        <time>2017-08-08T13:43:02Z</time>
      </trkpt>
      <trkpt lat="44.82507" lon="5.68477">
        <ele>693</ele>
        <time>2017-08-08T13:43:19Z</time>
      </trkpt>
      <trkpt lat="44.82507" lon="5.68497">
        <ele>692</ele>
        <time>2017-08-08T13:43:27Z</time>
      </trkpt>
      <trkpt lat="44.82507" lon="5.68537">
        <ele>695</ele>
        <time>2017-08-08T13:43:35Z</time>
      </trkpt>
      <trkpt lat="44.825" lon="5.68565">
        <ele>695</ele>
        <time>2017-08-08T13:43:39Z</time>
      </trkpt>
      <trkpt lat="44.82492" lon="5.68579">
        <ele>693</ele>
        <time>2017-08-08T13:43:56Z</time>
      </trkpt>
      <trkpt lat="44.82465" lon="5.68603">
        <ele>695</ele>
        <time>2017-08-08T13:44:11Z</time>
      </trkpt>
      <trkpt lat="44.82433" lon="5.68629">
        <ele>695</ele>
        <time>2017-08-08T13:44:26Z</time>
      </trkpt>
      <trkpt lat="44.82417" lon="5.68639">
        <ele>695</ele>
        <time>2017-08-08T13:44:30Z</time>
      </trkpt>
      <trkpt lat="44.82395" lon="5.68648">
        <ele>695</ele>
        <time>2017-08-08T13:44:41Z</time>
      </trkpt>
      <trkpt lat="44.82386" lon="5.68648">
        <ele>695</ele>
        <time>2017-08-08T13:44:53Z</time>
      </trkpt>
      <trkpt lat="44.82372" lon="5.68644">
        <ele>695</ele>
        <time>2017-08-08T13:45:02Z</time>
      </trkpt>
      <trkpt lat="44.82352" lon="5.68633">
        <ele>694</ele>
        <time>2017-08-08T13:45:12Z</time>
      </trkpt>
      <trkpt lat="44.82338" lon="5.68626">
        <ele>693</ele>
        <time>2017-08-08T13:45:30Z</time>
      </trkpt>
      <trkpt lat="44.82323" lon="5.68625">
        <ele>694</ele>
        <time>2017-08-08T13:45:35Z</time>
      </trkpt>
      <trkpt lat="44.82295" lon="5.68625">
        <ele>694</ele>
        <time>2017-08-08T13:45:46Z</time>
      </trkpt>
      <trkpt lat="44.82279" lon="5.68616">
        <ele>694</ele>
        <time>2017-08-08T13:46:01Z</time>
      </trkpt>
      <trkpt lat="44.82254" lon="5.68595">
        <ele>689</ele>
        <time>2017-08-08T13:46:09Z</time>
      </trkpt>
      <trkpt lat="44.82247" lon="5.68595">
        <ele>688</ele>
        <time>2017-08-08T13:46:25Z</time>
      </trkpt>
      <trkpt lat="44.82241" lon="5.68598">
        <ele>689</ele>
        <time>2017-08-08T13:46:39Z</time>
      </trkpt>
      <trkpt lat="44.82227" lon="5.68621">
        <ele>692</ele>
        <time>2017-08-08T13:46:43Z</time>
      </trkpt>
      <trkpt lat="44.82215" lon="5.68636">
        <ele>693</ele>
        <time>2017-08-08T13:46:45Z</time>
      </trkpt>
      <trkpt lat="44.82202" lon="5.68644">
        <ele>693</ele>
        <time>2017-08-08T13:47:01Z</time>
      </trkpt>
      <trkpt lat="44.82148" lon="5.6865">
        <ele>689</ele>
        <time>2017-08-08T13:47:09Z</time>
      </trkpt>
      <trkpt lat="44.82138" lon="5.68653">
        <ele>688</ele>
        <time>2017-08-08T13:47:20Z</time>
      </trkpt>
      <trkpt lat="44.8213" lon="5.68658">
        <ele>688</ele>
        <time>2017-08-08T13:47:31Z</time>
      </trkpt>
      <trkpt lat="44.82112" lon="5.68685">
        <ele>691</ele>
        <time>2017-08-08T13:47:47Z</time>
      </trkpt>
      <trkpt lat="44.82074" lon="5.6874">
        <ele>685</ele>
        <time>2017-08-08T13:48:06Z</time>
      </trkpt>
      <trkpt lat="44.82054" lon="5.68776">
        <ele>685</ele>
        <time>2017-08-08T13:48:21Z</time>
      </trkpt>
      <trkpt lat="44.82046" lon="5.688">
        <ele>685</ele>
        <time>2017-08-08T13:48:34Z</time>
      </trkpt>
      <trkpt lat="44.82032" lon="5.68828">
        <ele>685</ele>
        <time>2017-08-08T13:48:39Z</time>
      </trkpt>
      <trkpt lat="44.82022" lon="5.68838">
        <ele>687</ele>
        <time>2017-08-08T13:48:50Z</time>
      </trkpt>
      <trkpt lat="44.82011" lon="5.68844">
        <ele>686</ele>
        <time>2017-08-08T13:49:00Z</time>
      </trkpt>
      <trkpt lat="44.82003" lon="5.68848">
        <ele>686</ele>
        <time>2017-08-08T13:49:11Z</time>
      </trkpt>
      <trkpt lat="44.81999" lon="5.68854">
        <ele>684</ele>
        <time>2017-08-08T13:49:28Z</time>
      </trkpt>
      <trkpt lat="44.81992" lon="5.68869">
        <ele>685</ele>
        <time>2017-08-08T13:49:48Z</time>
      </trkpt>
      <trkpt lat="44.8198" lon="5.68889">
        <ele>686</ele>
        <time>2017-08-08T13:50:01Z</time>
      </trkpt>
      <trkpt lat="44.8197" lon="5.68904">
        <ele>686</ele>
        <time>2017-08-08T13:50:13Z</time>
      </trkpt>
      <trkpt lat="44.81952" lon="5.68914">
        <ele>686</ele>
        <time>2017-08-08T13:50:31Z</time>
      </trkpt>
      <trkpt lat="44.81921" lon="5.68923">
        <ele>688</ele>
        <time>2017-08-08T13:50:46Z</time>
      </trkpt>
      <trkpt lat="44.81899" lon="5.68931">
        <ele>687</ele>
        <time>2017-08-08T13:51:06Z</time>
      </trkpt>
      <trkpt lat="44.81884" lon="5.68943">
        <ele>688</ele>
        <time>2017-08-08T13:51:19Z</time>
      </trkpt>
      <trkpt lat="44.81877" lon="5.68953">
        <ele>688</ele>
        <time>2017-08-08T13:51:29Z</time>
      </trkpt>
      <trkpt lat="44.81872" lon="5.68974">
        <ele>689</ele>
        <time>2017-08-08T13:51:49Z</time>
      </trkpt>
      <trkpt lat="44.81875" lon="5.69026">
        <ele>695</ele>
        <time>2017-08-08T13:51:56Z</time>
      </trkpt>
      <trkpt lat="44.81876" lon="5.69084">
        <ele>702</ele>
        <time>2017-08-08T13:52:05Z</time>
      </trkpt>
      <trkpt lat="44.81869" lon="5.69119">
        <ele>703</ele>
        <time>2017-08-08T13:52:13Z</time>
      </trkpt>
      <trkpt lat="44.81852" lon="5.69163">
        <ele>702</ele>
        <time>2017-08-08T13:52:16Z</time>
      </trkpt>
      <trkpt lat="44.8184" lon="5.69184">
        <ele>708</ele>
        <time>2017-08-08T13:52:36Z</time>
      </trkpt>
      <trkpt lat="44.81826" lon="5.69199">
        <ele>697</ele>
        <time>2017-08-08T13:52:41Z</time>
      </trkpt>
      <trkpt lat="44.81795" lon="5.69218">
        <ele>696</ele>
        <time>2017-08-08T13:52:45Z</time>
      </trkpt>
      <trkpt lat="44.81758" lon="5.6923">
        <ele>693</ele>
        <time>2017-08-08T13:52:51Z</time>
      </trkpt>
      <trkpt lat="44.81741" lon="5.6924">
        <ele>686</ele>
        <time>2017-08-08T13:53:08Z</time>
      </trkpt>
      <trkpt lat="44.81738" lon="5.69253">
        <ele>687</ele>
        <time>2017-08-08T13:53:21Z</time>
      </trkpt>
      <trkpt lat="44.8174" lon="5.69261">
        <ele>687</ele>
        <time>2017-08-08T13:53:26Z</time>
      </trkpt>
      <trkpt lat="44.81749" lon="5.69274">
        <ele>685</ele>
        <time>2017-08-08T13:53:43Z</time>
      </trkpt>
      <trkpt lat="44.81776" lon="5.69297">
        <ele>695</ele>
        <time>2017-08-08T13:54:03Z</time>
      </trkpt>
      <trkpt lat="44.81796" lon="5.69296">
        <ele>697</ele>
        <time>2017-08-08T13:54:10Z</time>
      </trkpt>
      <trkpt lat="44.81812" lon="5.69295">
        <ele>699</ele>
        <time>2017-08-08T13:54:28Z</time>
      </trkpt>
      <trkpt lat="44.81828" lon="5.693">
        <ele>700</ele>
        <time>2017-08-08T13:54:37Z</time>
      </trkpt>
      <trkpt lat="44.81845" lon="5.69308">
        <ele>714</ele>
        <time>2017-08-08T13:54:51Z</time>
      </trkpt>
      <trkpt lat="44.81855" lon="5.69317">
        <ele>714</ele>
        <time>2017-08-08T13:54:58Z</time>
      </trkpt>
      <trkpt lat="44.81865" lon="5.69326">
        <ele>716</ele>
        <time>2017-08-08T13:55:15Z</time>
      </trkpt>
      <trkpt lat="44.81877" lon="5.69362">
        <ele>713</ele>
        <time>2017-08-08T13:55:20Z</time>
      </trkpt>
      <trkpt lat="44.81885" lon="5.69399">
        <ele>713</ele>
        <time>2017-08-08T13:55:35Z</time>
      </trkpt>
      <trkpt lat="44.81888" lon="5.69427">
        <ele>711</ele>
        <time>2017-08-08T13:55:51Z</time>
      </trkpt>
      <trkpt lat="44.81886" lon="5.69472">
        <ele>709</ele>
        <time>2017-08-08T13:55:55Z</time>
      </trkpt>
      <trkpt lat="44.81881" lon="5.69497">
        <ele>708</ele>
        <time>2017-08-08T13:56:07Z</time>
      </trkpt>
      <trkpt lat="44.81876" lon="5.69513">
        <ele>710</ele>
        <time>2017-08-08T13:56:12Z</time>
      </trkpt>
      <trkpt lat="44.81867" lon="5.69529">
        <ele>710</ele>
        <time>2017-08-08T13:56:32Z</time>
      </trkpt>
      <trkpt lat="44.81857" lon="5.69542">
        <ele>710</ele>
        <time>2017-08-08T13:56:51Z</time>
      </trkpt>
      <trkpt lat="44.8183" lon="5.69558">
        <ele>704</ele>
        <time>2017-08-08T13:57:02Z</time>
      </trkpt>
      <trkpt lat="44.81804" lon="5.69568">
        <ele>703</ele>
        <time>2017-08-08T13:57:20Z</time>
      </trkpt>
      <trkpt lat="44.81777" lon="5.69592">
        <ele>704</ele>
        <time>2017-08-08T13:57:33Z</time>
      </trkpt>
      <trkpt lat="44.81765" lon="5.69608">
        <ele>703</ele>
        <time>2017-08-08T13:57:39Z</time>
      </trkpt>
      <trkpt lat="44.81761" lon="5.6962">
        <ele>703</ele>
        <time>2017-08-08T13:57:57Z</time>
      </trkpt>
      <trkpt lat="44.81762" lon="5.6963">
        <ele>703</ele>
        <time>2017-08-08T13:58:05Z</time>
      </trkpt>
      <trkpt lat="44.81767" lon="5.69644">
        <ele>703</ele>
        <time>2017-08-08T13:58:13Z</time>
      </trkpt>
      <trkpt lat="44.8179" lon="5.69686">
        <ele>704</ele>
        <time>2017-08-08T13:58:16Z</time>
      </trkpt>
      <trkpt lat="44.81808" lon="5.69717">
        <ele>705</ele>
        <time>2017-08-08T13:58:22Z</time>
      </trkpt>
      <trkpt lat="44.81817" lon="5.69751">
        <ele>704</ele>
        <time>2017-08-08T13:58:38Z</time>
      </trkpt>
      <trkpt lat="44.8183" lon="5.69776">
        <ele>702</ele>
        <time>2017-08-08T13:58:41Z</time>
      </trkpt>
      <trkpt lat="44.81847" lon="5.69791">
        <ele>712</ele>
        <time>2017-08-08T13:58:50Z</time>
      </trkpt>
      <trkpt lat="44.81886" lon="5.69815">
        <ele>714</ele>
        <time>2017-08-08T13:58:52Z</time>
      </trkpt>
      <trkpt lat="44.81922" lon="5.69841">
        <ele>716</ele>
        <time>2017-08-08T13:59:09Z</time>
      </trkpt>
      <trkpt lat="44.8195" lon="5.69871">
        <ele>718</ele>
        <time>2017-08-08T13:59:20Z</time>
      </trkpt>
      <trkpt lat="44.81976" lon="5.69908">
        <ele>717</ele>
        <time>2017-08-08T13:59:24Z</time>
      </trkpt>
      <trkpt lat="44.81996" lon="5.69947">
        <ele>713</ele>
        <time>2017-08-08T13:59:32Z</time>
      </trkpt>
      <trkpt lat="44.82005" lon="5.69972">
        <ele>721</ele>
        <time>2017-08-08T13:59:46Z</time>
      </trkpt>
      <trkpt lat="44.82013" lon="5.70014">
        <ele>721</ele>
        <time>2017-08-08T13:59:49Z</time>
      </trkpt>
      <trkpt lat="44.82011" lon="5.70044">
        <ele>725</ele>
        <time>2017-08-08T14:00:00Z</time>
      </trkpt>
      <trkpt lat="44.82" lon="5.70075">
        <ele>722</ele>
        <time>2017-08-08T14:00:11Z</time>
      </trkpt>
      <trkpt lat="44.81995" lon="5.7009">
        <ele>719</ele>
        <time>2017-08-08T14:00:23Z</time>
      </trkpt>
      <trkpt lat="44.81992" lon="5.70119">
        <ele>718</ele>
        <time>2017-08-08T14:00:27Z</time>
      </trkpt>
      <trkpt lat="44.81987" lon="5.70157">
        <ele>720</ele>
        <time>2017-08-08T14:00:45Z</time>
      </trkpt>
      <trkpt lat="44.81978" lon="5.7019">
        <ele>721</ele>
        <time>2017-08-08T14:00:56Z</time>
      </trkpt>
      <trkpt lat="44.81955" lon="5.70235">
        <ele>720</ele>
        <time>2017-08-08T14:01:06Z</time>
      </trkpt>
      <trkpt lat="44.81949" lon="5.70254">
        <ele>720</ele>
        <time>2017-08-08T14:01:19Z</time>
      </trkpt>
      <trkpt lat="44.81949" lon="5.70264">
        <ele>720</ele>
        <time>2017-08-08T14:01:31Z</time>
      </trkpt>
      <trkpt lat="44.81968" lon="5.70348">
        <ele>721</ele>
        <time>2017-08-08T14:01:41Z</time>
      </trkpt>
      <trkpt lat="44.81976" lon="5.70378">
        <ele>721</ele>
        <time>2017-08-08T14:02:00Z</time>
      </trkpt>
      <trkpt lat="44.81987" lon="5.70409">
        <ele>722</ele>
        <time>2017-08-08T14:02:15Z</time>
      </trkpt>
      <trkpt lat="44.82002" lon="5.70429">
        <ele>726</ele>
        <time>2017-08-08T14:02:21Z</time>
      </trkpt>
      <trkpt lat="44.82023" lon="5.7046">
        <ele>729</ele>
        <time>2017-08-08T14:02:32Z</time>
      </trkpt>
      <trkpt lat="44.82046" lon="5.70496">
        <ele>730</ele>
        <time>2017-08-08T14:02:46Z</time>
      </trkpt>
      <trkpt lat="44.8207" lon="5.70536">
        <ele>740</ele>
        <time>2017-08-08T14:02:59Z</time>
      </trkpt>
      <trkpt lat="44.8212" lon="5.7062">
        <ele>747</ele>
        <time>2017-08-08T14:03:11Z</time>
      </trkpt>
      <trkpt lat="44.82144" lon="5.70692">
        <ele>755</ele>
        <time>2017-08-08T14:03:28Z</time>
      </trkpt>
      <trkpt lat="44.82164" lon="5.70763">
        <ele>755</ele>
        <time>2017-08-08T14:03:42Z</time>
      </trkpt>
      <trkpt lat="44.82196" lon="5.70868">
        <ele>752</ele>
        <time>2017-08-08T14:03:48Z</time>
      </trkpt>
      <trkpt lat="44.82219" lon="5.70912">
        <ele>751</ele>
        <time>2017-08-08T14:04:02Z</time>
      </trkpt>
      <trkpt lat="44.82237" lon="5.70937">
        <ele>754</ele>
        <time>2017-08-08T14:04:15Z</time>
      </trkpt>
      <trkpt lat="44.82245" lon="5.70954">
        <ele>755</ele>
        <time>2017-08-08T14:04:27Z</time>
      </trkpt>
      <trkpt lat="44.82253" lon="5.70976">
        <ele>755</ele>
        <time>2017-08-08T14:04:34Z</time>
      </trkpt>
      <trkpt lat="44.8226" lon="5.71012">
        <ele>755</ele>
        <time>2017-08-08T14:04:41Z</time>
      </trkpt>
      <trkpt lat="44.82273" lon="5.71065">
        <ele>758</ele>
        <time>2017-08-08T14:04:57Z</time>
      </trkpt>
      <trkpt lat="44.82277" lon="5.71094">
        <ele>761</ele>
        <time>2017-08-08T14:05:07Z</time>
      </trkpt>
      <trkpt lat="44.82272" lon="5.71135">
        <ele>764</ele>
        <time>2017-08-08T14:05:23Z</time>
      </trkpt>
      <trkpt lat="44.82269" lon="5.71163">
        <ele>767</ele>
        <time>2017-08-08T14:05:36Z</time>
      </trkpt>
      <trkpt lat="44.8227" lon="5.71188">
        <ele>772</ele>
        <time>2017-08-08T14:05:40Z</time>
      </trkpt>
      <trkpt lat="44.82282" lon="5.71242">
        <ele>775</ele>
        <time>2017-08-08T14:05:45Z</time>
      </trkpt>
      <trkpt lat="44.82287" lon="5.71266">
        <ele>780</ele>
        <time>2017-08-08T14:06:05Z</time>
      </trkpt>
      <trkpt lat="44.82287" lon="5.71292">
        <ele>781</ele>
        <time>2017-08-08T14:06:12Z</time>
      </trkpt>
      <trkpt lat="44.82283" lon="5.71352">
        <ele>789</ele>
        <time>2017-08-08T14:06:14Z</time>
      </trkpt>
      <trkpt lat="44.82284" lon="5.71367">
        <ele>789</ele>
        <time>2017-08-08T14:06:17Z</time>
      </trkpt>
      <trkpt lat="44.82298" lon="5.71414">
        <ele>787</ele>
        <time>2017-08-08T14:06:33Z</time>
      </trkpt>
      <trkpt lat="44.82335" lon="5.71505">
        <ele>781</ele>
        <time>2017-08-08T14:06:46Z</time>
      </trkpt>
      <trkpt lat="44.82348" lon="5.71524">
        <ele>784</ele>
        <time>2017-08-08T14:06:50Z</time>
      </trkpt>
      <trkpt lat="44.82357" lon="5.71534">
        <ele>784</ele>
        <time>2017-08-08T14:06:52Z</time>
      </trkpt>
      <trkpt lat="44.82369" lon="5.7154">
        <ele>785</ele>
        <time>2017-08-08T14:06:59Z</time>
      </trkpt>
      <trkpt lat="44.82381" lon="5.71543">
        <ele>785</ele>
        <time>2017-08-08T14:07:02Z</time>
      </trkpt>
      <trkpt lat="44.8241" lon="5.71544">
        <ele>785</ele>
        <time>2017-08-08T14:07:16Z</time>
      </trkpt>
      <trkpt lat="44.82545" lon="5.71536">
        <ele>786</ele>
        <time>2017-08-08T14:07:27Z</time>
      </trkpt>
      <trkpt lat="44.8257" lon="5.71538">
        <ele>786</ele>
        <time>2017-08-08T14:07:43Z</time>
      </trkpt>
      <trkpt lat="44.82582" lon="5.71543">
        <ele>786</ele>
        <time>2017-08-08T14:07:57Z</time>
      </trkpt>
      <trkpt lat="44.826" lon="5.71558">
        <ele>787</ele>
        <time>2017-08-08T14:08:16Z</time>
      </trkpt>
      <trkpt lat="44.82608" lon="5.71572">
        <ele>788</ele>
        <time>2017-08-08T14:08:18Z</time>
      </trkpt>
      <trkpt lat="44.82622" lon="5.71609">
        <ele>794</ele>
        <time>2017-08-08T14:08:33Z</time>
      </trkpt>
      <trkpt lat="44.8264" lon="5.71649">
        <ele>796</ele>
        <time>2017-08-08T14:08:49Z</time>
      </trkpt>
      <trkpt lat="44.8265" lon="5.71664">
        <ele>797</ele>
        <time>2017-08-08T14:09:09Z</time>
      </trkpt>
      <trkpt lat="44.82668" lon="5.7168">
        <ele>802</ele>
        <time>2017-08-08T14:09:25Z</time>
      </trkpt>
      <trkpt lat="44.82682" lon="5.71689">
        <ele>805</ele>
        <time>2017-08-08T14:09:27Z</time>
      </trkpt>
      <trkpt lat="44.82696" lon="5.71694">
        <ele>806</ele>
        <time>2017-08-08T14:09:31Z</time>
      </trkpt>
      <trkpt lat="44.82708" lon="5.71693">
        <ele>806</ele>
        <time>2017-08-08T14:09:39Z</time>
      </trkpt>
      <trkpt lat="44.82737" lon="5.71688">
        <ele>805</ele>
        <time>2017-08-08T14:09:51Z</time>
      </trkpt>
      <trkpt lat="44.82751" lon="5.71686">
        <ele>806</ele>
        <time>2017-08-08T14:10:08Z</time>
      </trkpt>
      <trkpt lat="44.82773" lon="5.71687">
        <ele>808</ele>
        <time>2017-08-08T14:10:18Z</time>
      </trkpt>
      <trkpt lat="44.82825" lon="5.71687">
        <ele>808</ele>
        <time>2017-08-08T14:10:23Z</time>
      </trkpt>
      <trkpt lat="44.82939" lon="5.71701">
        <ele>817</ele>
        <time>2017-08-08T14:10:42Z</time>
      </trkpt>
      <trkpt lat="44.82953" lon="5.71706">
        <ele>817</ele>
        <time>2017-08-08T14:10:55Z</time>
      </trkpt>
      <trkpt lat="44.82977" lon="5.71726">
        <ele>819</ele>
        <time>2017-08-08T14:11:09Z</time>
      </trkpt>
      <trkpt lat="44.82986" lon="5.71733">
        <ele>820</ele>
        <time>2017-08-08T14:11:25Z</time>
      </trkpt>
      <trkpt lat="44.82976" lon="5.71779">
        <ele>830</ele>
        <time>2017-08-08T14:11:27Z</time>
      </trkpt>
      <trkpt lat="44.82969" lon="5.71785">
        <ele>830</ele>
        <time>2017-08-08T14:11:31Z</time>
      </trkpt>
      <trkpt lat="44.82956" lon="5.71797">
        <ele>831</ele>
        <time>2017-08-08T14:11:47Z</time>
      </trkpt>
      <trkpt lat="44.82938" lon="5.718">
        <ele>832</ele>
        <time>2017-08-08T14:11:52Z</time>
      </trkpt>
      <trkpt lat="44.82916" lon="5.718">
        <ele>834</ele>
        <time>2017-08-08T14:11:55Z</time>
      </trkpt>
      <trkpt lat="44.829" lon="5.718">
        <ele>834</ele>
        <time>2017-08-08T14:12:00Z</time>
      </trkpt>
      <trkpt lat="44.82886" lon="5.71804">
        <ele>834</ele>
        <time>2017-08-08T14:12:20Z</time>
      </trkpt>
      <trkpt lat="44.8286" lon="5.71814">
        <ele>836</ele>
        <time>2017-08-08T14:12:23Z</time>
      </trkpt>
      <trkpt lat="44.82835" lon="5.71827">
        <ele>841</ele>
        <time>2017-08-08T14:12:37Z</time>
      </trkpt>
      <trkpt lat="44.82809" lon="5.71845">
        <ele>846</ele>
        <time>2017-08-08T14:12:49Z</time>
      </trkpt>
      <trkpt lat="44.8279" lon="5.71865">
        <ele>847</ele>
        <time>2017-08-08T14:12:57Z</time>
      </trkpt>
      <trkpt lat="44.82783" lon="5.71875">
        <ele>847</ele>
        <time>2017-08-08T14:13:06Z</time>
      </trkpt>
      <trkpt lat="44.82779" lon="5.71887">
        <ele>847</ele>
        <time>2017-08-08T14:13:11Z</time>
      </trkpt>
      <trkpt lat="44.82772" lon="5.71917">
        <ele>852</ele>
        <time>2017-08-08T14:13:22Z</time>
      </trkpt>
      <trkpt lat="44.82761" lon="5.71962">
        <ele>854</ele>
        <time>2017-08-08T14:13:31Z</time>
      </trkpt>
      <trkpt lat="44.82743" lon="5.72014">
        <ele>853</ele>
        <time>2017-08-08T14:13:33Z</time>
      </trkpt>
      <trkpt lat="44.8272" lon="5.72079">
        <ele>854</ele>
        <time>2017-08-08T14:13:39Z</time>
      </trkpt>
      <trkpt lat="44.82702" lon="5.72133">
        <ele>858</ele>
        <time>2017-08-08T14:13:55Z</time>
      </trkpt>
      <trkpt lat="44.82681" lon="5.72172">
        <ele>860</ele>
        <time>2017-08-08T14:14:05Z</time>
      </trkpt>
      <trkpt lat="44.82641" lon="5.72236">
        <ele>860</ele>
        <time>2017-08-08T14:14:14Z</time>
      </trkpt>
      <trkpt lat="44.82611" lon="5.72278">
        <ele>865</ele>
        <time>2017-08-08T14:14:25Z</time>
      </trkpt>
      <trkpt lat="44.82603" lon="5.72293">
        <ele>866</ele>
        <time>2017-08-08T14:14:39Z</time>
      </trkpt>
      <trkpt lat="44.82597" lon="5.72309">
        <ele>867</ele>
        <time>2017-08-08T14:14:54Z</time>
      </trkpt>
      <trkpt lat="44.82585" lon="5.72353">
        <ele>871</ele>
        <time>2017-08-08T14:15:14Z</time>
      </trkpt>
      <trkpt lat="44.82578" lon="5.72371">
        <ele>874</ele>
        <time>2017-08-08T14:15:21Z</time>
      </trkpt>
      <trkpt lat="44.82568" lon="5.72387">
        <ele>876</ele>
        <time>2017-08-08T14:15:38Z</time>
      </trkpt>
      <trkpt lat="44.8254" lon="5.72421">
        <ele>882</ele>
        <time>2017-08-08T14:15:46Z</time>
      </trkpt>
      <trkpt lat="44.8254" lon="5.72422">
        <ele>882</ele>
        <time>2017-08-08T14:15:58Z</time>
      </trkpt>
      <trkpt lat="44.82528" lon="5.7246">
        <ele>883</ele>
        <time>2017-08-08T14:16:13Z</time>
      </trkpt>
      <trkpt lat="44.82519" lon="5.72525">
        <ele>884</ele>
        <time>2017-08-08T14:16:27Z</time>
      </trkpt>
      <trkpt lat="44.82509" lon="5.72558">
        <ele>882</ele>
        <time>2017-08-08T14:16:41Z</time>
      </trkpt>
      <trkpt lat="44.82507" lon="5.72579">
        <ele>880</ele>
        <time>2017-08-08T14:16:48Z</time>
      </trkpt>
      <trkpt lat="44.82505" lon="5.72644">
        <ele>873</ele>
        <time>2017-08-08T14:17:05Z</time>
      </trkpt>
      <trkpt lat="44.82498" lon="5.72685">
        <ele>859</ele>
        <time>2017-08-08T14:17:11Z</time>
      </trkpt>
      <trkpt lat="44.82488" lon="5.72747">
        <ele>858</ele>
        <time>2017-08-08T14:17:22Z</time>
      </trkpt>
      <trkpt lat="44.82486" lon="5.72783">
        <ele>850</ele>
        <time>2017-08-08T14:17:28Z</time>
      </trkpt>
      <trkpt lat="44.82481" lon="5.72814">
        <ele>848</ele>
        <time>2017-08-08T14:17:45Z</time>
      </trkpt>
      <trkpt lat="44.82473" lon="5.72842">
        <ele>842</ele>
        <time>2017-08-08T14:18:02Z</time>
      </trkpt>
      <trkpt lat="44.82467" lon="5.72881">
        <ele>839</ele>
        <time>2017-08-08T14:18:11Z</time>
      </trkpt>
      <trkpt lat="44.82467" lon="5.72895">
        <ele>838</ele>
        <time>2017-08-08T14:18:18Z</time>
      </trkpt>
      <trkpt lat="44.82463" lon="5.72916">
        <ele>837</ele>
        <time>2017-08-08T14:18:23Z</time>
      </trkpt>
      <trkpt lat="44.82458" lon="5.72965">
        <ele>832</ele>
        <time>2017-08-08T14:18:38Z</time>
      </trkpt>
      <trkpt lat="44.82455" lon="5.72982">
        <ele>831</ele>
        <time>2017-08-08T14:18:57Z</time>
      </trkpt>
      <trkpt lat="44.82452" lon="5.72987">
        <ele>830</ele>
        <time>2017-08-08T14:19:10Z</time>
      </trkpt>
      <trkpt lat="44.82445" lon="5.7299">
        <ele>828</ele>
        <time>2017-08-08T14:19:25Z</time>
      </trkpt>
      <trkpt lat="44.82436" lon="5.73004">
        <ele>823</ele>
        <time>2017-08-08T14:19:40Z</time>
      </trkpt>
      <trkpt lat="44.82433" lon="5.73016">
        <ele>823</ele>
        <time>2017-08-08T14:19:45Z</time>
      </trkpt>
      <trkpt lat="44.82426" lon="5.73027">
        <ele>823</ele>
        <time>2017-08-08T14:19:54Z</time>
      </trkpt>
      <trkpt lat="44.82412" lon="5.73034">
        <ele>808</ele>
        <time>2017-08-08T14:19:56Z</time>
      </trkpt>
      <trkpt lat="44.82404" lon="5.73051">
        <ele>807</ele>
        <time>2017-08-08T14:20:10Z</time>
      </trkpt>
      <trkpt lat="44.82396" lon="5.73077">
        <ele>807</ele>
        <time>2017-08-08T14:20:26Z</time>
      </trkpt>
      <trkpt lat="44.82396" lon="5.73105">
        <ele>804</ele>
        <time>2017-08-08T14:20:43Z</time>
      </trkpt>
      <trkpt lat="44.82388" lon="5.7312">
        <ele>802</ele>
        <time>2017-08-08T14:20:45Z</time>
      </trkpt>
      <trkpt lat="44.82372" lon="5.7316">
        <ele>799</ele>
        <time>2017-08-08T14:20:57Z</time>
      </trkpt>
      <trkpt lat="44.8236" lon="5.73182">
        <ele>796</ele>
        <time>2017-08-08T14:21:15Z</time>
      </trkpt>
      <trkpt lat="44.82345" lon="5.732">
        <ele>795</ele>
        <time>2017-08-08T14:21:29Z</time>
      </trkpt>
      <trkpt lat="44.82322" lon="5.73217">
        <ele>782</ele>
        <time>2017-08-08T14:21:47Z</time>
      </trkpt>
      <trkpt lat="44.82305" lon="5.73228">
        <ele>781</ele>
        <time>2017-08-08T14:21:51Z</time>
      </trkpt>
      <trkpt lat="44.823" lon="5.73237">
        <ele>781</ele>
        <time>2017-08-08T14:22:11Z</time>
      </trkpt>
      <trkpt lat="44.82283" lon="5.73283">
        <ele>777</ele>
        <time>2017-08-08T14:22:25Z</time>
      </trkpt>
      <trkpt lat="44.82274" lon="5.7333">
        <ele>775</ele>
        <time>2017-08-08T14:22:45Z</time>
      </trkpt>
      <trkpt lat="44.82264" lon="5.73374">
        <ele>773</ele>
        <time>2017-08-08T14:22:51Z</time>
      </trkpt>
      <trkpt lat="44.82252" lon="5.73406">
        <ele>771</ele>
        <time>2017-08-08T14:23:10Z</time>
      </trkpt>
      <trkpt lat="44.82236" lon="5.73437">
        <ele>767</ele>
        <time>2017-08-08T14:23:23Z</time>
      </trkpt>
      <trkpt lat="44.82216" lon="5.73469">
        <ele>766</ele>
        <time>2017-08-08T14:23:39Z</time>
      </trkpt>
      <trkpt lat="44.8221" lon="5.73483">
        <ele>766</ele>
        <time>2017-08-08T14:23:45Z</time>
      </trkpt>
      <trkpt lat="44.82203" lon="5.73511">
        <ele>766</ele>
        <time>2017-08-08T14:23:53Z</time>
      </trkpt>
      <trkpt lat="44.82194" lon="5.7354">
        <ele>766</ele>
        <time>2017-08-08T14:24:13Z</time>
      </trkpt>
      <trkpt lat="44.82177" lon="5.73594">
        <ele>767</ele>
        <time>2017-08-08T14:24:33Z</time>
      </trkpt>
      <trkpt lat="44.82165" lon="5.73634">
        <ele>766</ele>
        <time>2017-08-08T14:24:52Z</time>
      </trkpt>
      <trkpt lat="44.82153" lon="5.73672">
        <ele>768</ele>
        <time>2017-08-08T14:25:04Z</time>
      </trkpt>
      <trkpt lat="44.82141" lon="5.73709">
        <ele>768</ele>
        <time>2017-08-08T14:25:14Z</time>
      </trkpt>
      <trkpt lat="44.82131" lon="5.73728">
        <ele>768</ele>
        <time>2017-08-08T14:25:32Z</time>
      </trkpt>
      <trkpt lat="44.82117" lon="5.73752">
        <ele>771</ele>
        <time>2017-08-08T14:25:35Z</time>
      </trkpt>
      <trkpt lat="44.82105" lon="5.7377">
        <ele>771</ele>
        <time>2017-08-08T14:25:40Z</time>
      </trkpt>
      <trkpt lat="44.82082" lon="5.73803">
        <ele>771</ele>
        <time>2017-08-08T14:25:57Z</time>
      </trkpt>
      <trkpt lat="44.82039" lon="5.73863">
        <ele>773</ele>
        <time>2017-08-08T14:26:03Z</time>
      </trkpt>
      <trkpt lat="44.82035" lon="5.73873">
        <ele>773</ele>
        <time>2017-08-08T14:26:18Z</time>
      </trkpt>
      <trkpt lat="44.82034" lon="5.73877">
        <ele>773</ele>
        <time>2017-08-08T14:26:20Z</time>
      </trkpt>
      <trkpt lat="44.82029" lon="5.73881">
        <ele>772</ele>
        <time>2017-08-08T14:26:39Z</time>
      </trkpt>
      <trkpt lat="44.82019" lon="5.73892">
        <ele>772</ele>
        <time>2017-08-08T14:26:55Z</time>
      </trkpt>
      <trkpt lat="44.82009" lon="5.73907">
        <ele>771</ele>
        <time>2017-08-08T14:27:10Z</time>
      </trkpt>
      <trkpt lat="44.82001" lon="5.73921">
        <ele>770</ele>
        <time>2017-08-08T14:27:14Z</time>
      </trkpt>
      <trkpt lat="44.81993" lon="5.73945">
        <ele>764</ele>
        <time>2017-08-08T14:27:32Z</time>
      </trkpt>
      <trkpt lat="44.81984" lon="5.74002">
        <ele>767</ele>
        <time>2017-08-08T14:27:34Z</time>
      </trkpt>
      <trkpt lat="44.81975" lon="5.74068">
        <ele>765</ele>
        <time>2017-08-08T14:27:36Z</time>
      </trkpt>
      <trkpt lat="44.81966" lon="5.74093">
        <ele>767</ele>
        <time>2017-08-08T14:27:38Z</time>
      </trkpt>
      <trkpt lat="44.81953" lon="5.74116">
        <ele>766</ele>
        <time>2017-08-08T14:27:46Z</time>
      </trkpt>
      <trkpt lat="44.81923" lon="5.74158">
        <ele>764</ele>
        <time>2017-08-08T14:27:51Z</time>
      </trkpt>
      <trkpt lat="44.81898" lon="5.74191">
        <ele>758</ele>
        <time>2017-08-08T14:28:02Z</time>
      </trkpt>
      <trkpt lat="44.81885" lon="5.74213">
        <ele>757</ele>
        <time>2017-08-08T14:28:21Z</time>
      </trkpt>
      <trkpt lat="44.8188" lon="5.74233">
        <ele>757</ele>
        <time>2017-08-08T14:28:37Z</time>
      </trkpt>
      <trkpt lat="44.81885" lon="5.74257">
        <ele>757</ele>
        <time>2017-08-08T14:28:49Z</time>
      </trkpt>
      <trkpt lat="44.81893" lon="5.74278">
        <ele>757</ele>
        <time>2017-08-08T14:29:01Z</time>
      </trkpt>
      <trkpt lat="44.81904" lon="5.74314">
        <ele>757</ele>
        <time>2017-08-08T14:29:04Z</time>
      </trkpt>
      <trkpt lat="44.81907" lon="5.74341">
        <ele>757</ele>
        <time>2017-08-08T14:29:16Z</time>
      </trkpt>
      <trkpt lat="44.81905" lon="5.7436">
        <ele>755</ele>
        <time>2017-08-08T14:29:29Z</time>
      </trkpt>
      <trkpt lat="44.81894" lon="5.74375">
        <ele>753</ele>
        <time>2017-08-08T14:29:36Z</time>
      </trkpt>
      <trkpt lat="44.81881" lon="5.74382">
        <ele>752</ele>
        <time>2017-08-08T14:29:55Z</time>
      </trkpt>
      <trkpt lat="44.81859" lon="5.74386">
        <ele>751</ele>
        <time>2017-08-08T14:30:04Z</time>
      </trkpt>
      <trkpt lat="44.81826" lon="5.7439">
        <ele>747</ele>
        <time>2017-08-08T14:30:24Z</time>
      </trkpt>
      <trkpt lat="44.81813" lon="5.74388">
        <ele>747</ele>
        <time>2017-08-08T14:30:31Z</time>
      </trkpt>
      <trkpt lat="44.81749" lon="5.74368">
        <ele>749</ele>
        <time>2017-08-08T14:30:33Z</time>
      </trkpt>
      <trkpt lat="44.81726" lon="5.74366">
        <ele>749</ele>
        <time>2017-08-08T14:30:51Z</time>
      </trkpt>
      <trkpt lat="44.81714" lon="5.7437">
        <ele>749</ele>
        <time>2017-08-08T14:30:54Z</time>
      </trkpt>
      <trkpt lat="44.81695" lon="5.74382">
        <ele>749</ele>
        <time>2017-08-08T14:31:01Z</time>
      </trkpt>
      <trkpt lat="44.81677" lon="5.74401">
        <ele>751</ele>
        <time>2017-08-08T14:31:04Z</time>
      </trkpt>
      <trkpt lat="44.81664" lon="5.74418">
        <ele>753</ele>
        <time>2017-08-08T14:31:10Z</time>
      </trkpt>
      <trkpt lat="44.81656" lon="5.74433">
        <ele>755</ele>
        <time>2017-08-08T14:31:19Z</time>
      </trkpt>
      <trkpt lat="44.81646" lon="5.74459">
        <ele>757</ele>
        <time>2017-08-08T14:31:36Z</time>
      </trkpt>
      <trkpt lat="44.81642" lon="5.74484">
        <ele>758</ele>
        <time>2017-08-08T14:31:50Z</time>
      </trkpt>
      <trkpt lat="44.81642" lon="5.74529">
        <ele>762</ele>
        <time>2017-08-08T14:32:04Z</time>
      </trkpt>
      <trkpt lat="44.81651" lon="5.74633">
        <ele>765</ele>
        <time>2017-08-08T14:32:09Z</time>
      </trkpt>
      <trkpt lat="44.81661" lon="5.74745">
        <ele>768</ele>
        <time>2017-08-08T14:32:24Z</time>
      </trkpt>
      <trkpt lat="44.81667" lon="5.74798">
        <ele>767</ele>
        <time>2017-08-08T14:32:40Z</time>
      </trkpt>
      <trkpt lat="44.81668" lon="5.74808">
        <ele>767</ele>
        <time>2017-08-08T14:33:00Z</time>
      </trkpt>
      <trkpt lat="44.81656" lon="5.7481">
        <ele>769</ele>
        <time>2017-08-08T14:33:06Z</time>
      </trkpt>
      <trkpt lat="44.8165" lon="5.74812">
        <ele>769</ele>
        <time>2017-08-08T14:33:19Z</time>
      </trkpt>
      <trkpt lat="44.81604" lon="5.74814">
        <ele>770</ele>
        <time>2017-08-08T14:33:37Z</time>
      </trkpt>
      <trkpt lat="44.81591" lon="5.74815">
        <ele>770</ele>
        <time>2017-08-08T14:33:39Z</time>
      </trkpt>
      <trkpt lat="44.81584" lon="5.74818">
        <ele>770</ele>
        <time>2017-08-08T14:33:41Z</time>
      </trkpt>
      <trkpt lat="44.81542" lon="5.74842">
        <ele>770</ele>
        <time>2017-08-08T14:33:43Z</time>
      </trkpt>
      <trkpt lat="44.8152" lon="5.74859">
        <ele>769</ele>
        <time>2017-08-08T14:33:52Z</time>
      </trkpt>
      <trkpt lat="44.81507" lon="5.74872">
        <ele>769</ele>
        <time>2017-08-08T14:33:55Z</time>
      </trkpt>
      <trkpt lat="44.81501" lon="5.74869">
        <ele>769</ele>
        <time>2017-08-08T14:34:02Z</time>
      </trkpt>
    </trkseg>
  </trk>
</gpx>